<?xml version="1.0" encoding="UTF-8" standalone="no" ?>
<gpx xmlns="http://www.topografix.com/GPX/1/1" xmlns:xsi="http://www.w3.org/2001/XMLSchema-instance" xsi:schemaLocation="http://www.topografix.com/GPX/1/1 http://www.topografix.com/GPX/1/1/gpx.xsd" version="1.1" creator="VisuGPX - https://www.visugpx.com">
  <metadata>
    <name>olonne à vélo</name>
    <desc><![CDATA[Sortie vtt familiale du 27/05/2012 depuis havre d\'olonne]]></desc>
  </metadata>
  <trk>
    <name><![CDATA[Sables on GPSies.com]]></name>
    <trkseg>
      <trkpt lat="46.50637" lon="-1.78001">
        <ele>-8.515</ele>
        <time>2012-05-27T11:27:28Z</time>
      </trkpt>
      <trkpt lat="46.50628" lon="-1.78012">
        <ele>-3.227</ele>
        <time>2012-05-27T11:27:36Z</time>
      </trkpt>
      <trkpt lat="46.50612" lon="-1.78029">
        <ele>4.463</ele>
        <time>2012-05-27T11:27:42Z</time>
      </trkpt>
      <trkpt lat="46.50604" lon="-1.78027">
        <ele>4.463</ele>
        <time>2012-05-27T11:27:45Z</time>
      </trkpt>
      <trkpt lat="46.50596" lon="-1.78014">
        <ele>6.386</ele>
        <time>2012-05-27T11:27:48Z</time>
      </trkpt>
      <trkpt lat="46.50577" lon="-1.7796">
        <ele>9.27</ele>
        <time>2012-05-27T11:27:57Z</time>
      </trkpt>
      <trkpt lat="46.50552" lon="-1.77913">
        <ele>9.27</ele>
        <time>2012-05-27T11:28:05Z</time>
      </trkpt>
      <trkpt lat="46.50529" lon="-1.77871">
        <ele>7.828</ele>
        <time>2012-05-27T11:28:12Z</time>
      </trkpt>
      <trkpt lat="46.50509" lon="-1.77821">
        <ele>8.309</ele>
        <time>2012-05-27T11:28:20Z</time>
      </trkpt>
      <trkpt lat="46.50496" lon="-1.7779">
        <ele>6.386</ele>
        <time>2012-05-27T11:28:26Z</time>
      </trkpt>
      <trkpt lat="46.50492" lon="-1.77776">
        <ele>2.541</ele>
        <time>2012-05-27T11:28:32Z</time>
      </trkpt>
      <trkpt lat="46.5049" lon="-1.77775">
        <ele>2.06</ele>
        <time>2012-05-27T11:28:34Z</time>
      </trkpt>
      <trkpt lat="46.50486" lon="-1.77771">
        <ele>1.099</ele>
        <time>2012-05-27T11:28:46Z</time>
      </trkpt>
      <trkpt lat="46.50494" lon="-1.77765">
        <ele>-1.785</ele>
        <time>2012-05-27T11:28:51Z</time>
      </trkpt>
      <trkpt lat="46.50519" lon="-1.77761">
        <ele>-0.824</ele>
        <time>2012-05-27T11:28:58Z</time>
      </trkpt>
      <trkpt lat="46.50553" lon="-1.77754">
        <ele>-0.824</ele>
        <time>2012-05-27T11:29:06Z</time>
      </trkpt>
      <trkpt lat="46.50594" lon="-1.77748">
        <ele>-0.343</ele>
        <time>2012-05-27T11:29:15Z</time>
      </trkpt>
      <trkpt lat="46.50634" lon="-1.77744">
        <ele>1.099</ele>
        <time>2012-05-27T11:29:24Z</time>
      </trkpt>
      <trkpt lat="46.50661" lon="-1.7774">
        <ele>2.541</ele>
        <time>2012-05-27T11:29:32Z</time>
      </trkpt>
      <trkpt lat="46.50674" lon="-1.77738">
        <ele>4.463</ele>
        <time>2012-05-27T11:29:39Z</time>
      </trkpt>
      <trkpt lat="46.50676" lon="-1.77737">
        <ele>5.425</ele>
        <time>2012-05-27T11:29:48Z</time>
      </trkpt>
      <trkpt lat="46.5068" lon="-1.77736">
        <ele>5.905</ele>
        <time>2012-05-27T11:30:00Z</time>
      </trkpt>
      <trkpt lat="46.50696" lon="-1.77734">
        <ele>4.944</ele>
        <time>2012-05-27T11:30:04Z</time>
      </trkpt>
      <trkpt lat="46.50722" lon="-1.77731">
        <ele>3.983</ele>
        <time>2012-05-27T11:30:11Z</time>
      </trkpt>
      <trkpt lat="46.50745" lon="-1.77728">
        <ele>5.425</ele>
        <time>2012-05-27T11:30:18Z</time>
      </trkpt>
      <trkpt lat="46.50785" lon="-1.77722">
        <ele>4.944</ele>
        <time>2012-05-27T11:30:29Z</time>
      </trkpt>
      <trkpt lat="46.50832" lon="-1.77716">
        <ele>3.021</ele>
        <time>2012-05-27T11:30:41Z</time>
      </trkpt>
      <trkpt lat="46.50866" lon="-1.77712">
        <ele>1.099</ele>
        <time>2012-05-27T11:30:49Z</time>
      </trkpt>
      <trkpt lat="46.50899" lon="-1.77707">
        <ele>3.983</ele>
        <time>2012-05-27T11:30:58Z</time>
      </trkpt>
      <trkpt lat="46.50938" lon="-1.777">
        <ele>5.425</ele>
        <time>2012-05-27T11:31:08Z</time>
      </trkpt>
      <trkpt lat="46.50967" lon="-1.77697">
        <ele>8.309</ele>
        <time>2012-05-27T11:31:16Z</time>
      </trkpt>
      <trkpt lat="46.51001" lon="-1.77692">
        <ele>8.789</ele>
        <time>2012-05-27T11:31:25Z</time>
      </trkpt>
      <trkpt lat="46.51038" lon="-1.77685">
        <ele>8.789</ele>
        <time>2012-05-27T11:31:35Z</time>
      </trkpt>
      <trkpt lat="46.51063" lon="-1.77683">
        <ele>9.27</ele>
        <time>2012-05-27T11:31:42Z</time>
      </trkpt>
      <trkpt lat="46.51093" lon="-1.7768">
        <ele>9.751</ele>
        <time>2012-05-27T11:31:50Z</time>
      </trkpt>
      <trkpt lat="46.51115" lon="-1.77676">
        <ele>9.27</ele>
        <time>2012-05-27T11:31:56Z</time>
      </trkpt>
      <trkpt lat="46.51137" lon="-1.77672">
        <ele>9.27</ele>
        <time>2012-05-27T11:32:02Z</time>
      </trkpt>
      <trkpt lat="46.51168" lon="-1.77669">
        <ele>9.27</ele>
        <time>2012-05-27T11:32:10Z</time>
      </trkpt>
      <trkpt lat="46.512" lon="-1.77664">
        <ele>9.751</ele>
        <time>2012-05-27T11:32:18Z</time>
      </trkpt>
      <trkpt lat="46.51222" lon="-1.77654">
        <ele>10.231</ele>
        <time>2012-05-27T11:32:24Z</time>
      </trkpt>
      <trkpt lat="46.51235" lon="-1.77646">
        <ele>9.751</ele>
        <time>2012-05-27T11:32:28Z</time>
      </trkpt>
      <trkpt lat="46.51246" lon="-1.77651">
        <ele>9.751</ele>
        <time>2012-05-27T11:32:31Z</time>
      </trkpt>
      <trkpt lat="46.51266" lon="-1.77653">
        <ele>10.231</ele>
        <time>2012-05-27T11:32:36Z</time>
      </trkpt>
      <trkpt lat="46.51304" lon="-1.7765">
        <ele>10.712</ele>
        <time>2012-05-27T11:32:46Z</time>
      </trkpt>
      <trkpt lat="46.51315" lon="-1.77647">
        <ele>10.712</ele>
        <time>2012-05-27T11:32:51Z</time>
      </trkpt>
      <trkpt lat="46.51335" lon="-1.77633">
        <ele>11.193</ele>
        <time>2012-05-27T11:32:57Z</time>
      </trkpt>
      <trkpt lat="46.5135" lon="-1.77636">
        <ele>11.193</ele>
        <time>2012-05-27T11:33:02Z</time>
      </trkpt>
      <trkpt lat="46.51372" lon="-1.77642">
        <ele>11.193</ele>
        <time>2012-05-27T11:33:08Z</time>
      </trkpt>
      <trkpt lat="46.5141" lon="-1.77637">
        <ele>11.193</ele>
        <time>2012-05-27T11:33:17Z</time>
      </trkpt>
      <trkpt lat="46.51447" lon="-1.77632">
        <ele>11.193</ele>
        <time>2012-05-27T11:33:26Z</time>
      </trkpt>
      <trkpt lat="46.51486" lon="-1.77626">
        <ele>11.673</ele>
        <time>2012-05-27T11:33:35Z</time>
      </trkpt>
      <trkpt lat="46.51525" lon="-1.77621">
        <ele>10.712</ele>
        <time>2012-05-27T11:33:43Z</time>
      </trkpt>
      <trkpt lat="46.51567" lon="-1.77615">
        <ele>10.712</ele>
        <time>2012-05-27T11:33:51Z</time>
      </trkpt>
      <trkpt lat="46.51602" lon="-1.77609">
        <ele>9.751</ele>
        <time>2012-05-27T11:33:58Z</time>
      </trkpt>
      <trkpt lat="46.5163" lon="-1.77606">
        <ele>8.789</ele>
        <time>2012-05-27T11:34:04Z</time>
      </trkpt>
      <trkpt lat="46.51661" lon="-1.77602">
        <ele>8.789</ele>
        <time>2012-05-27T11:34:11Z</time>
      </trkpt>
      <trkpt lat="46.51694" lon="-1.77597">
        <ele>8.309</ele>
        <time>2012-05-27T11:34:18Z</time>
      </trkpt>
      <trkpt lat="46.51738" lon="-1.77592">
        <ele>8.309</ele>
        <time>2012-05-27T11:34:27Z</time>
      </trkpt>
      <trkpt lat="46.51765" lon="-1.77588">
        <ele>8.309</ele>
        <time>2012-05-27T11:34:34Z</time>
      </trkpt>
      <trkpt lat="46.51801" lon="-1.77582">
        <ele>8.309</ele>
        <time>2012-05-27T11:34:44Z</time>
      </trkpt>
      <trkpt lat="46.5184" lon="-1.77577">
        <ele>8.789</ele>
        <time>2012-05-27T11:34:55Z</time>
      </trkpt>
      <trkpt lat="46.51883" lon="-1.7757">
        <ele>7.828</ele>
        <time>2012-05-27T11:35:07Z</time>
      </trkpt>
      <trkpt lat="46.51917" lon="-1.77566">
        <ele>8.789</ele>
        <time>2012-05-27T11:35:16Z</time>
      </trkpt>
      <trkpt lat="46.51948" lon="-1.77562">
        <ele>8.789</ele>
        <time>2012-05-27T11:35:24Z</time>
      </trkpt>
      <trkpt lat="46.5198" lon="-1.77559">
        <ele>9.751</ele>
        <time>2012-05-27T11:35:31Z</time>
      </trkpt>
      <trkpt lat="46.52008" lon="-1.77555">
        <ele>9.751</ele>
        <time>2012-05-27T11:35:38Z</time>
      </trkpt>
      <trkpt lat="46.52042" lon="-1.7755">
        <ele>10.231</ele>
        <time>2012-05-27T11:35:47Z</time>
      </trkpt>
      <trkpt lat="46.52086" lon="-1.77544">
        <ele>9.751</ele>
        <time>2012-05-27T11:35:58Z</time>
      </trkpt>
      <trkpt lat="46.52132" lon="-1.77538">
        <ele>9.751</ele>
        <time>2012-05-27T11:36:08Z</time>
      </trkpt>
      <trkpt lat="46.52158" lon="-1.77534">
        <ele>9.27</ele>
        <time>2012-05-27T11:36:15Z</time>
      </trkpt>
      <trkpt lat="46.52181" lon="-1.77531">
        <ele>10.712</ele>
        <time>2012-05-27T11:36:22Z</time>
      </trkpt>
      <trkpt lat="46.52224" lon="-1.77525">
        <ele>10.712</ele>
        <time>2012-05-27T11:36:31Z</time>
      </trkpt>
      <trkpt lat="46.52264" lon="-1.77519">
        <ele>10.712</ele>
        <time>2012-05-27T11:36:40Z</time>
      </trkpt>
      <trkpt lat="46.52309" lon="-1.77513">
        <ele>11.673</ele>
        <time>2012-05-27T11:36:51Z</time>
      </trkpt>
      <trkpt lat="46.52351" lon="-1.77508">
        <ele>12.634</ele>
        <time>2012-05-27T11:37:02Z</time>
      </trkpt>
      <trkpt lat="46.52386" lon="-1.77501">
        <ele>14.076</ele>
        <time>2012-05-27T11:37:12Z</time>
      </trkpt>
      <trkpt lat="46.52414" lon="-1.77497">
        <ele>15.518</ele>
        <time>2012-05-27T11:37:19Z</time>
      </trkpt>
      <trkpt lat="46.52453" lon="-1.77494">
        <ele>16.48</ele>
        <time>2012-05-27T11:37:28Z</time>
      </trkpt>
      <trkpt lat="46.52491" lon="-1.77489">
        <ele>17.922</ele>
        <time>2012-05-27T11:37:37Z</time>
      </trkpt>
      <trkpt lat="46.52533" lon="-1.77484">
        <ele>19.364</ele>
        <time>2012-05-27T11:37:47Z</time>
      </trkpt>
      <trkpt lat="46.52574" lon="-1.77478">
        <ele>19.844</ele>
        <time>2012-05-27T11:37:57Z</time>
      </trkpt>
      <trkpt lat="46.52607" lon="-1.77474">
        <ele>19.844</ele>
        <time>2012-05-27T11:38:05Z</time>
      </trkpt>
      <trkpt lat="46.5265" lon="-1.77468">
        <ele>20.325</ele>
        <time>2012-05-27T11:38:15Z</time>
      </trkpt>
      <trkpt lat="46.52688" lon="-1.77463">
        <ele>18.883</ele>
        <time>2012-05-27T11:38:23Z</time>
      </trkpt>
      <trkpt lat="46.52726" lon="-1.77457">
        <ele>18.883</ele>
        <time>2012-05-27T11:38:31Z</time>
      </trkpt>
      <trkpt lat="46.52771" lon="-1.77451">
        <ele>18.402</ele>
        <time>2012-05-27T11:38:41Z</time>
      </trkpt>
      <trkpt lat="46.52809" lon="-1.77446">
        <ele>18.402</ele>
        <time>2012-05-27T11:38:50Z</time>
      </trkpt>
      <trkpt lat="46.5284" lon="-1.77441">
        <ele>18.402</ele>
        <time>2012-05-27T11:38:58Z</time>
      </trkpt>
      <trkpt lat="46.52887" lon="-1.77436">
        <ele>17.922</ele>
        <time>2012-05-27T11:39:09Z</time>
      </trkpt>
      <trkpt lat="46.52925" lon="-1.77432">
        <ele>16.96</ele>
        <time>2012-05-27T11:39:17Z</time>
      </trkpt>
      <trkpt lat="46.52984" lon="-1.77423">
        <ele>15.518</ele>
        <time>2012-05-27T11:39:29Z</time>
      </trkpt>
      <trkpt lat="46.53032" lon="-1.77416">
        <ele>14.076</ele>
        <time>2012-05-27T11:39:39Z</time>
      </trkpt>
      <trkpt lat="46.53074" lon="-1.7741">
        <ele>12.634</ele>
        <time>2012-05-27T11:39:48Z</time>
      </trkpt>
      <trkpt lat="46.53104" lon="-1.77406">
        <ele>12.154</ele>
        <time>2012-05-27T11:39:54Z</time>
      </trkpt>
      <trkpt lat="46.53152" lon="-1.77399">
        <ele>12.634</ele>
        <time>2012-05-27T11:40:02Z</time>
      </trkpt>
      <trkpt lat="46.53218" lon="-1.77389">
        <ele>12.634</ele>
        <time>2012-05-27T11:40:12Z</time>
      </trkpt>
      <trkpt lat="46.53272" lon="-1.77382">
        <ele>13.115</ele>
        <time>2012-05-27T11:40:20Z</time>
      </trkpt>
      <trkpt lat="46.53325" lon="-1.77375">
        <ele>15.999</ele>
        <time>2012-05-27T11:40:28Z</time>
      </trkpt>
      <trkpt lat="46.53373" lon="-1.77365">
        <ele>20.325</ele>
        <time>2012-05-27T11:40:35Z</time>
      </trkpt>
      <trkpt lat="46.53425" lon="-1.77343">
        <ele>23.209</ele>
        <time>2012-05-27T11:40:43Z</time>
      </trkpt>
      <trkpt lat="46.53483" lon="-1.7732">
        <ele>25.132</ele>
        <time>2012-05-27T11:40:52Z</time>
      </trkpt>
      <trkpt lat="46.5353" lon="-1.77302">
        <ele>26.574</ele>
        <time>2012-05-27T11:41:00Z</time>
      </trkpt>
      <trkpt lat="46.53555" lon="-1.77293">
        <ele>27.054</ele>
        <time>2012-05-27T11:41:06Z</time>
      </trkpt>
      <trkpt lat="46.5358" lon="-1.77282">
        <ele>28.016</ele>
        <time>2012-05-27T11:41:14Z</time>
      </trkpt>
      <trkpt lat="46.53593" lon="-1.77276">
        <ele>27.535</ele>
        <time>2012-05-27T11:41:21Z</time>
      </trkpt>
      <trkpt lat="46.53594" lon="-1.77275">
        <ele>28.977</ele>
        <time>2012-05-27T11:41:22Z</time>
      </trkpt>
      <trkpt lat="46.53594" lon="-1.77275">
        <ele>32.822</ele>
        <time>2012-05-27T11:41:25Z</time>
      </trkpt>
      <trkpt lat="46.53604" lon="-1.77282">
        <ele>44.839</ele>
        <time>2012-05-27T11:41:44Z</time>
      </trkpt>
      <trkpt lat="46.5362" lon="-1.77276">
        <ele>42.435</ele>
        <time>2012-05-27T11:41:48Z</time>
      </trkpt>
      <trkpt lat="46.53653" lon="-1.77259">
        <ele>39.071</ele>
        <time>2012-05-27T11:41:57Z</time>
      </trkpt>
      <trkpt lat="46.53688" lon="-1.77244">
        <ele>36.667</ele>
        <time>2012-05-27T11:42:06Z</time>
      </trkpt>
      <trkpt lat="46.53724" lon="-1.77231">
        <ele>35.706</ele>
        <time>2012-05-27T11:42:15Z</time>
      </trkpt>
      <trkpt lat="46.53728" lon="-1.77229">
        <ele>34.745</ele>
        <time>2012-05-27T11:42:16Z</time>
      </trkpt>
      <trkpt lat="46.53764" lon="-1.77214">
        <ele>31.861</ele>
        <time>2012-05-27T11:42:24Z</time>
      </trkpt>
      <trkpt lat="46.53802" lon="-1.77198">
        <ele>29.458</ele>
        <time>2012-05-27T11:42:32Z</time>
      </trkpt>
      <trkpt lat="46.53846" lon="-1.77179">
        <ele>27.054</ele>
        <time>2012-05-27T11:42:42Z</time>
      </trkpt>
      <trkpt lat="46.53878" lon="-1.77166">
        <ele>24.651</ele>
        <time>2012-05-27T11:42:48Z</time>
      </trkpt>
      <trkpt lat="46.53911" lon="-1.77152">
        <ele>22.248</ele>
        <time>2012-05-27T11:42:54Z</time>
      </trkpt>
      <trkpt lat="46.53946" lon="-1.77138">
        <ele>19.844</ele>
        <time>2012-05-27T11:43:01Z</time>
      </trkpt>
      <trkpt lat="46.53983" lon="-1.77123">
        <ele>18.402</ele>
        <time>2012-05-27T11:43:08Z</time>
      </trkpt>
      <trkpt lat="46.54013" lon="-1.77112">
        <ele>16.96</ele>
        <time>2012-05-27T11:43:13Z</time>
      </trkpt>
      <trkpt lat="46.54022" lon="-1.77105">
        <ele>15.999</ele>
        <time>2012-05-27T11:43:17Z</time>
      </trkpt>
      <trkpt lat="46.54023" lon="-1.77105">
        <ele>15.999</ele>
        <time>2012-05-27T11:43:18Z</time>
      </trkpt>
      <trkpt lat="46.54031" lon="-1.77103">
        <ele>14.076</ele>
        <time>2012-05-27T11:43:26Z</time>
      </trkpt>
      <trkpt lat="46.54042" lon="-1.77098">
        <ele>13.115</ele>
        <time>2012-05-27T11:43:29Z</time>
      </trkpt>
      <trkpt lat="46.54064" lon="-1.77077">
        <ele>11.193</ele>
        <time>2012-05-27T11:43:34Z</time>
      </trkpt>
      <trkpt lat="46.54082" lon="-1.77077">
        <ele>9.751</ele>
        <time>2012-05-27T11:43:37Z</time>
      </trkpt>
      <trkpt lat="46.54094" lon="-1.77074">
        <ele>9.27</ele>
        <time>2012-05-27T11:43:39Z</time>
      </trkpt>
      <trkpt lat="46.54158" lon="-1.7705">
        <ele>6.386</ele>
        <time>2012-05-27T11:43:49Z</time>
      </trkpt>
      <trkpt lat="46.54218" lon="-1.77023">
        <ele>6.386</ele>
        <time>2012-05-27T11:43:59Z</time>
      </trkpt>
      <trkpt lat="46.54231" lon="-1.7701">
        <ele>7.828</ele>
        <time>2012-05-27T11:44:02Z</time>
      </trkpt>
      <trkpt lat="46.54251" lon="-1.77003">
        <ele>9.27</ele>
        <time>2012-05-27T11:44:06Z</time>
      </trkpt>
      <trkpt lat="46.54259" lon="-1.77016">
        <ele>9.27</ele>
        <time>2012-05-27T11:44:09Z</time>
      </trkpt>
      <trkpt lat="46.54257" lon="-1.77035">
        <ele>8.309</ele>
        <time>2012-05-27T11:44:13Z</time>
      </trkpt>
      <trkpt lat="46.54255" lon="-1.77039">
        <ele>8.309</ele>
        <time>2012-05-27T11:44:14Z</time>
      </trkpt>
      <trkpt lat="46.54247" lon="-1.77052">
        <ele>7.347</ele>
        <time>2012-05-27T11:44:20Z</time>
      </trkpt>
      <trkpt lat="46.54243" lon="-1.7707">
        <ele>7.828</ele>
        <time>2012-05-27T11:44:23Z</time>
      </trkpt>
      <trkpt lat="46.54244" lon="-1.77119">
        <ele>7.347</ele>
        <time>2012-05-27T11:44:29Z</time>
      </trkpt>
      <trkpt lat="46.54237" lon="-1.77151">
        <ele>7.828</ele>
        <time>2012-05-27T11:44:34Z</time>
      </trkpt>
      <trkpt lat="46.5422" lon="-1.77184">
        <ele>8.309</ele>
        <time>2012-05-27T11:44:41Z</time>
      </trkpt>
      <trkpt lat="46.542" lon="-1.77217">
        <ele>8.309</ele>
        <time>2012-05-27T11:44:49Z</time>
      </trkpt>
      <trkpt lat="46.54184" lon="-1.77246">
        <ele>7.347</ele>
        <time>2012-05-27T11:44:56Z</time>
      </trkpt>
      <trkpt lat="46.54177" lon="-1.77257">
        <ele>6.866</ele>
        <time>2012-05-27T11:44:59Z</time>
      </trkpt>
      <trkpt lat="46.54179" lon="-1.77273">
        <ele>5.905</ele>
        <time>2012-05-27T11:45:03Z</time>
      </trkpt>
      <trkpt lat="46.54182" lon="-1.77276">
        <ele>5.905</ele>
        <time>2012-05-27T11:45:04Z</time>
      </trkpt>
      <trkpt lat="46.54192" lon="-1.77286">
        <ele>5.425</ele>
        <time>2012-05-27T11:45:11Z</time>
      </trkpt>
      <trkpt lat="46.54194" lon="-1.77283">
        <ele>5.905</ele>
        <time>2012-05-27T11:45:48Z</time>
      </trkpt>
      <trkpt lat="46.5419" lon="-1.77281">
        <ele>5.905</ele>
        <time>2012-05-27T11:45:59Z</time>
      </trkpt>
      <trkpt lat="46.54189" lon="-1.77281">
        <ele>5.905</ele>
        <time>2012-05-27T11:46:00Z</time>
      </trkpt>
      <trkpt lat="46.54181" lon="-1.77282">
        <ele>0.137</ele>
        <time>2012-05-27T11:48:58Z</time>
      </trkpt>
      <trkpt lat="46.54189" lon="-1.77284">
        <ele>1.579</ele>
        <time>2012-05-27T11:49:08Z</time>
      </trkpt>
      <trkpt lat="46.5419" lon="-1.77284">
        <ele>2.06</ele>
        <time>2012-05-27T11:49:09Z</time>
      </trkpt>
      <trkpt lat="46.54198" lon="-1.77284">
        <ele>-3.227</ele>
        <time>2012-05-27T11:50:14Z</time>
      </trkpt>
      <trkpt lat="46.54205" lon="-1.77295">
        <ele>-3.227</ele>
        <time>2012-05-27T11:50:20Z</time>
      </trkpt>
      <trkpt lat="46.54202" lon="-1.77301">
        <ele>-2.266</ele>
        <time>2012-05-27T11:50:23Z</time>
      </trkpt>
      <trkpt lat="46.54206" lon="-1.77311">
        <ele>-2.747</ele>
        <time>2012-05-27T11:50:26Z</time>
      </trkpt>
      <trkpt lat="46.54214" lon="-1.7732">
        <ele>-2.747</ele>
        <time>2012-05-27T11:50:28Z</time>
      </trkpt>
      <trkpt lat="46.54222" lon="-1.77343">
        <ele>-3.708</ele>
        <time>2012-05-27T11:50:32Z</time>
      </trkpt>
      <trkpt lat="46.54224" lon="-1.77372">
        <ele>-4.669</ele>
        <time>2012-05-27T11:50:37Z</time>
      </trkpt>
      <trkpt lat="46.54217" lon="-1.77387">
        <ele>-4.189</ele>
        <time>2012-05-27T11:50:41Z</time>
      </trkpt>
      <trkpt lat="46.54221" lon="-1.77403">
        <ele>-3.708</ele>
        <time>2012-05-27T11:50:45Z</time>
      </trkpt>
      <trkpt lat="46.54222" lon="-1.77406">
        <ele>-3.227</ele>
        <time>2012-05-27T11:50:48Z</time>
      </trkpt>
      <trkpt lat="46.54226" lon="-1.77411">
        <ele>-4.189</ele>
        <time>2012-05-27T11:51:27Z</time>
      </trkpt>
      <trkpt lat="46.54226" lon="-1.77416">
        <ele>-4.669</ele>
        <time>2012-05-27T11:51:32Z</time>
      </trkpt>
      <trkpt lat="46.54224" lon="-1.7742">
        <ele>-0.343</ele>
        <time>2012-05-27T11:52:17Z</time>
      </trkpt>
      <trkpt lat="46.54226" lon="-1.77427">
        <ele>1.099</ele>
        <time>2012-05-27T11:52:22Z</time>
      </trkpt>
      <trkpt lat="46.54229" lon="-1.77437">
        <ele>1.099</ele>
        <time>2012-05-27T11:52:34Z</time>
      </trkpt>
      <trkpt lat="46.54231" lon="-1.77444">
        <ele>1.579</ele>
        <time>2012-05-27T11:52:40Z</time>
      </trkpt>
      <trkpt lat="46.54229" lon="-1.77461">
        <ele>0.137</ele>
        <time>2012-05-27T11:52:47Z</time>
      </trkpt>
      <trkpt lat="46.54216" lon="-1.77478">
        <ele>-1.305</ele>
        <time>2012-05-27T11:52:55Z</time>
      </trkpt>
      <trkpt lat="46.54199" lon="-1.77497">
        <ele>-0.824</ele>
        <time>2012-05-27T11:53:04Z</time>
      </trkpt>
      <trkpt lat="46.54182" lon="-1.77515">
        <ele>0.137</ele>
        <time>2012-05-27T11:53:13Z</time>
      </trkpt>
      <trkpt lat="46.54167" lon="-1.77528">
        <ele>0.618</ele>
        <time>2012-05-27T11:53:20Z</time>
      </trkpt>
      <trkpt lat="46.54149" lon="-1.77544">
        <ele>1.099</ele>
        <time>2012-05-27T11:53:29Z</time>
      </trkpt>
      <trkpt lat="46.54136" lon="-1.77555">
        <ele>1.579</ele>
        <time>2012-05-27T11:53:36Z</time>
      </trkpt>
      <trkpt lat="46.54133" lon="-1.7756">
        <ele>1.579</ele>
        <time>2012-05-27T11:53:38Z</time>
      </trkpt>
      <trkpt lat="46.54136" lon="-1.77583">
        <ele>0.137</ele>
        <time>2012-05-27T11:53:44Z</time>
      </trkpt>
      <trkpt lat="46.54145" lon="-1.77621">
        <ele>-1.305</ele>
        <time>2012-05-27T11:53:53Z</time>
      </trkpt>
      <trkpt lat="46.54153" lon="-1.77658">
        <ele>-3.227</ele>
        <time>2012-05-27T11:54:02Z</time>
      </trkpt>
      <trkpt lat="46.54162" lon="-1.77695">
        <ele>-3.708</ele>
        <time>2012-05-27T11:54:10Z</time>
      </trkpt>
      <trkpt lat="46.5417" lon="-1.77739">
        <ele>-5.15</ele>
        <time>2012-05-27T11:54:19Z</time>
      </trkpt>
      <trkpt lat="46.5418" lon="-1.77784">
        <ele>-5.63</ele>
        <time>2012-05-27T11:54:28Z</time>
      </trkpt>
      <trkpt lat="46.54192" lon="-1.77827">
        <ele>-6.592</ele>
        <time>2012-05-27T11:54:37Z</time>
      </trkpt>
      <trkpt lat="46.54203" lon="-1.77853">
        <ele>-6.592</ele>
        <time>2012-05-27T11:54:43Z</time>
      </trkpt>
      <trkpt lat="46.54221" lon="-1.77881">
        <ele>-7.073</ele>
        <time>2012-05-27T11:54:51Z</time>
      </trkpt>
      <trkpt lat="46.54241" lon="-1.77892">
        <ele>-6.592</ele>
        <time>2012-05-27T11:54:57Z</time>
      </trkpt>
      <trkpt lat="46.54247" lon="-1.77898">
        <ele>-6.592</ele>
        <time>2012-05-27T11:54:59Z</time>
      </trkpt>
      <trkpt lat="46.54263" lon="-1.77917">
        <ele>-6.111</ele>
        <time>2012-05-27T11:55:05Z</time>
      </trkpt>
      <trkpt lat="46.54275" lon="-1.77947">
        <ele>-4.669</ele>
        <time>2012-05-27T11:55:13Z</time>
      </trkpt>
      <trkpt lat="46.54286" lon="-1.77982">
        <ele>-4.189</ele>
        <time>2012-05-27T11:55:21Z</time>
      </trkpt>
      <trkpt lat="46.54297" lon="-1.78027">
        <ele>-4.669</ele>
        <time>2012-05-27T11:55:30Z</time>
      </trkpt>
      <trkpt lat="46.54307" lon="-1.7807">
        <ele>-4.669</ele>
        <time>2012-05-27T11:55:39Z</time>
      </trkpt>
      <trkpt lat="46.54311" lon="-1.78105">
        <ele>-5.15</ele>
        <time>2012-05-27T11:55:46Z</time>
      </trkpt>
      <trkpt lat="46.54306" lon="-1.78145">
        <ele>-4.189</ele>
        <time>2012-05-27T11:55:54Z</time>
      </trkpt>
      <trkpt lat="46.54298" lon="-1.78181">
        <ele>-3.708</ele>
        <time>2012-05-27T11:56:02Z</time>
      </trkpt>
      <trkpt lat="46.54286" lon="-1.7823">
        <ele>-3.227</ele>
        <time>2012-05-27T11:56:12Z</time>
      </trkpt>
      <trkpt lat="46.54275" lon="-1.78281">
        <ele>-2.747</ele>
        <time>2012-05-27T11:56:21Z</time>
      </trkpt>
      <trkpt lat="46.54269" lon="-1.78323">
        <ele>-2.266</ele>
        <time>2012-05-27T11:56:28Z</time>
      </trkpt>
      <trkpt lat="46.54266" lon="-1.78356">
        <ele>-2.266</ele>
        <time>2012-05-27T11:56:35Z</time>
      </trkpt>
      <trkpt lat="46.54264" lon="-1.78383">
        <ele>-1.785</ele>
        <time>2012-05-27T11:56:41Z</time>
      </trkpt>
      <trkpt lat="46.54254" lon="-1.78427">
        <ele>-1.305</ele>
        <time>2012-05-27T11:56:51Z</time>
      </trkpt>
      <trkpt lat="46.54244" lon="-1.7847">
        <ele>-0.824</ele>
        <time>2012-05-27T11:57:01Z</time>
      </trkpt>
      <trkpt lat="46.54236" lon="-1.78509">
        <ele>-0.343</ele>
        <time>2012-05-27T11:57:10Z</time>
      </trkpt>
      <trkpt lat="46.54232" lon="-1.78547">
        <ele>0.137</ele>
        <time>2012-05-27T11:57:18Z</time>
      </trkpt>
      <trkpt lat="46.54228" lon="-1.78578">
        <ele>0.137</ele>
        <time>2012-05-27T11:57:24Z</time>
      </trkpt>
      <trkpt lat="46.54222" lon="-1.78629">
        <ele>0.137</ele>
        <time>2012-05-27T11:57:34Z</time>
      </trkpt>
      <trkpt lat="46.54218" lon="-1.78672">
        <ele>0.137</ele>
        <time>2012-05-27T11:57:42Z</time>
      </trkpt>
      <trkpt lat="46.54217" lon="-1.78705">
        <ele>-0.343</ele>
        <time>2012-05-27T11:57:48Z</time>
      </trkpt>
      <trkpt lat="46.54211" lon="-1.78762">
        <ele>-0.824</ele>
        <time>2012-05-27T11:57:59Z</time>
      </trkpt>
      <trkpt lat="46.54211" lon="-1.78767">
        <ele>-0.824</ele>
        <time>2012-05-27T11:58:00Z</time>
      </trkpt>
      <trkpt lat="46.54208" lon="-1.78836">
        <ele>-0.824</ele>
        <time>2012-05-27T11:58:11Z</time>
      </trkpt>
      <trkpt lat="46.54211" lon="-1.78904">
        <ele>-1.305</ele>
        <time>2012-05-27T11:58:22Z</time>
      </trkpt>
      <trkpt lat="46.54217" lon="-1.78964">
        <ele>-2.266</ele>
        <time>2012-05-27T11:58:32Z</time>
      </trkpt>
      <trkpt lat="46.54222" lon="-1.7903">
        <ele>-2.266</ele>
        <time>2012-05-27T11:58:42Z</time>
      </trkpt>
      <trkpt lat="46.54228" lon="-1.79069">
        <ele>-2.266</ele>
        <time>2012-05-27T11:58:48Z</time>
      </trkpt>
      <trkpt lat="46.54235" lon="-1.79118">
        <ele>-3.227</ele>
        <time>2012-05-27T11:58:56Z</time>
      </trkpt>
      <trkpt lat="46.54245" lon="-1.79159">
        <ele>-3.708</ele>
        <time>2012-05-27T11:59:03Z</time>
      </trkpt>
      <trkpt lat="46.54264" lon="-1.7923">
        <ele>-5.15</ele>
        <time>2012-05-27T11:59:15Z</time>
      </trkpt>
      <trkpt lat="46.54266" lon="-1.79236">
        <ele>-4.669</ele>
        <time>2012-05-27T11:59:16Z</time>
      </trkpt>
      <trkpt lat="46.54287" lon="-1.79268">
        <ele>-5.63</ele>
        <time>2012-05-27T11:59:23Z</time>
      </trkpt>
      <trkpt lat="46.54316" lon="-1.79304">
        <ele>-7.073</ele>
        <time>2012-05-27T11:59:31Z</time>
      </trkpt>
      <trkpt lat="46.5435" lon="-1.79345">
        <ele>-7.553</ele>
        <time>2012-05-27T11:59:41Z</time>
      </trkpt>
      <trkpt lat="46.54376" lon="-1.79376">
        <ele>-8.034</ele>
        <time>2012-05-27T11:59:49Z</time>
      </trkpt>
      <trkpt lat="46.54384" lon="-1.79382">
        <ele>-7.553</ele>
        <time>2012-05-27T11:59:52Z</time>
      </trkpt>
      <trkpt lat="46.54385" lon="-1.79387">
        <ele>-7.073</ele>
        <time>2012-05-27T11:59:56Z</time>
      </trkpt>
      <trkpt lat="46.54373" lon="-1.79403">
        <ele>-4.189</ele>
        <time>2012-05-27T12:00:15Z</time>
      </trkpt>
      <trkpt lat="46.54356" lon="-1.79439">
        <ele>-3.227</ele>
        <time>2012-05-27T12:00:23Z</time>
      </trkpt>
      <trkpt lat="46.54334" lon="-1.79483">
        <ele>-2.747</ele>
        <time>2012-05-27T12:00:34Z</time>
      </trkpt>
      <trkpt lat="46.54312" lon="-1.79527">
        <ele>-1.785</ele>
        <time>2012-05-27T12:00:44Z</time>
      </trkpt>
      <trkpt lat="46.54298" lon="-1.79551">
        <ele>-1.305</ele>
        <time>2012-05-27T12:00:51Z</time>
      </trkpt>
      <trkpt lat="46.54296" lon="-1.79555">
        <ele>-0.824</ele>
        <time>2012-05-27T12:00:52Z</time>
      </trkpt>
      <trkpt lat="46.54294" lon="-1.79577">
        <ele>-0.824</ele>
        <time>2012-05-27T12:00:57Z</time>
      </trkpt>
      <trkpt lat="46.54291" lon="-1.79585">
        <ele>-0.824</ele>
        <time>2012-05-27T12:00:59Z</time>
      </trkpt>
      <trkpt lat="46.54272" lon="-1.79624">
        <ele>-0.343</ele>
        <time>2012-05-27T12:01:07Z</time>
      </trkpt>
      <trkpt lat="46.54254" lon="-1.79657">
        <ele>0.618</ele>
        <time>2012-05-27T12:01:15Z</time>
      </trkpt>
      <trkpt lat="46.54235" lon="-1.79692">
        <ele>1.099</ele>
        <time>2012-05-27T12:01:24Z</time>
      </trkpt>
      <trkpt lat="46.54219" lon="-1.79719">
        <ele>1.099</ele>
        <time>2012-05-27T12:01:33Z</time>
      </trkpt>
      <trkpt lat="46.54214" lon="-1.79725">
        <ele>1.099</ele>
        <time>2012-05-27T12:01:36Z</time>
      </trkpt>
      <trkpt lat="46.54217" lon="-1.79742">
        <ele>0.618</ele>
        <time>2012-05-27T12:01:42Z</time>
      </trkpt>
      <trkpt lat="46.54227" lon="-1.79766">
        <ele>-0.343</ele>
        <time>2012-05-27T12:01:50Z</time>
      </trkpt>
      <trkpt lat="46.54237" lon="-1.79758">
        <ele>-0.824</ele>
        <time>2012-05-27T12:01:55Z</time>
      </trkpt>
      <trkpt lat="46.54256" lon="-1.79729">
        <ele>-1.305</ele>
        <time>2012-05-27T12:02:05Z</time>
      </trkpt>
      <trkpt lat="46.54266" lon="-1.79701">
        <ele>-2.266</ele>
        <time>2012-05-27T12:02:12Z</time>
      </trkpt>
      <trkpt lat="46.54268" lon="-1.79691">
        <ele>-2.747</ele>
        <time>2012-05-27T12:02:14Z</time>
      </trkpt>
      <trkpt lat="46.54282" lon="-1.79657">
        <ele>-3.227</ele>
        <time>2012-05-27T12:02:20Z</time>
      </trkpt>
      <trkpt lat="46.54304" lon="-1.79613">
        <ele>-3.227</ele>
        <time>2012-05-27T12:02:28Z</time>
      </trkpt>
      <trkpt lat="46.54318" lon="-1.79606">
        <ele>-2.747</ele>
        <time>2012-05-27T12:02:32Z</time>
      </trkpt>
      <trkpt lat="46.54326" lon="-1.79615">
        <ele>-2.747</ele>
        <time>2012-05-27T12:02:35Z</time>
      </trkpt>
      <trkpt lat="46.54346" lon="-1.79642">
        <ele>-3.227</ele>
        <time>2012-05-27T12:02:43Z</time>
      </trkpt>
      <trkpt lat="46.5437" lon="-1.79667">
        <ele>-3.708</ele>
        <time>2012-05-27T12:02:52Z</time>
      </trkpt>
      <trkpt lat="46.54393" lon="-1.79691">
        <ele>-4.189</ele>
        <time>2012-05-27T12:02:59Z</time>
      </trkpt>
      <trkpt lat="46.54423" lon="-1.79721">
        <ele>-4.669</ele>
        <time>2012-05-27T12:03:08Z</time>
      </trkpt>
      <trkpt lat="46.54452" lon="-1.7975">
        <ele>-4.669</ele>
        <time>2012-05-27T12:03:17Z</time>
      </trkpt>
      <trkpt lat="46.54479" lon="-1.79772">
        <ele>-4.669</ele>
        <time>2012-05-27T12:03:25Z</time>
      </trkpt>
      <trkpt lat="46.54512" lon="-1.79786">
        <ele>-3.708</ele>
        <time>2012-05-27T12:03:34Z</time>
      </trkpt>
      <trkpt lat="46.54542" lon="-1.79799">
        <ele>-3.227</ele>
        <time>2012-05-27T12:03:43Z</time>
      </trkpt>
      <trkpt lat="46.54565" lon="-1.79807">
        <ele>-2.747</ele>
        <time>2012-05-27T12:03:50Z</time>
      </trkpt>
      <trkpt lat="46.54591" lon="-1.79811">
        <ele>-2.747</ele>
        <time>2012-05-27T12:03:58Z</time>
      </trkpt>
      <trkpt lat="46.54626" lon="-1.79815">
        <ele>-2.747</ele>
        <time>2012-05-27T12:04:08Z</time>
      </trkpt>
      <trkpt lat="46.54664" lon="-1.79814">
        <ele>-3.227</ele>
        <time>2012-05-27T12:04:19Z</time>
      </trkpt>
      <trkpt lat="46.54695" lon="-1.79812">
        <ele>-3.227</ele>
        <time>2012-05-27T12:04:27Z</time>
      </trkpt>
      <trkpt lat="46.54723" lon="-1.79811">
        <ele>-3.227</ele>
        <time>2012-05-27T12:04:34Z</time>
      </trkpt>
      <trkpt lat="46.54744" lon="-1.7981">
        <ele>-2.747</ele>
        <time>2012-05-27T12:04:40Z</time>
      </trkpt>
      <trkpt lat="46.54763" lon="-1.79813">
        <ele>-2.266</ele>
        <time>2012-05-27T12:04:45Z</time>
      </trkpt>
      <trkpt lat="46.54774" lon="-1.79826">
        <ele>-2.266</ele>
        <time>2012-05-27T12:04:49Z</time>
      </trkpt>
      <trkpt lat="46.54791" lon="-1.79858">
        <ele>-2.266</ele>
        <time>2012-05-27T12:04:57Z</time>
      </trkpt>
      <trkpt lat="46.54812" lon="-1.79893">
        <ele>-2.747</ele>
        <time>2012-05-27T12:05:06Z</time>
      </trkpt>
      <trkpt lat="46.54827" lon="-1.79922">
        <ele>-3.227</ele>
        <time>2012-05-27T12:05:13Z</time>
      </trkpt>
      <trkpt lat="46.5484" lon="-1.79944">
        <ele>-4.189</ele>
        <time>2012-05-27T12:05:20Z</time>
      </trkpt>
      <trkpt lat="46.54841" lon="-1.79948">
        <ele>-4.189</ele>
        <time>2012-05-27T12:05:21Z</time>
      </trkpt>
      <trkpt lat="46.5485" lon="-1.79965">
        <ele>-4.189</ele>
        <time>2012-05-27T12:05:28Z</time>
      </trkpt>
      <trkpt lat="46.54851" lon="-1.79967">
        <ele>-4.189</ele>
        <time>2012-05-27T12:05:29Z</time>
      </trkpt>
      <trkpt lat="46.5486" lon="-1.79967">
        <ele>-4.189</ele>
        <time>2012-05-27T12:05:34Z</time>
      </trkpt>
      <trkpt lat="46.54862" lon="-1.79963">
        <ele>-4.189</ele>
        <time>2012-05-27T12:05:35Z</time>
      </trkpt>
      <trkpt lat="46.54876" lon="-1.79929">
        <ele>-4.189</ele>
        <time>2012-05-27T12:05:43Z</time>
      </trkpt>
      <trkpt lat="46.54887" lon="-1.79894">
        <ele>-3.708</ele>
        <time>2012-05-27T12:05:50Z</time>
      </trkpt>
      <trkpt lat="46.54898" lon="-1.79851">
        <ele>-2.747</ele>
        <time>2012-05-27T12:05:58Z</time>
      </trkpt>
      <trkpt lat="46.54913" lon="-1.79813">
        <ele>-3.227</ele>
        <time>2012-05-27T12:06:06Z</time>
      </trkpt>
      <trkpt lat="46.54931" lon="-1.79779">
        <ele>-3.227</ele>
        <time>2012-05-27T12:06:14Z</time>
      </trkpt>
      <trkpt lat="46.54954" lon="-1.79743">
        <ele>-2.747</ele>
        <time>2012-05-27T12:06:23Z</time>
      </trkpt>
      <trkpt lat="46.54974" lon="-1.79712">
        <ele>-2.266</ele>
        <time>2012-05-27T12:06:31Z</time>
      </trkpt>
      <trkpt lat="46.54993" lon="-1.79684">
        <ele>-2.266</ele>
        <time>2012-05-27T12:06:38Z</time>
      </trkpt>
      <trkpt lat="46.55018" lon="-1.79648">
        <ele>-1.785</ele>
        <time>2012-05-27T12:06:47Z</time>
      </trkpt>
      <trkpt lat="46.55038" lon="-1.79617">
        <ele>-1.785</ele>
        <time>2012-05-27T12:06:55Z</time>
      </trkpt>
      <trkpt lat="46.55064" lon="-1.79572">
        <ele>-1.785</ele>
        <time>2012-05-27T12:07:06Z</time>
      </trkpt>
      <trkpt lat="46.55084" lon="-1.79525">
        <ele>-1.785</ele>
        <time>2012-05-27T12:07:16Z</time>
      </trkpt>
      <trkpt lat="46.551" lon="-1.79485">
        <ele>-1.785</ele>
        <time>2012-05-27T12:07:24Z</time>
      </trkpt>
      <trkpt lat="46.55122" lon="-1.79425">
        <ele>-1.785</ele>
        <time>2012-05-27T12:07:35Z</time>
      </trkpt>
      <trkpt lat="46.55138" lon="-1.79383">
        <ele>-1.785</ele>
        <time>2012-05-27T12:07:42Z</time>
      </trkpt>
      <trkpt lat="46.55141" lon="-1.79377">
        <ele>-1.785</ele>
        <time>2012-05-27T12:07:43Z</time>
      </trkpt>
      <trkpt lat="46.5517" lon="-1.79331">
        <ele>-2.266</ele>
        <time>2012-05-27T12:07:52Z</time>
      </trkpt>
      <trkpt lat="46.55202" lon="-1.79303">
        <ele>-1.305</ele>
        <time>2012-05-27T12:08:00Z</time>
      </trkpt>
      <trkpt lat="46.55226" lon="-1.79286">
        <ele>-0.824</ele>
        <time>2012-05-27T12:08:07Z</time>
      </trkpt>
      <trkpt lat="46.55251" lon="-1.79269">
        <ele>-0.824</ele>
        <time>2012-05-27T12:08:14Z</time>
      </trkpt>
      <trkpt lat="46.55284" lon="-1.79247">
        <ele>1.099</ele>
        <time>2012-05-27T12:08:23Z</time>
      </trkpt>
      <trkpt lat="46.55322" lon="-1.79221">
        <ele>3.021</ele>
        <time>2012-05-27T12:08:33Z</time>
      </trkpt>
      <trkpt lat="46.55367" lon="-1.79188">
        <ele>2.541</ele>
        <time>2012-05-27T12:08:45Z</time>
      </trkpt>
      <trkpt lat="46.55392" lon="-1.7917">
        <ele>2.541</ele>
        <time>2012-05-27T12:08:52Z</time>
      </trkpt>
      <trkpt lat="46.55421" lon="-1.79148">
        <ele>3.021</ele>
        <time>2012-05-27T12:09:00Z</time>
      </trkpt>
      <trkpt lat="46.55451" lon="-1.79125">
        <ele>3.502</ele>
        <time>2012-05-27T12:09:08Z</time>
      </trkpt>
      <trkpt lat="46.55469" lon="-1.79107">
        <ele>3.502</ele>
        <time>2012-05-27T12:09:14Z</time>
      </trkpt>
      <trkpt lat="46.55478" lon="-1.79094">
        <ele>2.541</ele>
        <time>2012-05-27T12:09:19Z</time>
      </trkpt>
      <trkpt lat="46.55483" lon="-1.79091">
        <ele>2.541</ele>
        <time>2012-05-27T12:09:26Z</time>
      </trkpt>
      <trkpt lat="46.55484" lon="-1.79093">
        <ele>2.06</ele>
        <time>2012-05-27T12:09:29Z</time>
      </trkpt>
      <trkpt lat="46.55488" lon="-1.79101">
        <ele>1.579</ele>
        <time>2012-05-27T12:09:34Z</time>
      </trkpt>
      <trkpt lat="46.55489" lon="-1.79104">
        <ele>1.579</ele>
        <time>2012-05-27T12:09:35Z</time>
      </trkpt>
      <trkpt lat="46.55502" lon="-1.79128">
        <ele>-0.343</ele>
        <time>2012-05-27T12:09:43Z</time>
      </trkpt>
      <trkpt lat="46.55514" lon="-1.79151">
        <ele>-1.785</ele>
        <time>2012-05-27T12:09:49Z</time>
      </trkpt>
      <trkpt lat="46.55535" lon="-1.7918">
        <ele>-2.747</ele>
        <time>2012-05-27T12:09:57Z</time>
      </trkpt>
      <trkpt lat="46.55568" lon="-1.79201">
        <ele>-3.227</ele>
        <time>2012-05-27T12:10:07Z</time>
      </trkpt>
      <trkpt lat="46.55571" lon="-1.792">
        <ele>-3.227</ele>
        <time>2012-05-27T12:10:08Z</time>
      </trkpt>
      <trkpt lat="46.5559" lon="-1.79178">
        <ele>-2.747</ele>
        <time>2012-05-27T12:10:17Z</time>
      </trkpt>
      <trkpt lat="46.55599" lon="-1.79183">
        <ele>-3.227</ele>
        <time>2012-05-27T12:10:21Z</time>
      </trkpt>
      <trkpt lat="46.55603" lon="-1.79186">
        <ele>-3.227</ele>
        <time>2012-05-27T12:10:23Z</time>
      </trkpt>
      <trkpt lat="46.55616" lon="-1.79198">
        <ele>-2.747</ele>
        <time>2012-05-27T12:10:30Z</time>
      </trkpt>
      <trkpt lat="46.55637" lon="-1.79205">
        <ele>-2.266</ele>
        <time>2012-05-27T12:10:38Z</time>
      </trkpt>
      <trkpt lat="46.55657" lon="-1.792">
        <ele>-1.785</ele>
        <time>2012-05-27T12:10:46Z</time>
      </trkpt>
      <trkpt lat="46.55677" lon="-1.79181">
        <ele>-2.266</ele>
        <time>2012-05-27T12:10:54Z</time>
      </trkpt>
      <trkpt lat="46.55697" lon="-1.79154">
        <ele>-2.747</ele>
        <time>2012-05-27T12:11:03Z</time>
      </trkpt>
      <trkpt lat="46.557" lon="-1.79136">
        <ele>-2.747</ele>
        <time>2012-05-27T12:11:07Z</time>
      </trkpt>
      <trkpt lat="46.55703" lon="-1.79104">
        <ele>-2.747</ele>
        <time>2012-05-27T12:11:14Z</time>
      </trkpt>
      <trkpt lat="46.55717" lon="-1.79085">
        <ele>-2.747</ele>
        <time>2012-05-27T12:11:20Z</time>
      </trkpt>
      <trkpt lat="46.55742" lon="-1.79056">
        <ele>-2.266</ele>
        <time>2012-05-27T12:11:30Z</time>
      </trkpt>
      <trkpt lat="46.55763" lon="-1.7903">
        <ele>-2.747</ele>
        <time>2012-05-27T12:11:38Z</time>
      </trkpt>
      <trkpt lat="46.55787" lon="-1.78999">
        <ele>-3.227</ele>
        <time>2012-05-27T12:11:47Z</time>
      </trkpt>
      <trkpt lat="46.55818" lon="-1.78961">
        <ele>-2.747</ele>
        <time>2012-05-27T12:11:57Z</time>
      </trkpt>
      <trkpt lat="46.55848" lon="-1.78925">
        <ele>-2.266</ele>
        <time>2012-05-27T12:12:07Z</time>
      </trkpt>
      <trkpt lat="46.55877" lon="-1.78892">
        <ele>-2.747</ele>
        <time>2012-05-27T12:12:16Z</time>
      </trkpt>
      <trkpt lat="46.5589" lon="-1.78899">
        <ele>-2.747</ele>
        <time>2012-05-27T12:12:20Z</time>
      </trkpt>
      <trkpt lat="46.55916" lon="-1.78924">
        <ele>-2.747</ele>
        <time>2012-05-27T12:12:28Z</time>
      </trkpt>
      <trkpt lat="46.55945" lon="-1.78944">
        <ele>-2.747</ele>
        <time>2012-05-27T12:12:37Z</time>
      </trkpt>
      <trkpt lat="46.55965" lon="-1.78941">
        <ele>-2.747</ele>
        <time>2012-05-27T12:12:43Z</time>
      </trkpt>
      <trkpt lat="46.55985" lon="-1.78931">
        <ele>-2.266</ele>
        <time>2012-05-27T12:12:50Z</time>
      </trkpt>
      <trkpt lat="46.56006" lon="-1.78913">
        <ele>-2.266</ele>
        <time>2012-05-27T12:12:57Z</time>
      </trkpt>
      <trkpt lat="46.56021" lon="-1.78904">
        <ele>-1.785</ele>
        <time>2012-05-27T12:13:03Z</time>
      </trkpt>
      <trkpt lat="46.56028" lon="-1.78905">
        <ele>-1.785</ele>
        <time>2012-05-27T12:13:08Z</time>
      </trkpt>
      <trkpt lat="46.56029" lon="-1.78908">
        <ele>-1.785</ele>
        <time>2012-05-27T12:13:10Z</time>
      </trkpt>
      <trkpt lat="46.56029" lon="-1.78919">
        <ele>-2.266</ele>
        <time>2012-05-27T12:13:17Z</time>
      </trkpt>
      <trkpt lat="46.56028" lon="-1.78926">
        <ele>-2.266</ele>
        <time>2012-05-27T12:13:22Z</time>
      </trkpt>
      <trkpt lat="46.56028" lon="-1.78926">
        <ele>-2.266</ele>
        <time>2012-05-27T12:13:23Z</time>
      </trkpt>
      <trkpt lat="46.56029" lon="-1.7892">
        <ele>-1.785</ele>
        <time>2012-05-27T12:14:39Z</time>
      </trkpt>
      <trkpt lat="46.56029" lon="-1.78914">
        <ele>-1.785</ele>
        <time>2012-05-27T12:14:48Z</time>
      </trkpt>
      <trkpt lat="46.56029" lon="-1.78908">
        <ele>-1.785</ele>
        <time>2012-05-27T12:14:52Z</time>
      </trkpt>
      <trkpt lat="46.56034" lon="-1.78901">
        <ele>-2.266</ele>
        <time>2012-05-27T12:14:57Z</time>
      </trkpt>
      <trkpt lat="46.56037" lon="-1.78901">
        <ele>-2.747</ele>
        <time>2012-05-27T12:14:58Z</time>
      </trkpt>
      <trkpt lat="46.56058" lon="-1.78902">
        <ele>-2.747</ele>
        <time>2012-05-27T12:15:05Z</time>
      </trkpt>
      <trkpt lat="46.56084" lon="-1.78914">
        <ele>-2.266</ele>
        <time>2012-05-27T12:15:13Z</time>
      </trkpt>
      <trkpt lat="46.56102" lon="-1.7892">
        <ele>-2.266</ele>
        <time>2012-05-27T12:15:17Z</time>
      </trkpt>
      <trkpt lat="46.56128" lon="-1.78939">
        <ele>-2.747</ele>
        <time>2012-05-27T12:15:24Z</time>
      </trkpt>
      <trkpt lat="46.56147" lon="-1.78961">
        <ele>-2.747</ele>
        <time>2012-05-27T12:15:30Z</time>
      </trkpt>
      <trkpt lat="46.56165" lon="-1.78995">
        <ele>-2.747</ele>
        <time>2012-05-27T12:15:38Z</time>
      </trkpt>
      <trkpt lat="46.56181" lon="-1.79031">
        <ele>-2.747</ele>
        <time>2012-05-27T12:15:46Z</time>
      </trkpt>
      <trkpt lat="46.56196" lon="-1.79047">
        <ele>-3.227</ele>
        <time>2012-05-27T12:15:51Z</time>
      </trkpt>
      <trkpt lat="46.56221" lon="-1.79058">
        <ele>-3.227</ele>
        <time>2012-05-27T12:15:58Z</time>
      </trkpt>
      <trkpt lat="46.56226" lon="-1.79065">
        <ele>-3.708</ele>
        <time>2012-05-27T12:16:00Z</time>
      </trkpt>
      <trkpt lat="46.56224" lon="-1.79084">
        <ele>-3.227</ele>
        <time>2012-05-27T12:16:04Z</time>
      </trkpt>
      <trkpt lat="46.56217" lon="-1.79102">
        <ele>-3.227</ele>
        <time>2012-05-27T12:16:08Z</time>
      </trkpt>
      <trkpt lat="46.56221" lon="-1.79126">
        <ele>-3.227</ele>
        <time>2012-05-27T12:16:13Z</time>
      </trkpt>
      <trkpt lat="46.56229" lon="-1.79166">
        <ele>-3.227</ele>
        <time>2012-05-27T12:16:22Z</time>
      </trkpt>
      <trkpt lat="46.56237" lon="-1.79192">
        <ele>-2.747</ele>
        <time>2012-05-27T12:16:29Z</time>
      </trkpt>
      <trkpt lat="46.56244" lon="-1.79228">
        <ele>-3.708</ele>
        <time>2012-05-27T12:16:37Z</time>
      </trkpt>
      <trkpt lat="46.56253" lon="-1.79261">
        <ele>-3.708</ele>
        <time>2012-05-27T12:16:45Z</time>
      </trkpt>
      <trkpt lat="46.56272" lon="-1.79298">
        <ele>-3.708</ele>
        <time>2012-05-27T12:16:54Z</time>
      </trkpt>
      <trkpt lat="46.56291" lon="-1.79327">
        <ele>-3.708</ele>
        <time>2012-05-27T12:17:02Z</time>
      </trkpt>
      <trkpt lat="46.56312" lon="-1.79353">
        <ele>-3.708</ele>
        <time>2012-05-27T12:17:10Z</time>
      </trkpt>
      <trkpt lat="46.56322" lon="-1.79364">
        <ele>-4.189</ele>
        <time>2012-05-27T12:17:13Z</time>
      </trkpt>
      <trkpt lat="46.56326" lon="-1.7939">
        <ele>-4.669</ele>
        <time>2012-05-27T12:17:18Z</time>
      </trkpt>
      <trkpt lat="46.56313" lon="-1.79429">
        <ele>-3.227</ele>
        <time>2012-05-27T12:17:27Z</time>
      </trkpt>
      <trkpt lat="46.56294" lon="-1.79467">
        <ele>-2.266</ele>
        <time>2012-05-27T12:17:37Z</time>
      </trkpt>
      <trkpt lat="46.56286" lon="-1.79486">
        <ele>-2.266</ele>
        <time>2012-05-27T12:17:42Z</time>
      </trkpt>
      <trkpt lat="46.56278" lon="-1.79521">
        <ele>-2.266</ele>
        <time>2012-05-27T12:17:51Z</time>
      </trkpt>
      <trkpt lat="46.56268" lon="-1.79544">
        <ele>-2.266</ele>
        <time>2012-05-27T12:17:57Z</time>
      </trkpt>
      <trkpt lat="46.56262" lon="-1.79559">
        <ele>-2.266</ele>
        <time>2012-05-27T12:18:01Z</time>
      </trkpt>
      <trkpt lat="46.56268" lon="-1.79569">
        <ele>-2.266</ele>
        <time>2012-05-27T12:18:05Z</time>
      </trkpt>
      <trkpt lat="46.56274" lon="-1.7957">
        <ele>-2.266</ele>
        <time>2012-05-27T12:18:07Z</time>
      </trkpt>
      <trkpt lat="46.56303" lon="-1.79571">
        <ele>-1.785</ele>
        <time>2012-05-27T12:18:16Z</time>
      </trkpt>
      <trkpt lat="46.56328" lon="-1.79569">
        <ele>-1.305</ele>
        <time>2012-05-27T12:18:24Z</time>
      </trkpt>
      <trkpt lat="46.56353" lon="-1.79572">
        <ele>-1.305</ele>
        <time>2012-05-27T12:18:31Z</time>
      </trkpt>
      <trkpt lat="46.56397" lon="-1.79574">
        <ele>-1.785</ele>
        <time>2012-05-27T12:18:42Z</time>
      </trkpt>
      <trkpt lat="46.56405" lon="-1.79575">
        <ele>-1.305</ele>
        <time>2012-05-27T12:18:44Z</time>
      </trkpt>
      <trkpt lat="46.5642" lon="-1.79565">
        <ele>-1.305</ele>
        <time>2012-05-27T12:18:48Z</time>
      </trkpt>
      <trkpt lat="46.56436" lon="-1.7956">
        <ele>-1.305</ele>
        <time>2012-05-27T12:18:52Z</time>
      </trkpt>
      <trkpt lat="46.56474" lon="-1.79559">
        <ele>-0.824</ele>
        <time>2012-05-27T12:19:02Z</time>
      </trkpt>
      <trkpt lat="46.56493" lon="-1.79558">
        <ele>-0.824</ele>
        <time>2012-05-27T12:19:08Z</time>
      </trkpt>
      <trkpt lat="46.56536" lon="-1.79557">
        <ele>-0.824</ele>
        <time>2012-05-27T12:19:20Z</time>
      </trkpt>
      <trkpt lat="46.56564" lon="-1.79558">
        <ele>-0.343</ele>
        <time>2012-05-27T12:19:28Z</time>
      </trkpt>
      <trkpt lat="46.566" lon="-1.79557">
        <ele>-0.824</ele>
        <time>2012-05-27T12:19:38Z</time>
      </trkpt>
      <trkpt lat="46.56634" lon="-1.79552">
        <ele>-0.824</ele>
        <time>2012-05-27T12:19:47Z</time>
      </trkpt>
      <trkpt lat="46.56659" lon="-1.79546">
        <ele>-0.824</ele>
        <time>2012-05-27T12:19:54Z</time>
      </trkpt>
      <trkpt lat="46.56674" lon="-1.79528">
        <ele>-0.824</ele>
        <time>2012-05-27T12:20:00Z</time>
      </trkpt>
      <trkpt lat="46.56676" lon="-1.79527">
        <ele>-0.824</ele>
        <time>2012-05-27T12:20:01Z</time>
      </trkpt>
      <trkpt lat="46.56683" lon="-1.79536">
        <ele>-0.824</ele>
        <time>2012-05-27T12:20:06Z</time>
      </trkpt>
      <trkpt lat="46.56686" lon="-1.79559">
        <ele>-1.305</ele>
        <time>2012-05-27T12:20:12Z</time>
      </trkpt>
      <trkpt lat="46.56693" lon="-1.79594">
        <ele>-2.747</ele>
        <time>2012-05-27T12:20:19Z</time>
      </trkpt>
      <trkpt lat="46.56708" lon="-1.7961">
        <ele>-3.227</ele>
        <time>2012-05-27T12:20:24Z</time>
      </trkpt>
      <trkpt lat="46.56726" lon="-1.79612">
        <ele>-3.227</ele>
        <time>2012-05-27T12:20:29Z</time>
      </trkpt>
      <trkpt lat="46.56746" lon="-1.79611">
        <ele>-2.747</ele>
        <time>2012-05-27T12:20:36Z</time>
      </trkpt>
      <trkpt lat="46.56763" lon="-1.79604">
        <ele>-2.266</ele>
        <time>2012-05-27T12:20:42Z</time>
      </trkpt>
      <trkpt lat="46.56765" lon="-1.79603">
        <ele>-2.266</ele>
        <time>2012-05-27T12:20:43Z</time>
      </trkpt>
      <trkpt lat="46.56768" lon="-1.79598">
        <ele>-2.266</ele>
        <time>2012-05-27T12:20:47Z</time>
      </trkpt>
      <trkpt lat="46.56773" lon="-1.79617">
        <ele>-2.266</ele>
        <time>2012-05-27T12:21:05Z</time>
      </trkpt>
      <trkpt lat="46.56782" lon="-1.7965">
        <ele>-3.227</ele>
        <time>2012-05-27T12:21:13Z</time>
      </trkpt>
      <trkpt lat="46.56791" lon="-1.79681">
        <ele>-4.189</ele>
        <time>2012-05-27T12:21:20Z</time>
      </trkpt>
      <trkpt lat="46.56804" lon="-1.7973">
        <ele>-5.15</ele>
        <time>2012-05-27T12:21:31Z</time>
      </trkpt>
      <trkpt lat="46.5681" lon="-1.79749">
        <ele>-5.63</ele>
        <time>2012-05-27T12:21:36Z</time>
      </trkpt>
      <trkpt lat="46.56823" lon="-1.79789">
        <ele>-6.111</ele>
        <time>2012-05-27T12:21:45Z</time>
      </trkpt>
      <trkpt lat="46.56831" lon="-1.79825">
        <ele>-6.592</ele>
        <time>2012-05-27T12:21:53Z</time>
      </trkpt>
      <trkpt lat="46.5684" lon="-1.7987">
        <ele>-7.073</ele>
        <time>2012-05-27T12:22:03Z</time>
      </trkpt>
      <trkpt lat="46.56852" lon="-1.79912">
        <ele>-7.553</ele>
        <time>2012-05-27T12:22:13Z</time>
      </trkpt>
      <trkpt lat="46.56866" lon="-1.79941">
        <ele>-7.073</ele>
        <time>2012-05-27T12:22:21Z</time>
      </trkpt>
      <trkpt lat="46.56869" lon="-1.79944">
        <ele>-7.553</ele>
        <time>2012-05-27T12:22:22Z</time>
      </trkpt>
      <trkpt lat="46.56882" lon="-1.79942">
        <ele>-7.073</ele>
        <time>2012-05-27T12:22:27Z</time>
      </trkpt>
      <trkpt lat="46.56905" lon="-1.79919">
        <ele>-6.592</ele>
        <time>2012-05-27T12:22:37Z</time>
      </trkpt>
      <trkpt lat="46.56928" lon="-1.79896">
        <ele>-6.111</ele>
        <time>2012-05-27T12:22:46Z</time>
      </trkpt>
      <trkpt lat="46.56947" lon="-1.79876">
        <ele>-6.111</ele>
        <time>2012-05-27T12:22:53Z</time>
      </trkpt>
      <trkpt lat="46.5695" lon="-1.79872">
        <ele>-6.111</ele>
        <time>2012-05-27T12:22:54Z</time>
      </trkpt>
      <trkpt lat="46.56952" lon="-1.7985">
        <ele>-6.111</ele>
        <time>2012-05-27T12:22:58Z</time>
      </trkpt>
      <trkpt lat="46.56949" lon="-1.79845">
        <ele>-6.111</ele>
        <time>2012-05-27T12:22:59Z</time>
      </trkpt>
      <trkpt lat="46.56933" lon="-1.79807">
        <ele>-5.63</ele>
        <time>2012-05-27T12:23:06Z</time>
      </trkpt>
      <trkpt lat="46.56942" lon="-1.79787">
        <ele>-5.15</ele>
        <time>2012-05-27T12:23:10Z</time>
      </trkpt>
      <trkpt lat="46.56957" lon="-1.7976">
        <ele>-5.15</ele>
        <time>2012-05-27T12:23:17Z</time>
      </trkpt>
      <trkpt lat="46.56976" lon="-1.79727">
        <ele>-4.669</ele>
        <time>2012-05-27T12:23:25Z</time>
      </trkpt>
      <trkpt lat="46.56998" lon="-1.79703">
        <ele>-4.669</ele>
        <time>2012-05-27T12:23:33Z</time>
      </trkpt>
      <trkpt lat="46.57015" lon="-1.79688">
        <ele>-4.669</ele>
        <time>2012-05-27T12:23:40Z</time>
      </trkpt>
      <trkpt lat="46.57044" lon="-1.79668">
        <ele>-4.189</ele>
        <time>2012-05-27T12:23:50Z</time>
      </trkpt>
      <trkpt lat="46.57064" lon="-1.79659">
        <ele>-3.708</ele>
        <time>2012-05-27T12:23:57Z</time>
      </trkpt>
      <trkpt lat="46.57093" lon="-1.79645">
        <ele>-3.227</ele>
        <time>2012-05-27T12:24:08Z</time>
      </trkpt>
      <trkpt lat="46.57116" lon="-1.79636">
        <ele>-2.747</ele>
        <time>2012-05-27T12:24:16Z</time>
      </trkpt>
      <trkpt lat="46.57146" lon="-1.7963">
        <ele>-2.747</ele>
        <time>2012-05-27T12:24:26Z</time>
      </trkpt>
      <trkpt lat="46.5717" lon="-1.79614">
        <ele>-2.747</ele>
        <time>2012-05-27T12:24:34Z</time>
      </trkpt>
      <trkpt lat="46.5719" lon="-1.79598">
        <ele>-2.747</ele>
        <time>2012-05-27T12:24:41Z</time>
      </trkpt>
      <trkpt lat="46.57215" lon="-1.79587">
        <ele>-2.747</ele>
        <time>2012-05-27T12:24:48Z</time>
      </trkpt>
      <trkpt lat="46.57243" lon="-1.79569">
        <ele>-2.747</ele>
        <time>2012-05-27T12:24:57Z</time>
      </trkpt>
      <trkpt lat="46.57274" lon="-1.79554">
        <ele>-2.747</ele>
        <time>2012-05-27T12:25:06Z</time>
      </trkpt>
      <trkpt lat="46.57298" lon="-1.79551">
        <ele>-2.266</ele>
        <time>2012-05-27T12:25:13Z</time>
      </trkpt>
      <trkpt lat="46.5731" lon="-1.79535">
        <ele>-2.747</ele>
        <time>2012-05-27T12:25:17Z</time>
      </trkpt>
      <trkpt lat="46.57309" lon="-1.79524">
        <ele>-2.747</ele>
        <time>2012-05-27T12:25:19Z</time>
      </trkpt>
      <trkpt lat="46.57307" lon="-1.79486">
        <ele>-2.747</ele>
        <time>2012-05-27T12:25:26Z</time>
      </trkpt>
      <trkpt lat="46.57314" lon="-1.79445">
        <ele>-3.227</ele>
        <time>2012-05-27T12:25:34Z</time>
      </trkpt>
      <trkpt lat="46.57309" lon="-1.79408">
        <ele>-2.747</ele>
        <time>2012-05-27T12:25:41Z</time>
      </trkpt>
      <trkpt lat="46.57297" lon="-1.79372">
        <ele>-2.747</ele>
        <time>2012-05-27T12:25:48Z</time>
      </trkpt>
      <trkpt lat="46.57287" lon="-1.79348">
        <ele>-2.747</ele>
        <time>2012-05-27T12:25:52Z</time>
      </trkpt>
      <trkpt lat="46.57284" lon="-1.79313">
        <ele>-2.266</ele>
        <time>2012-05-27T12:25:57Z</time>
      </trkpt>
      <trkpt lat="46.57291" lon="-1.79267">
        <ele>-2.266</ele>
        <time>2012-05-27T12:26:05Z</time>
      </trkpt>
      <trkpt lat="46.57297" lon="-1.7923">
        <ele>-2.747</ele>
        <time>2012-05-27T12:26:13Z</time>
      </trkpt>
      <trkpt lat="46.57298" lon="-1.79198">
        <ele>-3.227</ele>
        <time>2012-05-27T12:26:20Z</time>
      </trkpt>
      <trkpt lat="46.573" lon="-1.79187">
        <ele>-3.708</ele>
        <time>2012-05-27T12:26:23Z</time>
      </trkpt>
      <trkpt lat="46.57311" lon="-1.79177">
        <ele>-3.708</ele>
        <time>2012-05-27T12:26:29Z</time>
      </trkpt>
      <trkpt lat="46.57328" lon="-1.79168">
        <ele>-4.189</ele>
        <time>2012-05-27T12:26:35Z</time>
      </trkpt>
      <trkpt lat="46.57343" lon="-1.79158">
        <ele>-3.708</ele>
        <time>2012-05-27T12:26:40Z</time>
      </trkpt>
      <trkpt lat="46.57365" lon="-1.79137">
        <ele>-3.708</ele>
        <time>2012-05-27T12:26:48Z</time>
      </trkpt>
      <trkpt lat="46.57389" lon="-1.79116">
        <ele>-3.708</ele>
        <time>2012-05-27T12:26:56Z</time>
      </trkpt>
      <trkpt lat="46.57408" lon="-1.79105">
        <ele>-3.708</ele>
        <time>2012-05-27T12:27:02Z</time>
      </trkpt>
      <trkpt lat="46.57441" lon="-1.79088">
        <ele>-3.227</ele>
        <time>2012-05-27T12:27:12Z</time>
      </trkpt>
      <trkpt lat="46.5747" lon="-1.79068">
        <ele>-2.747</ele>
        <time>2012-05-27T12:27:21Z</time>
      </trkpt>
      <trkpt lat="46.57486" lon="-1.79063">
        <ele>-2.266</ele>
        <time>2012-05-27T12:27:26Z</time>
      </trkpt>
      <trkpt lat="46.57501" lon="-1.79074">
        <ele>-2.266</ele>
        <time>2012-05-27T12:27:31Z</time>
      </trkpt>
      <trkpt lat="46.57517" lon="-1.79088">
        <ele>-2.747</ele>
        <time>2012-05-27T12:27:36Z</time>
      </trkpt>
      <trkpt lat="46.5754" lon="-1.79114">
        <ele>-2.266</ele>
        <time>2012-05-27T12:27:42Z</time>
      </trkpt>
      <trkpt lat="46.57571" lon="-1.79151">
        <ele>-1.305</ele>
        <time>2012-05-27T12:27:49Z</time>
      </trkpt>
      <trkpt lat="46.57604" lon="-1.79192">
        <ele>-0.824</ele>
        <time>2012-05-27T12:27:56Z</time>
      </trkpt>
      <trkpt lat="46.57629" lon="-1.79222">
        <ele>-1.305</ele>
        <time>2012-05-27T12:28:01Z</time>
      </trkpt>
      <trkpt lat="46.57653" lon="-1.79256">
        <ele>-1.305</ele>
        <time>2012-05-27T12:28:07Z</time>
      </trkpt>
      <trkpt lat="46.57675" lon="-1.79288">
        <ele>-1.305</ele>
        <time>2012-05-27T12:28:14Z</time>
      </trkpt>
      <trkpt lat="46.57694" lon="-1.79314">
        <ele>-1.305</ele>
        <time>2012-05-27T12:28:21Z</time>
      </trkpt>
      <trkpt lat="46.57722" lon="-1.79349">
        <ele>-1.305</ele>
        <time>2012-05-27T12:28:31Z</time>
      </trkpt>
      <trkpt lat="46.57753" lon="-1.79385">
        <ele>-0.824</ele>
        <time>2012-05-27T12:28:42Z</time>
      </trkpt>
      <trkpt lat="46.57774" lon="-1.79403">
        <ele>-0.824</ele>
        <time>2012-05-27T12:28:50Z</time>
      </trkpt>
      <trkpt lat="46.57799" lon="-1.79424">
        <ele>-0.343</ele>
        <time>2012-05-27T12:29:00Z</time>
      </trkpt>
      <trkpt lat="46.57807" lon="-1.79429">
        <ele>-0.343</ele>
        <time>2012-05-27T12:29:05Z</time>
      </trkpt>
      <trkpt lat="46.57807" lon="-1.7943">
        <ele>-0.343</ele>
        <time>2012-05-27T12:29:07Z</time>
      </trkpt>
      <trkpt lat="46.57814" lon="-1.79439">
        <ele>-0.343</ele>
        <time>2012-05-27T12:29:22Z</time>
      </trkpt>
      <trkpt lat="46.57835" lon="-1.79455">
        <ele>-0.824</ele>
        <time>2012-05-27T12:29:29Z</time>
      </trkpt>
      <trkpt lat="46.57872" lon="-1.79487">
        <ele>-2.266</ele>
        <time>2012-05-27T12:29:39Z</time>
      </trkpt>
      <trkpt lat="46.57896" lon="-1.79516">
        <ele>-3.227</ele>
        <time>2012-05-27T12:29:47Z</time>
      </trkpt>
      <trkpt lat="46.57913" lon="-1.7955">
        <ele>-3.708</ele>
        <time>2012-05-27T12:29:54Z</time>
      </trkpt>
      <trkpt lat="46.57933" lon="-1.79592">
        <ele>-5.15</ele>
        <time>2012-05-27T12:30:03Z</time>
      </trkpt>
      <trkpt lat="46.57953" lon="-1.79628">
        <ele>-5.63</ele>
        <time>2012-05-27T12:30:11Z</time>
      </trkpt>
      <trkpt lat="46.57976" lon="-1.79653">
        <ele>-5.63</ele>
        <time>2012-05-27T12:30:18Z</time>
      </trkpt>
      <trkpt lat="46.58008" lon="-1.79673">
        <ele>-5.63</ele>
        <time>2012-05-27T12:30:27Z</time>
      </trkpt>
      <trkpt lat="46.58032" lon="-1.797">
        <ele>-5.15</ele>
        <time>2012-05-27T12:30:35Z</time>
      </trkpt>
      <trkpt lat="46.58039" lon="-1.79725">
        <ele>-4.669</ele>
        <time>2012-05-27T12:30:40Z</time>
      </trkpt>
      <trkpt lat="46.58051" lon="-1.79755">
        <ele>-3.708</ele>
        <time>2012-05-27T12:30:47Z</time>
      </trkpt>
      <trkpt lat="46.58062" lon="-1.79785">
        <ele>-2.747</ele>
        <time>2012-05-27T12:30:54Z</time>
      </trkpt>
      <trkpt lat="46.58071" lon="-1.7982">
        <ele>-3.227</ele>
        <time>2012-05-27T12:31:01Z</time>
      </trkpt>
      <trkpt lat="46.5808" lon="-1.79861">
        <ele>-3.708</ele>
        <time>2012-05-27T12:31:09Z</time>
      </trkpt>
      <trkpt lat="46.5809" lon="-1.79898">
        <ele>-5.63</ele>
        <time>2012-05-27T12:31:16Z</time>
      </trkpt>
      <trkpt lat="46.58104" lon="-1.79913">
        <ele>-5.15</ele>
        <time>2012-05-27T12:31:21Z</time>
      </trkpt>
      <trkpt lat="46.58124" lon="-1.79929">
        <ele>-4.189</ele>
        <time>2012-05-27T12:31:27Z</time>
      </trkpt>
      <trkpt lat="46.5813" lon="-1.79943">
        <ele>-4.189</ele>
        <time>2012-05-27T12:31:30Z</time>
      </trkpt>
      <trkpt lat="46.58141" lon="-1.79988">
        <ele>-2.747</ele>
        <time>2012-05-27T12:31:37Z</time>
      </trkpt>
      <trkpt lat="46.58143" lon="-1.79994">
        <ele>-2.747</ele>
        <time>2012-05-27T12:31:38Z</time>
      </trkpt>
      <trkpt lat="46.58155" lon="-1.80032">
        <ele>-2.266</ele>
        <time>2012-05-27T12:31:45Z</time>
      </trkpt>
      <trkpt lat="46.58161" lon="-1.80053">
        <ele>-1.305</ele>
        <time>2012-05-27T12:31:51Z</time>
      </trkpt>
      <trkpt lat="46.58161" lon="-1.80077">
        <ele>-0.824</ele>
        <time>2012-05-27T12:31:58Z</time>
      </trkpt>
      <trkpt lat="46.58151" lon="-1.80091">
        <ele>-0.824</ele>
        <time>2012-05-27T12:32:03Z</time>
      </trkpt>
      <trkpt lat="46.5813" lon="-1.80106">
        <ele>-1.305</ele>
        <time>2012-05-27T12:32:10Z</time>
      </trkpt>
      <trkpt lat="46.58108" lon="-1.80128">
        <ele>-2.266</ele>
        <time>2012-05-27T12:32:18Z</time>
      </trkpt>
      <trkpt lat="46.58105" lon="-1.80149">
        <ele>-2.747</ele>
        <time>2012-05-27T12:32:23Z</time>
      </trkpt>
      <trkpt lat="46.58113" lon="-1.80187">
        <ele>-3.227</ele>
        <time>2012-05-27T12:32:31Z</time>
      </trkpt>
      <trkpt lat="46.58123" lon="-1.80232">
        <ele>-3.708</ele>
        <time>2012-05-27T12:32:40Z</time>
      </trkpt>
      <trkpt lat="46.58133" lon="-1.80285">
        <ele>-3.708</ele>
        <time>2012-05-27T12:32:50Z</time>
      </trkpt>
      <trkpt lat="46.58141" lon="-1.80328">
        <ele>-4.189</ele>
        <time>2012-05-27T12:32:58Z</time>
      </trkpt>
      <trkpt lat="46.58148" lon="-1.80367">
        <ele>-4.669</ele>
        <time>2012-05-27T12:33:04Z</time>
      </trkpt>
      <trkpt lat="46.58155" lon="-1.80426">
        <ele>-6.111</ele>
        <time>2012-05-27T12:33:12Z</time>
      </trkpt>
      <trkpt lat="46.58158" lon="-1.80477">
        <ele>-6.592</ele>
        <time>2012-05-27T12:33:20Z</time>
      </trkpt>
      <trkpt lat="46.5816" lon="-1.80513">
        <ele>-6.592</ele>
        <time>2012-05-27T12:33:27Z</time>
      </trkpt>
      <trkpt lat="46.58162" lon="-1.80547">
        <ele>-6.592</ele>
        <time>2012-05-27T12:33:33Z</time>
      </trkpt>
      <trkpt lat="46.58169" lon="-1.80582">
        <ele>-6.592</ele>
        <time>2012-05-27T12:33:40Z</time>
      </trkpt>
      <trkpt lat="46.58179" lon="-1.80614">
        <ele>-6.592</ele>
        <time>2012-05-27T12:33:47Z</time>
      </trkpt>
      <trkpt lat="46.58173" lon="-1.8063">
        <ele>-6.111</ele>
        <time>2012-05-27T12:33:51Z</time>
      </trkpt>
      <trkpt lat="46.58159" lon="-1.80646">
        <ele>-5.15</ele>
        <time>2012-05-27T12:33:56Z</time>
      </trkpt>
      <trkpt lat="46.58139" lon="-1.8067">
        <ele>-5.15</ele>
        <time>2012-05-27T12:34:02Z</time>
      </trkpt>
      <trkpt lat="46.58117" lon="-1.80695">
        <ele>-4.669</ele>
        <time>2012-05-27T12:34:09Z</time>
      </trkpt>
      <trkpt lat="46.58098" lon="-1.80716">
        <ele>-4.189</ele>
        <time>2012-05-27T12:34:16Z</time>
      </trkpt>
      <trkpt lat="46.58069" lon="-1.80739">
        <ele>-4.669</ele>
        <time>2012-05-27T12:34:25Z</time>
      </trkpt>
      <trkpt lat="46.58036" lon="-1.80762">
        <ele>-4.189</ele>
        <time>2012-05-27T12:34:34Z</time>
      </trkpt>
      <trkpt lat="46.58004" lon="-1.80783">
        <ele>-3.227</ele>
        <time>2012-05-27T12:34:43Z</time>
      </trkpt>
      <trkpt lat="46.5798" lon="-1.80803">
        <ele>-4.189</ele>
        <time>2012-05-27T12:34:51Z</time>
      </trkpt>
      <trkpt lat="46.57954" lon="-1.80824">
        <ele>-3.708</ele>
        <time>2012-05-27T12:35:00Z</time>
      </trkpt>
      <trkpt lat="46.57925" lon="-1.80846">
        <ele>-4.189</ele>
        <time>2012-05-27T12:35:09Z</time>
      </trkpt>
      <trkpt lat="46.57898" lon="-1.80864">
        <ele>-3.708</ele>
        <time>2012-05-27T12:35:17Z</time>
      </trkpt>
      <trkpt lat="46.57872" lon="-1.80883">
        <ele>-4.189</ele>
        <time>2012-05-27T12:35:25Z</time>
      </trkpt>
      <trkpt lat="46.57841" lon="-1.80908">
        <ele>-4.189</ele>
        <time>2012-05-27T12:35:35Z</time>
      </trkpt>
      <trkpt lat="46.57817" lon="-1.80926">
        <ele>-4.189</ele>
        <time>2012-05-27T12:35:43Z</time>
      </trkpt>
      <trkpt lat="46.57798" lon="-1.80943">
        <ele>-4.189</ele>
        <time>2012-05-27T12:35:50Z</time>
      </trkpt>
      <trkpt lat="46.57781" lon="-1.8096">
        <ele>-4.189</ele>
        <time>2012-05-27T12:35:57Z</time>
      </trkpt>
      <trkpt lat="46.57789" lon="-1.80974">
        <ele>-4.189</ele>
        <time>2012-05-27T12:36:02Z</time>
      </trkpt>
      <trkpt lat="46.57792" lon="-1.80975">
        <ele>-4.189</ele>
        <time>2012-05-27T12:36:03Z</time>
      </trkpt>
      <trkpt lat="46.57822" lon="-1.80989">
        <ele>-4.669</ele>
        <time>2012-05-27T12:36:12Z</time>
      </trkpt>
      <trkpt lat="46.57847" lon="-1.81002">
        <ele>-4.189</ele>
        <time>2012-05-27T12:36:20Z</time>
      </trkpt>
      <trkpt lat="46.57871" lon="-1.81028">
        <ele>-4.189</ele>
        <time>2012-05-27T12:36:29Z</time>
      </trkpt>
      <trkpt lat="46.57893" lon="-1.81056">
        <ele>-3.708</ele>
        <time>2012-05-27T12:36:38Z</time>
      </trkpt>
      <trkpt lat="46.57904" lon="-1.81084">
        <ele>-4.189</ele>
        <time>2012-05-27T12:36:46Z</time>
      </trkpt>
      <trkpt lat="46.57905" lon="-1.81109">
        <ele>-4.189</ele>
        <time>2012-05-27T12:36:51Z</time>
      </trkpt>
      <trkpt lat="46.57904" lon="-1.8115">
        <ele>-3.227</ele>
        <time>2012-05-27T12:36:59Z</time>
      </trkpt>
      <trkpt lat="46.57904" lon="-1.81176">
        <ele>-3.227</ele>
        <time>2012-05-27T12:37:05Z</time>
      </trkpt>
      <trkpt lat="46.57903" lon="-1.81202">
        <ele>-2.747</ele>
        <time>2012-05-27T12:37:12Z</time>
      </trkpt>
      <trkpt lat="46.57891" lon="-1.81206">
        <ele>-2.747</ele>
        <time>2012-05-27T12:37:17Z</time>
      </trkpt>
      <trkpt lat="46.57868" lon="-1.81204">
        <ele>-2.747</ele>
        <time>2012-05-27T12:37:24Z</time>
      </trkpt>
      <trkpt lat="46.57851" lon="-1.81213">
        <ele>-2.747</ele>
        <time>2012-05-27T12:37:30Z</time>
      </trkpt>
      <trkpt lat="46.5783" lon="-1.81234">
        <ele>-2.266</ele>
        <time>2012-05-27T12:37:38Z</time>
      </trkpt>
      <trkpt lat="46.57813" lon="-1.81253">
        <ele>-2.747</ele>
        <time>2012-05-27T12:37:45Z</time>
      </trkpt>
      <trkpt lat="46.57792" lon="-1.81275">
        <ele>-2.747</ele>
        <time>2012-05-27T12:37:53Z</time>
      </trkpt>
      <trkpt lat="46.57771" lon="-1.81296">
        <ele>-2.747</ele>
        <time>2012-05-27T12:38:01Z</time>
      </trkpt>
      <trkpt lat="46.57748" lon="-1.81323">
        <ele>-2.266</ele>
        <time>2012-05-27T12:38:10Z</time>
      </trkpt>
      <trkpt lat="46.57728" lon="-1.81342">
        <ele>-2.266</ele>
        <time>2012-05-27T12:38:18Z</time>
      </trkpt>
      <trkpt lat="46.57709" lon="-1.81362">
        <ele>-2.266</ele>
        <time>2012-05-27T12:38:26Z</time>
      </trkpt>
      <trkpt lat="46.57685" lon="-1.81382">
        <ele>-1.785</ele>
        <time>2012-05-27T12:38:36Z</time>
      </trkpt>
      <trkpt lat="46.57665" lon="-1.81403">
        <ele>-2.266</ele>
        <time>2012-05-27T12:38:44Z</time>
      </trkpt>
      <trkpt lat="46.57665" lon="-1.81421">
        <ele>-2.747</ele>
        <time>2012-05-27T12:38:48Z</time>
      </trkpt>
      <trkpt lat="46.57677" lon="-1.81457">
        <ele>-2.747</ele>
        <time>2012-05-27T12:38:57Z</time>
      </trkpt>
      <trkpt lat="46.57679" lon="-1.8147">
        <ele>-2.747</ele>
        <time>2012-05-27T12:39:00Z</time>
      </trkpt>
      <trkpt lat="46.57671" lon="-1.81482">
        <ele>-2.747</ele>
        <time>2012-05-27T12:39:04Z</time>
      </trkpt>
      <trkpt lat="46.57658" lon="-1.81495">
        <ele>-2.747</ele>
        <time>2012-05-27T12:39:09Z</time>
      </trkpt>
      <trkpt lat="46.57641" lon="-1.81509">
        <ele>-2.266</ele>
        <time>2012-05-27T12:39:15Z</time>
      </trkpt>
      <trkpt lat="46.57615" lon="-1.81515">
        <ele>-1.785</ele>
        <time>2012-05-27T12:39:23Z</time>
      </trkpt>
      <trkpt lat="46.5758" lon="-1.81514">
        <ele>-1.785</ele>
        <time>2012-05-27T12:39:33Z</time>
      </trkpt>
      <trkpt lat="46.57565" lon="-1.81521">
        <ele>-1.785</ele>
        <time>2012-05-27T12:39:38Z</time>
      </trkpt>
      <trkpt lat="46.57548" lon="-1.81527">
        <ele>-2.266</ele>
        <time>2012-05-27T12:39:44Z</time>
      </trkpt>
      <trkpt lat="46.57539" lon="-1.8154">
        <ele>-2.266</ele>
        <time>2012-05-27T12:39:49Z</time>
      </trkpt>
      <trkpt lat="46.57538" lon="-1.8154">
        <ele>-1.785</ele>
        <time>2012-05-27T12:39:51Z</time>
      </trkpt>
      <trkpt lat="46.57538" lon="-1.81563">
        <ele>-1.785</ele>
        <time>2012-05-27T12:40:04Z</time>
      </trkpt>
      <trkpt lat="46.57536" lon="-1.81604">
        <ele>-1.785</ele>
        <time>2012-05-27T12:40:12Z</time>
      </trkpt>
      <trkpt lat="46.5753" lon="-1.8164">
        <ele>-2.266</ele>
        <time>2012-05-27T12:40:19Z</time>
      </trkpt>
      <trkpt lat="46.57522" lon="-1.8166">
        <ele>-1.785</ele>
        <time>2012-05-27T12:40:25Z</time>
      </trkpt>
      <trkpt lat="46.57527" lon="-1.81677">
        <ele>-2.747</ele>
        <time>2012-05-27T12:40:30Z</time>
      </trkpt>
      <trkpt lat="46.57538" lon="-1.8169">
        <ele>-2.747</ele>
        <time>2012-05-27T12:40:36Z</time>
      </trkpt>
      <trkpt lat="46.57548" lon="-1.81697">
        <ele>-0.824</ele>
        <time>2012-05-27T12:40:41Z</time>
      </trkpt>
      <trkpt lat="46.57562" lon="-1.817">
        <ele>-1.305</ele>
        <time>2012-05-27T12:40:47Z</time>
      </trkpt>
      <trkpt lat="46.57572" lon="-1.81702">
        <ele>-2.747</ele>
        <time>2012-05-27T12:40:53Z</time>
      </trkpt>
      <trkpt lat="46.57589" lon="-1.817">
        <ele>-3.227</ele>
        <time>2012-05-27T12:40:59Z</time>
      </trkpt>
      <trkpt lat="46.57607" lon="-1.81703">
        <ele>-3.227</ele>
        <time>2012-05-27T12:41:04Z</time>
      </trkpt>
      <trkpt lat="46.57626" lon="-1.81711">
        <ele>-3.708</ele>
        <time>2012-05-27T12:41:10Z</time>
      </trkpt>
      <trkpt lat="46.57648" lon="-1.81713">
        <ele>-4.189</ele>
        <time>2012-05-27T12:41:16Z</time>
      </trkpt>
      <trkpt lat="46.57662" lon="-1.81719">
        <ele>-4.189</ele>
        <time>2012-05-27T12:41:20Z</time>
      </trkpt>
      <trkpt lat="46.57671" lon="-1.81743">
        <ele>-4.189</ele>
        <time>2012-05-27T12:41:25Z</time>
      </trkpt>
      <trkpt lat="46.57682" lon="-1.81779">
        <ele>-4.669</ele>
        <time>2012-05-27T12:41:33Z</time>
      </trkpt>
      <trkpt lat="46.5769" lon="-1.81819">
        <ele>-4.669</ele>
        <time>2012-05-27T12:41:41Z</time>
      </trkpt>
      <trkpt lat="46.57693" lon="-1.81857">
        <ele>-5.15</ele>
        <time>2012-05-27T12:41:49Z</time>
      </trkpt>
      <trkpt lat="46.57695" lon="-1.81891">
        <ele>-5.63</ele>
        <time>2012-05-27T12:41:56Z</time>
      </trkpt>
      <trkpt lat="46.57699" lon="-1.81928">
        <ele>-4.669</ele>
        <time>2012-05-27T12:42:03Z</time>
      </trkpt>
      <trkpt lat="46.57702" lon="-1.81967">
        <ele>-3.708</ele>
        <time>2012-05-27T12:42:10Z</time>
      </trkpt>
      <trkpt lat="46.57693" lon="-1.81997">
        <ele>-3.227</ele>
        <time>2012-05-27T12:42:15Z</time>
      </trkpt>
      <trkpt lat="46.57688" lon="-1.82008">
        <ele>-3.227</ele>
        <time>2012-05-27T12:42:17Z</time>
      </trkpt>
      <trkpt lat="46.57682" lon="-1.82035">
        <ele>-3.227</ele>
        <time>2012-05-27T12:42:22Z</time>
      </trkpt>
      <trkpt lat="46.57683" lon="-1.8204">
        <ele>-3.227</ele>
        <time>2012-05-27T12:42:23Z</time>
      </trkpt>
      <trkpt lat="46.57692" lon="-1.82087">
        <ele>-3.227</ele>
        <time>2012-05-27T12:42:32Z</time>
      </trkpt>
      <trkpt lat="46.57699" lon="-1.82133">
        <ele>-3.227</ele>
        <time>2012-05-27T12:42:41Z</time>
      </trkpt>
      <trkpt lat="46.57706" lon="-1.82175">
        <ele>-2.747</ele>
        <time>2012-05-27T12:42:49Z</time>
      </trkpt>
      <trkpt lat="46.57715" lon="-1.82221">
        <ele>-2.747</ele>
        <time>2012-05-27T12:42:58Z</time>
      </trkpt>
      <trkpt lat="46.57716" lon="-1.82248">
        <ele>-1.305</ele>
        <time>2012-05-27T12:43:04Z</time>
      </trkpt>
      <trkpt lat="46.57707" lon="-1.82264">
        <ele>-0.343</ele>
        <time>2012-05-27T12:43:09Z</time>
      </trkpt>
      <trkpt lat="46.57696" lon="-1.82269">
        <ele>0.137</ele>
        <time>2012-05-27T12:43:13Z</time>
      </trkpt>
      <trkpt lat="46.57682" lon="-1.82272">
        <ele>0.618</ele>
        <time>2012-05-27T12:43:19Z</time>
      </trkpt>
      <trkpt lat="46.57672" lon="-1.82265">
        <ele>2.06</ele>
        <time>2012-05-27T12:43:27Z</time>
      </trkpt>
      <trkpt lat="46.5767" lon="-1.82265">
        <ele>2.06</ele>
        <time>2012-05-27T12:43:28Z</time>
      </trkpt>
      <trkpt lat="46.57663" lon="-1.82264">
        <ele>2.06</ele>
        <time>2012-05-27T12:43:32Z</time>
      </trkpt>
      <trkpt lat="46.57661" lon="-1.82261">
        <ele>2.541</ele>
        <time>2012-05-27T12:43:36Z</time>
      </trkpt>
      <trkpt lat="46.5766" lon="-1.8226">
        <ele>-1.305</ele>
        <time>2012-05-27T12:50:46Z</time>
      </trkpt>
      <trkpt lat="46.57649" lon="-1.82262">
        <ele>-1.785</ele>
        <time>2012-05-27T12:50:58Z</time>
      </trkpt>
      <trkpt lat="46.57624" lon="-1.82255">
        <ele>-1.305</ele>
        <time>2012-05-27T12:51:03Z</time>
      </trkpt>
      <trkpt lat="46.57604" lon="-1.82247">
        <ele>-0.824</ele>
        <time>2012-05-27T12:51:07Z</time>
      </trkpt>
      <trkpt lat="46.57566" lon="-1.82233">
        <ele>0.618</ele>
        <time>2012-05-27T12:51:14Z</time>
      </trkpt>
      <trkpt lat="46.57561" lon="-1.82232">
        <ele>0.618</ele>
        <time>2012-05-27T12:51:15Z</time>
      </trkpt>
      <trkpt lat="46.57536" lon="-1.82218">
        <ele>-0.343</ele>
        <time>2012-05-27T12:51:21Z</time>
      </trkpt>
      <trkpt lat="46.57499" lon="-1.82197">
        <ele>-0.343</ele>
        <time>2012-05-27T12:51:30Z</time>
      </trkpt>
      <trkpt lat="46.57477" lon="-1.82185">
        <ele>-1.305</ele>
        <time>2012-05-27T12:51:36Z</time>
      </trkpt>
      <trkpt lat="46.57445" lon="-1.8217">
        <ele>-3.227</ele>
        <time>2012-05-27T12:51:44Z</time>
      </trkpt>
      <trkpt lat="46.57419" lon="-1.82159">
        <ele>-4.669</ele>
        <time>2012-05-27T12:51:51Z</time>
      </trkpt>
      <trkpt lat="46.57397" lon="-1.82144">
        <ele>-7.073</ele>
        <time>2012-05-27T12:51:57Z</time>
      </trkpt>
      <trkpt lat="46.57375" lon="-1.82122">
        <ele>-6.111</ele>
        <time>2012-05-27T12:52:04Z</time>
      </trkpt>
      <trkpt lat="46.57354" lon="-1.82112">
        <ele>-4.669</ele>
        <time>2012-05-27T12:52:10Z</time>
      </trkpt>
      <trkpt lat="46.57336" lon="-1.82109">
        <ele>-3.227</ele>
        <time>2012-05-27T12:52:15Z</time>
      </trkpt>
      <trkpt lat="46.57319" lon="-1.82113">
        <ele>-1.785</ele>
        <time>2012-05-27T12:52:20Z</time>
      </trkpt>
      <trkpt lat="46.57304" lon="-1.82119">
        <ele>-0.824</ele>
        <time>2012-05-27T12:52:25Z</time>
      </trkpt>
      <trkpt lat="46.57285" lon="-1.82125">
        <ele>-0.824</ele>
        <time>2012-05-27T12:52:31Z</time>
      </trkpt>
      <trkpt lat="46.57265" lon="-1.82128">
        <ele>-0.824</ele>
        <time>2012-05-27T12:52:36Z</time>
      </trkpt>
      <trkpt lat="46.5726" lon="-1.82129">
        <ele>-0.824</ele>
        <time>2012-05-27T12:52:37Z</time>
      </trkpt>
      <trkpt lat="46.57248" lon="-1.82126">
        <ele>-0.824</ele>
        <time>2012-05-27T12:52:40Z</time>
      </trkpt>
      <trkpt lat="46.5723" lon="-1.82109">
        <ele>-2.747</ele>
        <time>2012-05-27T12:52:45Z</time>
      </trkpt>
      <trkpt lat="46.57227" lon="-1.82104">
        <ele>-3.227</ele>
        <time>2012-05-27T12:52:46Z</time>
      </trkpt>
      <trkpt lat="46.57211" lon="-1.82059">
        <ele>-5.15</ele>
        <time>2012-05-27T12:52:54Z</time>
      </trkpt>
      <trkpt lat="46.572" lon="-1.82018">
        <ele>-6.111</ele>
        <time>2012-05-27T12:53:02Z</time>
      </trkpt>
      <trkpt lat="46.57184" lon="-1.81971">
        <ele>-8.034</ele>
        <time>2012-05-27T12:53:11Z</time>
      </trkpt>
      <trkpt lat="46.57179" lon="-1.81961">
        <ele>-8.034</ele>
        <time>2012-05-27T12:53:13Z</time>
      </trkpt>
      <trkpt lat="46.57172" lon="-1.81939">
        <ele>-7.073</ele>
        <time>2012-05-27T12:53:17Z</time>
      </trkpt>
      <trkpt lat="46.57151" lon="-1.81899">
        <ele>-8.034</ele>
        <time>2012-05-27T12:53:26Z</time>
      </trkpt>
      <trkpt lat="46.5713" lon="-1.81882">
        <ele>-6.111</ele>
        <time>2012-05-27T12:53:33Z</time>
      </trkpt>
      <trkpt lat="46.57114" lon="-1.81872">
        <ele>-2.266</ele>
        <time>2012-05-27T12:53:38Z</time>
      </trkpt>
      <trkpt lat="46.57099" lon="-1.81863">
        <ele>-1.305</ele>
        <time>2012-05-27T12:53:43Z</time>
      </trkpt>
      <trkpt lat="46.57081" lon="-1.81856">
        <ele>2.06</ele>
        <time>2012-05-27T12:53:48Z</time>
      </trkpt>
      <trkpt lat="46.57063" lon="-1.81854">
        <ele>4.463</ele>
        <time>2012-05-27T12:53:53Z</time>
      </trkpt>
      <trkpt lat="46.57043" lon="-1.81856">
        <ele>6.386</ele>
        <time>2012-05-27T12:53:59Z</time>
      </trkpt>
      <trkpt lat="46.57022" lon="-1.81862">
        <ele>5.425</ele>
        <time>2012-05-27T12:54:05Z</time>
      </trkpt>
      <trkpt lat="46.57008" lon="-1.8187">
        <ele>3.502</ele>
        <time>2012-05-27T12:54:08Z</time>
      </trkpt>
      <trkpt lat="46.5698" lon="-1.81899">
        <ele>-3.227</ele>
        <time>2012-05-27T12:54:15Z</time>
      </trkpt>
      <trkpt lat="46.56959" lon="-1.81931">
        <ele>-5.15</ele>
        <time>2012-05-27T12:54:22Z</time>
      </trkpt>
      <trkpt lat="46.56942" lon="-1.81972">
        <ele>-4.189</ele>
        <time>2012-05-27T12:54:30Z</time>
      </trkpt>
      <trkpt lat="46.56925" lon="-1.82027">
        <ele>-2.266</ele>
        <time>2012-05-27T12:54:40Z</time>
      </trkpt>
      <trkpt lat="46.56922" lon="-1.82037">
        <ele>-2.266</ele>
        <time>2012-05-27T12:54:42Z</time>
      </trkpt>
      <trkpt lat="46.56915" lon="-1.82044">
        <ele>-2.747</ele>
        <time>2012-05-27T12:54:45Z</time>
      </trkpt>
      <trkpt lat="46.56905" lon="-1.82046">
        <ele>-3.227</ele>
        <time>2012-05-27T12:54:50Z</time>
      </trkpt>
      <trkpt lat="46.56904" lon="-1.82045">
        <ele>-3.227</ele>
        <time>2012-05-27T12:54:51Z</time>
      </trkpt>
      <trkpt lat="46.56891" lon="-1.82036">
        <ele>-3.227</ele>
        <time>2012-05-27T12:54:57Z</time>
      </trkpt>
      <trkpt lat="46.5688" lon="-1.82027">
        <ele>-3.227</ele>
        <time>2012-05-27T12:55:03Z</time>
      </trkpt>
      <trkpt lat="46.56872" lon="-1.82018">
        <ele>-3.227</ele>
        <time>2012-05-27T12:55:09Z</time>
      </trkpt>
      <trkpt lat="46.5686" lon="-1.82003">
        <ele>-4.189</ele>
        <time>2012-05-27T12:55:14Z</time>
      </trkpt>
      <trkpt lat="46.56847" lon="-1.81978">
        <ele>-5.15</ele>
        <time>2012-05-27T12:55:20Z</time>
      </trkpt>
      <trkpt lat="46.56847" lon="-1.81956">
        <ele>-5.63</ele>
        <time>2012-05-27T12:55:24Z</time>
      </trkpt>
      <trkpt lat="46.56844" lon="-1.81925">
        <ele>-3.708</ele>
        <time>2012-05-27T12:55:30Z</time>
      </trkpt>
      <trkpt lat="46.56842" lon="-1.81901">
        <ele>-3.227</ele>
        <time>2012-05-27T12:55:35Z</time>
      </trkpt>
      <trkpt lat="46.56836" lon="-1.81868">
        <ele>-2.747</ele>
        <time>2012-05-27T12:55:41Z</time>
      </trkpt>
      <trkpt lat="46.56827" lon="-1.81837">
        <ele>-4.669</ele>
        <time>2012-05-27T12:55:47Z</time>
      </trkpt>
      <trkpt lat="46.5681" lon="-1.8181">
        <ele>-10.437</ele>
        <time>2012-05-27T12:55:54Z</time>
      </trkpt>
      <trkpt lat="46.56797" lon="-1.81791">
        <ele>-13.802</ele>
        <time>2012-05-27T12:55:59Z</time>
      </trkpt>
      <trkpt lat="46.56779" lon="-1.81759">
        <ele>-4.669</ele>
        <time>2012-05-27T12:56:06Z</time>
      </trkpt>
      <trkpt lat="46.56754" lon="-1.81721">
        <ele>0.137</ele>
        <time>2012-05-27T12:56:15Z</time>
      </trkpt>
      <trkpt lat="46.56745" lon="-1.81708">
        <ele>0.137</ele>
        <time>2012-05-27T12:56:18Z</time>
      </trkpt>
      <trkpt lat="46.56732" lon="-1.81692">
        <ele>-2.266</ele>
        <time>2012-05-27T12:56:22Z</time>
      </trkpt>
      <trkpt lat="46.56718" lon="-1.81678">
        <ele>-2.747</ele>
        <time>2012-05-27T12:56:26Z</time>
      </trkpt>
      <trkpt lat="46.56704" lon="-1.81662">
        <ele>-2.747</ele>
        <time>2012-05-27T12:56:30Z</time>
      </trkpt>
      <trkpt lat="46.56689" lon="-1.81646">
        <ele>-3.708</ele>
        <time>2012-05-27T12:56:34Z</time>
      </trkpt>
      <trkpt lat="46.56677" lon="-1.81629">
        <ele>-2.747</ele>
        <time>2012-05-27T12:56:38Z</time>
      </trkpt>
      <trkpt lat="46.5667" lon="-1.8162">
        <ele>-3.227</ele>
        <time>2012-05-27T12:56:40Z</time>
      </trkpt>
      <trkpt lat="46.56665" lon="-1.81609">
        <ele>-4.669</ele>
        <time>2012-05-27T12:56:42Z</time>
      </trkpt>
      <trkpt lat="46.56657" lon="-1.81576">
        <ele>-5.15</ele>
        <time>2012-05-27T12:56:48Z</time>
      </trkpt>
      <trkpt lat="46.56648" lon="-1.81544">
        <ele>-3.227</ele>
        <time>2012-05-27T12:56:54Z</time>
      </trkpt>
      <trkpt lat="46.56639" lon="-1.81513">
        <ele>-0.343</ele>
        <time>2012-05-27T12:56:59Z</time>
      </trkpt>
      <trkpt lat="46.56631" lon="-1.81478">
        <ele>0.137</ele>
        <time>2012-05-27T12:57:05Z</time>
      </trkpt>
      <trkpt lat="46.5662" lon="-1.81453">
        <ele>-1.785</ele>
        <time>2012-05-27T12:57:10Z</time>
      </trkpt>
      <trkpt lat="46.56601" lon="-1.81407">
        <ele>-0.824</ele>
        <time>2012-05-27T12:57:18Z</time>
      </trkpt>
      <trkpt lat="46.56596" lon="-1.81397">
        <ele>-2.266</ele>
        <time>2012-05-27T12:57:20Z</time>
      </trkpt>
      <trkpt lat="46.56579" lon="-1.81365">
        <ele>-5.63</ele>
        <time>2012-05-27T12:57:26Z</time>
      </trkpt>
      <trkpt lat="46.56564" lon="-1.81349">
        <ele>-7.073</ele>
        <time>2012-05-27T12:57:30Z</time>
      </trkpt>
      <trkpt lat="46.56545" lon="-1.81334">
        <ele>-7.073</ele>
        <time>2012-05-27T12:57:35Z</time>
      </trkpt>
      <trkpt lat="46.5652" lon="-1.81327">
        <ele>-10.437</ele>
        <time>2012-05-27T12:57:41Z</time>
      </trkpt>
      <trkpt lat="46.565" lon="-1.81305">
        <ele>-14.763</ele>
        <time>2012-05-27T12:57:47Z</time>
      </trkpt>
      <trkpt lat="46.56481" lon="-1.81272">
        <ele>-19.089</ele>
        <time>2012-05-27T12:57:54Z</time>
      </trkpt>
      <trkpt lat="46.56479" lon="-1.81268">
        <ele>-20.05</ele>
        <time>2012-05-27T12:57:55Z</time>
      </trkpt>
      <trkpt lat="46.56464" lon="-1.81247">
        <ele>-23.415</ele>
        <time>2012-05-27T12:58:00Z</time>
      </trkpt>
      <trkpt lat="46.56449" lon="-1.81234">
        <ele>-25.338</ele>
        <time>2012-05-27T12:58:04Z</time>
      </trkpt>
      <trkpt lat="46.56422" lon="-1.81207">
        <ele>-28.702</ele>
        <time>2012-05-27T12:58:12Z</time>
      </trkpt>
      <trkpt lat="46.56407" lon="-1.81185">
        <ele>-29.664</ele>
        <time>2012-05-27T12:58:17Z</time>
      </trkpt>
      <trkpt lat="46.56395" lon="-1.81161">
        <ele>-28.702</ele>
        <time>2012-05-27T12:58:22Z</time>
      </trkpt>
      <trkpt lat="46.56383" lon="-1.81135">
        <ele>-25.818</ele>
        <time>2012-05-27T12:58:27Z</time>
      </trkpt>
      <trkpt lat="46.56375" lon="-1.81116">
        <ele>-23.896</ele>
        <time>2012-05-27T12:58:31Z</time>
      </trkpt>
      <trkpt lat="46.56366" lon="-1.81075">
        <ele>-13.802</ele>
        <time>2012-05-27T12:58:38Z</time>
      </trkpt>
      <trkpt lat="46.56357" lon="-1.81053">
        <ele>-10.437</ele>
        <time>2012-05-27T12:58:42Z</time>
      </trkpt>
      <trkpt lat="46.56349" lon="-1.81022">
        <ele>-9.476</ele>
        <time>2012-05-27T12:58:47Z</time>
      </trkpt>
      <trkpt lat="46.56333" lon="-1.81">
        <ele>-9.957</ele>
        <time>2012-05-27T12:58:52Z</time>
      </trkpt>
      <trkpt lat="46.56329" lon="-1.81">
        <ele>-8.995</ele>
        <time>2012-05-27T12:58:53Z</time>
      </trkpt>
      <trkpt lat="46.56306" lon="-1.80994">
        <ele>-6.111</ele>
        <time>2012-05-27T12:58:59Z</time>
      </trkpt>
      <trkpt lat="46.56292" lon="-1.80994">
        <ele>-2.747</ele>
        <time>2012-05-27T12:59:04Z</time>
      </trkpt>
      <trkpt lat="46.56272" lon="-1.80992">
        <ele>1.099</ele>
        <time>2012-05-27T12:59:10Z</time>
      </trkpt>
      <trkpt lat="46.56244" lon="-1.80994">
        <ele>1.099</ele>
        <time>2012-05-27T12:59:17Z</time>
      </trkpt>
      <trkpt lat="46.56221" lon="-1.80994">
        <ele>1.099</ele>
        <time>2012-05-27T12:59:23Z</time>
      </trkpt>
      <trkpt lat="46.56201" lon="-1.80997">
        <ele>1.099</ele>
        <time>2012-05-27T12:59:28Z</time>
      </trkpt>
      <trkpt lat="46.5618" lon="-1.81011">
        <ele>-4.189</ele>
        <time>2012-05-27T12:59:34Z</time>
      </trkpt>
      <trkpt lat="46.56174" lon="-1.81026">
        <ele>-5.63</ele>
        <time>2012-05-27T12:59:38Z</time>
      </trkpt>
      <trkpt lat="46.56164" lon="-1.81051">
        <ele>-2.747</ele>
        <time>2012-05-27T12:59:43Z</time>
      </trkpt>
      <trkpt lat="46.56151" lon="-1.8107">
        <ele>-3.227</ele>
        <time>2012-05-27T12:59:48Z</time>
      </trkpt>
      <trkpt lat="46.56137" lon="-1.81078">
        <ele>-2.266</ele>
        <time>2012-05-27T12:59:52Z</time>
      </trkpt>
      <trkpt lat="46.5612" lon="-1.81071">
        <ele>-3.708</ele>
        <time>2012-05-27T12:59:57Z</time>
      </trkpt>
      <trkpt lat="46.56091" lon="-1.81042">
        <ele>-6.111</ele>
        <time>2012-05-27T13:00:06Z</time>
      </trkpt>
      <trkpt lat="46.56066" lon="-1.81015">
        <ele>-7.073</ele>
        <time>2012-05-27T13:00:14Z</time>
      </trkpt>
      <trkpt lat="46.56044" lon="-1.8099">
        <ele>-4.669</ele>
        <time>2012-05-27T13:00:22Z</time>
      </trkpt>
      <trkpt lat="46.56018" lon="-1.8097">
        <ele>-5.63</ele>
        <time>2012-05-27T13:00:30Z</time>
      </trkpt>
      <trkpt lat="46.55991" lon="-1.80953">
        <ele>-7.073</ele>
        <time>2012-05-27T13:00:38Z</time>
      </trkpt>
      <trkpt lat="46.55953" lon="-1.80932">
        <ele>-8.034</ele>
        <time>2012-05-27T13:00:49Z</time>
      </trkpt>
      <trkpt lat="46.55924" lon="-1.8092">
        <ele>-7.073</ele>
        <time>2012-05-27T13:00:57Z</time>
      </trkpt>
      <trkpt lat="46.55895" lon="-1.80901">
        <ele>-8.515</ele>
        <time>2012-05-27T13:01:05Z</time>
      </trkpt>
      <trkpt lat="46.55872" lon="-1.80881">
        <ele>-9.957</ele>
        <time>2012-05-27T13:01:12Z</time>
      </trkpt>
      <trkpt lat="46.55849" lon="-1.80873">
        <ele>-9.476</ele>
        <time>2012-05-27T13:01:18Z</time>
      </trkpt>
      <trkpt lat="46.5582" lon="-1.80874">
        <ele>-8.034</ele>
        <time>2012-05-27T13:01:26Z</time>
      </trkpt>
      <trkpt lat="46.55792" lon="-1.80872">
        <ele>-7.553</ele>
        <time>2012-05-27T13:01:34Z</time>
      </trkpt>
      <trkpt lat="46.55775" lon="-1.80877">
        <ele>-6.592</ele>
        <time>2012-05-27T13:01:39Z</time>
      </trkpt>
      <trkpt lat="46.55761" lon="-1.80901">
        <ele>-4.669</ele>
        <time>2012-05-27T13:01:46Z</time>
      </trkpt>
      <trkpt lat="46.55745" lon="-1.80924">
        <ele>-2.747</ele>
        <time>2012-05-27T13:01:53Z</time>
      </trkpt>
      <trkpt lat="46.55725" lon="-1.80956">
        <ele>-1.785</ele>
        <time>2012-05-27T13:02:01Z</time>
      </trkpt>
      <trkpt lat="46.55701" lon="-1.81">
        <ele>-1.305</ele>
        <time>2012-05-27T13:02:12Z</time>
      </trkpt>
      <trkpt lat="46.55685" lon="-1.8103">
        <ele>-1.305</ele>
        <time>2012-05-27T13:02:19Z</time>
      </trkpt>
      <trkpt lat="46.55662" lon="-1.8107">
        <ele>-1.305</ele>
        <time>2012-05-27T13:02:29Z</time>
      </trkpt>
      <trkpt lat="46.55647" lon="-1.81095">
        <ele>-1.785</ele>
        <time>2012-05-27T13:02:36Z</time>
      </trkpt>
      <trkpt lat="46.55648" lon="-1.81109">
        <ele>-1.785</ele>
        <time>2012-05-27T13:02:41Z</time>
      </trkpt>
      <trkpt lat="46.55648" lon="-1.81113">
        <ele>-1.305</ele>
        <time>2012-05-27T13:02:43Z</time>
      </trkpt>
      <trkpt lat="46.55648" lon="-1.81116">
        <ele>-1.305</ele>
        <time>2012-05-27T13:02:46Z</time>
      </trkpt>
      <trkpt lat="46.55649" lon="-1.81126">
        <ele>1.099</ele>
        <time>2012-05-27T13:03:04Z</time>
      </trkpt>
      <trkpt lat="46.5565" lon="-1.8113">
        <ele>1.579</ele>
        <time>2012-05-27T13:03:05Z</time>
      </trkpt>
      <trkpt lat="46.55648" lon="-1.81136">
        <ele>0.618</ele>
        <time>2012-05-27T13:03:09Z</time>
      </trkpt>
      <trkpt lat="46.55645" lon="-1.81144">
        <ele>-0.343</ele>
        <time>2012-05-27T13:03:14Z</time>
      </trkpt>
      <trkpt lat="46.55635" lon="-1.81166">
        <ele>0.137</ele>
        <time>2012-05-27T13:03:22Z</time>
      </trkpt>
      <trkpt lat="46.55633" lon="-1.81169">
        <ele>0.137</ele>
        <time>2012-05-27T13:03:26Z</time>
      </trkpt>
      <trkpt lat="46.55631" lon="-1.81171">
        <ele>0.137</ele>
        <time>2012-05-27T13:03:45Z</time>
      </trkpt>
      <trkpt lat="46.55625" lon="-1.81182">
        <ele>0.137</ele>
        <time>2012-05-27T13:03:49Z</time>
      </trkpt>
      <trkpt lat="46.55615" lon="-1.81202">
        <ele>0.618</ele>
        <time>2012-05-27T13:03:55Z</time>
      </trkpt>
      <trkpt lat="46.55603" lon="-1.81226">
        <ele>0.137</ele>
        <time>2012-05-27T13:04:01Z</time>
      </trkpt>
      <trkpt lat="46.55586" lon="-1.81256">
        <ele>-0.343</ele>
        <time>2012-05-27T13:04:08Z</time>
      </trkpt>
      <trkpt lat="46.55582" lon="-1.81265">
        <ele>-0.824</ele>
        <time>2012-05-27T13:04:10Z</time>
      </trkpt>
      <trkpt lat="46.55586" lon="-1.81282">
        <ele>-0.824</ele>
        <time>2012-05-27T13:04:14Z</time>
      </trkpt>
      <trkpt lat="46.55605" lon="-1.81311">
        <ele>-2.266</ele>
        <time>2012-05-27T13:04:22Z</time>
      </trkpt>
      <trkpt lat="46.5562" lon="-1.81331">
        <ele>-1.785</ele>
        <time>2012-05-27T13:04:28Z</time>
      </trkpt>
      <trkpt lat="46.55632" lon="-1.8135">
        <ele>-0.824</ele>
        <time>2012-05-27T13:04:33Z</time>
      </trkpt>
      <trkpt lat="46.55631" lon="-1.81371">
        <ele>2.06</ele>
        <time>2012-05-27T13:04:39Z</time>
      </trkpt>
      <trkpt lat="46.55625" lon="-1.81391">
        <ele>1.579</ele>
        <time>2012-05-27T13:04:44Z</time>
      </trkpt>
      <trkpt lat="46.55621" lon="-1.81408">
        <ele>3.983</ele>
        <time>2012-05-27T13:04:49Z</time>
      </trkpt>
      <trkpt lat="46.55615" lon="-1.81428">
        <ele>5.425</ele>
        <time>2012-05-27T13:04:54Z</time>
      </trkpt>
      <trkpt lat="46.55602" lon="-1.81455">
        <ele>4.463</ele>
        <time>2012-05-27T13:04:59Z</time>
      </trkpt>
      <trkpt lat="46.55595" lon="-1.81478">
        <ele>5.425</ele>
        <time>2012-05-27T13:05:03Z</time>
      </trkpt>
      <trkpt lat="46.55592" lon="-1.81501">
        <ele>3.502</ele>
        <time>2012-05-27T13:05:08Z</time>
      </trkpt>
      <trkpt lat="46.5558" lon="-1.81519">
        <ele>3.983</ele>
        <time>2012-05-27T13:05:13Z</time>
      </trkpt>
      <trkpt lat="46.55565" lon="-1.81545">
        <ele>4.944</ele>
        <time>2012-05-27T13:05:19Z</time>
      </trkpt>
      <trkpt lat="46.55553" lon="-1.81567">
        <ele>3.983</ele>
        <time>2012-05-27T13:05:24Z</time>
      </trkpt>
      <trkpt lat="46.55541" lon="-1.81579">
        <ele>3.021</ele>
        <time>2012-05-27T13:05:28Z</time>
      </trkpt>
      <trkpt lat="46.55521" lon="-1.81599">
        <ele>1.099</ele>
        <time>2012-05-27T13:05:33Z</time>
      </trkpt>
      <trkpt lat="46.55508" lon="-1.81616">
        <ele>0.137</ele>
        <time>2012-05-27T13:05:36Z</time>
      </trkpt>
      <trkpt lat="46.55486" lon="-1.81628">
        <ele>1.579</ele>
        <time>2012-05-27T13:05:41Z</time>
      </trkpt>
      <trkpt lat="46.55479" lon="-1.8162">
        <ele>0.137</ele>
        <time>2012-05-27T13:05:47Z</time>
      </trkpt>
      <trkpt lat="46.55473" lon="-1.81597">
        <ele>-1.305</ele>
        <time>2012-05-27T13:05:52Z</time>
      </trkpt>
      <trkpt lat="46.5547" lon="-1.81583">
        <ele>-3.227</ele>
        <time>2012-05-27T13:05:55Z</time>
      </trkpt>
      <trkpt lat="46.55454" lon="-1.81539">
        <ele>-5.15</ele>
        <time>2012-05-27T13:06:04Z</time>
      </trkpt>
      <trkpt lat="46.55436" lon="-1.81502">
        <ele>-6.592</ele>
        <time>2012-05-27T13:06:11Z</time>
      </trkpt>
      <trkpt lat="46.55433" lon="-1.81497">
        <ele>-6.592</ele>
        <time>2012-05-27T13:06:12Z</time>
      </trkpt>
      <trkpt lat="46.55405" lon="-1.81453">
        <ele>-8.515</ele>
        <time>2012-05-27T13:06:21Z</time>
      </trkpt>
      <trkpt lat="46.55369" lon="-1.81401">
        <ele>-8.034</ele>
        <time>2012-05-27T13:06:32Z</time>
      </trkpt>
      <trkpt lat="46.55341" lon="-1.81355">
        <ele>-8.034</ele>
        <time>2012-05-27T13:06:41Z</time>
      </trkpt>
      <trkpt lat="46.55333" lon="-1.81337">
        <ele>-8.034</ele>
        <time>2012-05-27T13:06:44Z</time>
      </trkpt>
      <trkpt lat="46.55318" lon="-1.81294">
        <ele>-7.553</ele>
        <time>2012-05-27T13:06:51Z</time>
      </trkpt>
      <trkpt lat="46.55307" lon="-1.81261">
        <ele>-6.592</ele>
        <time>2012-05-27T13:06:57Z</time>
      </trkpt>
      <trkpt lat="46.55294" lon="-1.81239">
        <ele>-6.111</ele>
        <time>2012-05-27T13:07:03Z</time>
      </trkpt>
      <trkpt lat="46.5529" lon="-1.81229">
        <ele>-5.15</ele>
        <time>2012-05-27T13:07:08Z</time>
      </trkpt>
      <trkpt lat="46.55288" lon="-1.81221">
        <ele>-3.708</ele>
        <time>2012-05-27T13:07:14Z</time>
      </trkpt>
      <trkpt lat="46.55285" lon="-1.8122">
        <ele>-3.227</ele>
        <time>2012-05-27T13:07:16Z</time>
      </trkpt>
      <trkpt lat="46.55277" lon="-1.81213">
        <ele>-2.747</ele>
        <time>2012-05-27T13:07:22Z</time>
      </trkpt>
      <trkpt lat="46.55265" lon="-1.81204">
        <ele>-3.708</ele>
        <time>2012-05-27T13:07:28Z</time>
      </trkpt>
      <trkpt lat="46.55248" lon="-1.81193">
        <ele>-3.708</ele>
        <time>2012-05-27T13:07:35Z</time>
      </trkpt>
      <trkpt lat="46.55237" lon="-1.81184">
        <ele>-4.189</ele>
        <time>2012-05-27T13:07:41Z</time>
      </trkpt>
      <trkpt lat="46.55222" lon="-1.81173">
        <ele>-3.708</ele>
        <time>2012-05-27T13:07:48Z</time>
      </trkpt>
      <trkpt lat="46.55199" lon="-1.81158">
        <ele>-7.073</ele>
        <time>2012-05-27T13:07:55Z</time>
      </trkpt>
      <trkpt lat="46.55183" lon="-1.81142">
        <ele>-8.515</ele>
        <time>2012-05-27T13:08:01Z</time>
      </trkpt>
      <trkpt lat="46.55172" lon="-1.81133">
        <ele>-8.995</ele>
        <time>2012-05-27T13:08:06Z</time>
      </trkpt>
      <trkpt lat="46.5516" lon="-1.81118">
        <ele>-8.034</ele>
        <time>2012-05-27T13:08:14Z</time>
      </trkpt>
      <trkpt lat="46.5515" lon="-1.81106">
        <ele>-8.034</ele>
        <time>2012-05-27T13:08:19Z</time>
      </trkpt>
      <trkpt lat="46.5513" lon="-1.8108">
        <ele>-8.034</ele>
        <time>2012-05-27T13:08:27Z</time>
      </trkpt>
      <trkpt lat="46.55103" lon="-1.81052">
        <ele>-8.515</ele>
        <time>2012-05-27T13:08:36Z</time>
      </trkpt>
      <trkpt lat="46.55077" lon="-1.81028">
        <ele>-8.515</ele>
        <time>2012-05-27T13:08:44Z</time>
      </trkpt>
      <trkpt lat="46.5506" lon="-1.81009">
        <ele>-8.034</ele>
        <time>2012-05-27T13:08:50Z</time>
      </trkpt>
      <trkpt lat="46.55036" lon="-1.80995">
        <ele>-8.034</ele>
        <time>2012-05-27T13:08:57Z</time>
      </trkpt>
      <trkpt lat="46.55022" lon="-1.81004">
        <ele>-7.553</ele>
        <time>2012-05-27T13:09:01Z</time>
      </trkpt>
      <trkpt lat="46.55005" lon="-1.81033">
        <ele>-6.592</ele>
        <time>2012-05-27T13:09:08Z</time>
      </trkpt>
      <trkpt lat="46.54989" lon="-1.81043">
        <ele>-6.111</ele>
        <time>2012-05-27T13:09:13Z</time>
      </trkpt>
      <trkpt lat="46.54972" lon="-1.81032">
        <ele>-5.63</ele>
        <time>2012-05-27T13:09:18Z</time>
      </trkpt>
      <trkpt lat="46.54952" lon="-1.81013">
        <ele>-4.189</ele>
        <time>2012-05-27T13:09:25Z</time>
      </trkpt>
      <trkpt lat="46.54936" lon="-1.80996">
        <ele>-3.708</ele>
        <time>2012-05-27T13:09:31Z</time>
      </trkpt>
      <trkpt lat="46.54914" lon="-1.80976">
        <ele>-2.747</ele>
        <time>2012-05-27T13:09:38Z</time>
      </trkpt>
      <trkpt lat="46.54911" lon="-1.80972">
        <ele>-2.747</ele>
        <time>2012-05-27T13:09:39Z</time>
      </trkpt>
      <trkpt lat="46.54884" lon="-1.80946">
        <ele>-2.266</ele>
        <time>2012-05-27T13:09:47Z</time>
      </trkpt>
      <trkpt lat="46.54853" lon="-1.80913">
        <ele>-2.266</ele>
        <time>2012-05-27T13:09:57Z</time>
      </trkpt>
      <trkpt lat="46.54838" lon="-1.80899">
        <ele>-2.747</ele>
        <time>2012-05-27T13:10:03Z</time>
      </trkpt>
      <trkpt lat="46.54828" lon="-1.8089">
        <ele>-2.747</ele>
        <time>2012-05-27T13:10:10Z</time>
      </trkpt>
      <trkpt lat="46.54824" lon="-1.80888">
        <ele>-3.227</ele>
        <time>2012-05-27T13:10:13Z</time>
      </trkpt>
      <trkpt lat="46.54815" lon="-1.809">
        <ele>-3.708</ele>
        <time>2012-05-27T13:10:17Z</time>
      </trkpt>
      <trkpt lat="46.54808" lon="-1.80918">
        <ele>-3.227</ele>
        <time>2012-05-27T13:10:20Z</time>
      </trkpt>
      <trkpt lat="46.54784" lon="-1.80972">
        <ele>-2.747</ele>
        <time>2012-05-27T13:10:28Z</time>
      </trkpt>
      <trkpt lat="46.54765" lon="-1.81007">
        <ele>-2.747</ele>
        <time>2012-05-27T13:10:35Z</time>
      </trkpt>
      <trkpt lat="46.54759" lon="-1.81015">
        <ele>-2.747</ele>
        <time>2012-05-27T13:10:37Z</time>
      </trkpt>
      <trkpt lat="46.54735" lon="-1.81069">
        <ele>-2.747</ele>
        <time>2012-05-27T13:10:47Z</time>
      </trkpt>
      <trkpt lat="46.54733" lon="-1.81075">
        <ele>-2.266</ele>
        <time>2012-05-27T13:10:48Z</time>
      </trkpt>
      <trkpt lat="46.54723" lon="-1.81102">
        <ele>-0.824</ele>
        <time>2012-05-27T13:10:54Z</time>
      </trkpt>
      <trkpt lat="46.54721" lon="-1.81107">
        <ele>-0.343</ele>
        <time>2012-05-27T13:10:56Z</time>
      </trkpt>
      <trkpt lat="46.5471" lon="-1.81104">
        <ele>-0.343</ele>
        <time>2012-05-27T13:11:01Z</time>
      </trkpt>
      <trkpt lat="46.54694" lon="-1.81095">
        <ele>-3.227</ele>
        <time>2012-05-27T13:11:08Z</time>
      </trkpt>
      <trkpt lat="46.54676" lon="-1.81093">
        <ele>-2.266</ele>
        <time>2012-05-27T13:11:14Z</time>
      </trkpt>
      <trkpt lat="46.54658" lon="-1.81091">
        <ele>-5.15</ele>
        <time>2012-05-27T13:11:20Z</time>
      </trkpt>
      <trkpt lat="46.54642" lon="-1.81087">
        <ele>-5.63</ele>
        <time>2012-05-27T13:11:25Z</time>
      </trkpt>
      <trkpt lat="46.54624" lon="-1.81073">
        <ele>-9.476</ele>
        <time>2012-05-27T13:11:30Z</time>
      </trkpt>
      <trkpt lat="46.54594" lon="-1.81046">
        <ele>-10.437</ele>
        <time>2012-05-27T13:11:38Z</time>
      </trkpt>
      <trkpt lat="46.54568" lon="-1.81025">
        <ele>-9.476</ele>
        <time>2012-05-27T13:11:45Z</time>
      </trkpt>
      <trkpt lat="46.54552" lon="-1.81008">
        <ele>-8.995</ele>
        <time>2012-05-27T13:11:51Z</time>
      </trkpt>
      <trkpt lat="46.54549" lon="-1.81005">
        <ele>-8.995</ele>
        <time>2012-05-27T13:11:52Z</time>
      </trkpt>
      <trkpt lat="46.54542" lon="-1.81006">
        <ele>-8.995</ele>
        <time>2012-05-27T13:11:56Z</time>
      </trkpt>
      <trkpt lat="46.54538" lon="-1.81012">
        <ele>-8.034</ele>
        <time>2012-05-27T13:11:59Z</time>
      </trkpt>
      <trkpt lat="46.54522" lon="-1.81029">
        <ele>-6.592</ele>
        <time>2012-05-27T13:12:05Z</time>
      </trkpt>
      <trkpt lat="46.54504" lon="-1.81028">
        <ele>-6.592</ele>
        <time>2012-05-27T13:12:10Z</time>
      </trkpt>
      <trkpt lat="46.54484" lon="-1.81024">
        <ele>-4.669</ele>
        <time>2012-05-27T13:12:16Z</time>
      </trkpt>
      <trkpt lat="46.54473" lon="-1.81023">
        <ele>-4.669</ele>
        <time>2012-05-27T13:12:19Z</time>
      </trkpt>
      <trkpt lat="46.5446" lon="-1.81023">
        <ele>-4.189</ele>
        <time>2012-05-27T13:12:22Z</time>
      </trkpt>
      <trkpt lat="46.54437" lon="-1.81032">
        <ele>-2.747</ele>
        <time>2012-05-27T13:12:28Z</time>
      </trkpt>
      <trkpt lat="46.54426" lon="-1.8104">
        <ele>-2.266</ele>
        <time>2012-05-27T13:12:33Z</time>
      </trkpt>
      <trkpt lat="46.54424" lon="-1.81041">
        <ele>-2.266</ele>
        <time>2012-05-27T13:12:37Z</time>
      </trkpt>
      <trkpt lat="46.54421" lon="-1.81034">
        <ele>-1.305</ele>
        <time>2012-05-27T13:12:52Z</time>
      </trkpt>
      <trkpt lat="46.54425" lon="-1.81022">
        <ele>-0.824</ele>
        <time>2012-05-27T13:12:58Z</time>
      </trkpt>
      <trkpt lat="46.54433" lon="-1.81015">
        <ele>0.137</ele>
        <time>2012-05-27T13:13:05Z</time>
      </trkpt>
      <trkpt lat="46.54442" lon="-1.8101">
        <ele>-0.343</ele>
        <time>2012-05-27T13:13:11Z</time>
      </trkpt>
      <trkpt lat="46.54444" lon="-1.81009">
        <ele>-0.343</ele>
        <time>2012-05-27T13:13:12Z</time>
      </trkpt>
      <trkpt lat="46.54442" lon="-1.80995">
        <ele>-0.343</ele>
        <time>2012-05-27T13:13:17Z</time>
      </trkpt>
      <trkpt lat="46.54441" lon="-1.80987">
        <ele>-1.305</ele>
        <time>2012-05-27T13:13:19Z</time>
      </trkpt>
      <trkpt lat="46.54445" lon="-1.80968">
        <ele>-5.15</ele>
        <time>2012-05-27T13:13:25Z</time>
      </trkpt>
      <trkpt lat="46.54451" lon="-1.80959">
        <ele>-5.63</ele>
        <time>2012-05-27T13:13:30Z</time>
      </trkpt>
      <trkpt lat="46.54451" lon="-1.80959">
        <ele>-5.63</ele>
        <time>2012-05-27T13:13:31Z</time>
      </trkpt>
      <trkpt lat="46.5445" lon="-1.8097">
        <ele>-0.824</ele>
        <time>2012-05-27T13:20:59Z</time>
      </trkpt>
      <trkpt lat="46.54447" lon="-1.80977">
        <ele>-0.824</ele>
        <time>2012-05-27T13:21:15Z</time>
      </trkpt>
      <trkpt lat="46.54443" lon="-1.80988">
        <ele>-1.305</ele>
        <time>2012-05-27T13:21:22Z</time>
      </trkpt>
      <trkpt lat="46.54444" lon="-1.81001">
        <ele>-1.785</ele>
        <time>2012-05-27T13:21:30Z</time>
      </trkpt>
      <trkpt lat="46.54444" lon="-1.81009">
        <ele>-0.824</ele>
        <time>2012-05-27T13:21:35Z</time>
      </trkpt>
      <trkpt lat="46.54441" lon="-1.81011">
        <ele>-0.824</ele>
        <time>2012-05-27T13:21:39Z</time>
      </trkpt>
      <trkpt lat="46.54429" lon="-1.8102">
        <ele>-4.669</ele>
        <time>2012-05-27T13:21:50Z</time>
      </trkpt>
      <trkpt lat="46.5442" lon="-1.81029">
        <ele>-4.669</ele>
        <time>2012-05-27T13:21:59Z</time>
      </trkpt>
      <trkpt lat="46.54418" lon="-1.81031">
        <ele>-5.15</ele>
        <time>2012-05-27T13:22:01Z</time>
      </trkpt>
      <trkpt lat="46.54414" lon="-1.81032">
        <ele>-5.15</ele>
        <time>2012-05-27T13:22:04Z</time>
      </trkpt>
      <trkpt lat="46.54409" lon="-1.81019">
        <ele>-4.669</ele>
        <time>2012-05-27T13:22:12Z</time>
      </trkpt>
      <trkpt lat="46.54407" lon="-1.81008">
        <ele>-5.63</ele>
        <time>2012-05-27T13:22:17Z</time>
      </trkpt>
      <trkpt lat="46.54407" lon="-1.81008">
        <ele>-5.63</ele>
        <time>2012-05-27T13:22:19Z</time>
      </trkpt>
      <trkpt lat="46.54402" lon="-1.80997">
        <ele>-6.111</ele>
        <time>2012-05-27T13:22:28Z</time>
      </trkpt>
      <trkpt lat="46.54392" lon="-1.80984">
        <ele>-6.592</ele>
        <time>2012-05-27T13:22:34Z</time>
      </trkpt>
      <trkpt lat="46.5438" lon="-1.80969">
        <ele>-6.592</ele>
        <time>2012-05-27T13:22:38Z</time>
      </trkpt>
      <trkpt lat="46.54371" lon="-1.80936">
        <ele>-5.63</ele>
        <time>2012-05-27T13:22:45Z</time>
      </trkpt>
      <trkpt lat="46.54366" lon="-1.8091">
        <ele>-6.111</ele>
        <time>2012-05-27T13:22:51Z</time>
      </trkpt>
      <trkpt lat="46.54366" lon="-1.8088">
        <ele>-5.63</ele>
        <time>2012-05-27T13:22:57Z</time>
      </trkpt>
      <trkpt lat="46.54364" lon="-1.80836">
        <ele>-5.63</ele>
        <time>2012-05-27T13:23:05Z</time>
      </trkpt>
      <trkpt lat="46.54356" lon="-1.80816">
        <ele>-6.592</ele>
        <time>2012-05-27T13:23:09Z</time>
      </trkpt>
      <trkpt lat="46.54347" lon="-1.80793">
        <ele>-6.592</ele>
        <time>2012-05-27T13:23:14Z</time>
      </trkpt>
      <trkpt lat="46.54346" lon="-1.80742">
        <ele>-6.111</ele>
        <time>2012-05-27T13:23:23Z</time>
      </trkpt>
      <trkpt lat="46.54349" lon="-1.80705">
        <ele>-5.63</ele>
        <time>2012-05-27T13:23:30Z</time>
      </trkpt>
      <trkpt lat="46.54361" lon="-1.80675">
        <ele>-5.15</ele>
        <time>2012-05-27T13:23:36Z</time>
      </trkpt>
      <trkpt lat="46.54365" lon="-1.80654">
        <ele>-5.15</ele>
        <time>2012-05-27T13:23:40Z</time>
      </trkpt>
      <trkpt lat="46.54362" lon="-1.80613">
        <ele>-4.669</ele>
        <time>2012-05-27T13:23:47Z</time>
      </trkpt>
      <trkpt lat="46.54357" lon="-1.80593">
        <ele>-5.15</ele>
        <time>2012-05-27T13:23:52Z</time>
      </trkpt>
      <trkpt lat="46.54347" lon="-1.80567">
        <ele>-6.592</ele>
        <time>2012-05-27T13:23:59Z</time>
      </trkpt>
      <trkpt lat="46.5434" lon="-1.80534">
        <ele>-5.15</ele>
        <time>2012-05-27T13:24:06Z</time>
      </trkpt>
      <trkpt lat="46.54337" lon="-1.80502">
        <ele>-5.15</ele>
        <time>2012-05-27T13:24:13Z</time>
      </trkpt>
      <trkpt lat="46.54333" lon="-1.80469">
        <ele>-5.15</ele>
        <time>2012-05-27T13:24:20Z</time>
      </trkpt>
      <trkpt lat="46.54322" lon="-1.80442">
        <ele>-6.592</ele>
        <time>2012-05-27T13:24:28Z</time>
      </trkpt>
      <trkpt lat="46.54317" lon="-1.80415">
        <ele>-6.592</ele>
        <time>2012-05-27T13:24:34Z</time>
      </trkpt>
      <trkpt lat="46.54315" lon="-1.8039">
        <ele>-6.592</ele>
        <time>2012-05-27T13:24:39Z</time>
      </trkpt>
      <trkpt lat="46.5431" lon="-1.80365">
        <ele>-5.63</ele>
        <time>2012-05-27T13:24:46Z</time>
      </trkpt>
      <trkpt lat="46.54303" lon="-1.80343">
        <ele>-6.592</ele>
        <time>2012-05-27T13:24:52Z</time>
      </trkpt>
      <trkpt lat="46.54294" lon="-1.80316">
        <ele>-7.553</ele>
        <time>2012-05-27T13:24:59Z</time>
      </trkpt>
      <trkpt lat="46.54293" lon="-1.80289">
        <ele>-6.592</ele>
        <time>2012-05-27T13:25:05Z</time>
      </trkpt>
      <trkpt lat="46.543" lon="-1.80264">
        <ele>-6.111</ele>
        <time>2012-05-27T13:25:11Z</time>
      </trkpt>
      <trkpt lat="46.54296" lon="-1.80245">
        <ele>-6.111</ele>
        <time>2012-05-27T13:25:16Z</time>
      </trkpt>
      <trkpt lat="46.54292" lon="-1.80234">
        <ele>-6.111</ele>
        <time>2012-05-27T13:25:19Z</time>
      </trkpt>
      <trkpt lat="46.54299" lon="-1.8022">
        <ele>-5.63</ele>
        <time>2012-05-27T13:25:24Z</time>
      </trkpt>
      <trkpt lat="46.54303" lon="-1.80203">
        <ele>-6.111</ele>
        <time>2012-05-27T13:25:29Z</time>
      </trkpt>
      <trkpt lat="46.54298" lon="-1.80188">
        <ele>-5.63</ele>
        <time>2012-05-27T13:25:34Z</time>
      </trkpt>
      <trkpt lat="46.54281" lon="-1.80166">
        <ele>-6.592</ele>
        <time>2012-05-27T13:25:41Z</time>
      </trkpt>
      <trkpt lat="46.54267" lon="-1.80158">
        <ele>-6.592</ele>
        <time>2012-05-27T13:25:46Z</time>
      </trkpt>
      <trkpt lat="46.54244" lon="-1.80172">
        <ele>-6.111</ele>
        <time>2012-05-27T13:25:53Z</time>
      </trkpt>
      <trkpt lat="46.54207" lon="-1.80198">
        <ele>-5.15</ele>
        <time>2012-05-27T13:26:03Z</time>
      </trkpt>
      <trkpt lat="46.54194" lon="-1.80203">
        <ele>-4.669</ele>
        <time>2012-05-27T13:26:06Z</time>
      </trkpt>
      <trkpt lat="46.54152" lon="-1.80207">
        <ele>-4.189</ele>
        <time>2012-05-27T13:26:16Z</time>
      </trkpt>
      <trkpt lat="46.54119" lon="-1.80199">
        <ele>-4.189</ele>
        <time>2012-05-27T13:26:23Z</time>
      </trkpt>
      <trkpt lat="46.54076" lon="-1.8019">
        <ele>-3.708</ele>
        <time>2012-05-27T13:26:32Z</time>
      </trkpt>
      <trkpt lat="46.54034" lon="-1.80187">
        <ele>-3.708</ele>
        <time>2012-05-27T13:26:41Z</time>
      </trkpt>
      <trkpt lat="46.5403" lon="-1.80188">
        <ele>-3.708</ele>
        <time>2012-05-27T13:26:42Z</time>
      </trkpt>
      <trkpt lat="46.54017" lon="-1.80207">
        <ele>-4.669</ele>
        <time>2012-05-27T13:26:46Z</time>
      </trkpt>
      <trkpt lat="46.54" lon="-1.80234">
        <ele>-4.669</ele>
        <time>2012-05-27T13:26:52Z</time>
      </trkpt>
      <trkpt lat="46.53969" lon="-1.80274">
        <ele>-5.15</ele>
        <time>2012-05-27T13:27:01Z</time>
      </trkpt>
      <trkpt lat="46.53939" lon="-1.80308">
        <ele>-5.15</ele>
        <time>2012-05-27T13:27:09Z</time>
      </trkpt>
      <trkpt lat="46.5391" lon="-1.80333">
        <ele>-5.15</ele>
        <time>2012-05-27T13:27:17Z</time>
      </trkpt>
      <trkpt lat="46.53884" lon="-1.80354">
        <ele>-5.63</ele>
        <time>2012-05-27T13:27:24Z</time>
      </trkpt>
      <trkpt lat="46.53855" lon="-1.80374">
        <ele>-5.15</ele>
        <time>2012-05-27T13:27:31Z</time>
      </trkpt>
      <trkpt lat="46.53848" lon="-1.80378">
        <ele>-5.15</ele>
        <time>2012-05-27T13:27:33Z</time>
      </trkpt>
      <trkpt lat="46.53816" lon="-1.80399">
        <ele>-5.15</ele>
        <time>2012-05-27T13:27:42Z</time>
      </trkpt>
      <trkpt lat="46.53785" lon="-1.80417">
        <ele>-4.669</ele>
        <time>2012-05-27T13:27:51Z</time>
      </trkpt>
      <trkpt lat="46.5375" lon="-1.80433">
        <ele>-4.669</ele>
        <time>2012-05-27T13:28:01Z</time>
      </trkpt>
      <trkpt lat="46.53733" lon="-1.8044">
        <ele>-4.669</ele>
        <time>2012-05-27T13:28:07Z</time>
      </trkpt>
      <trkpt lat="46.53722" lon="-1.80445">
        <ele>-4.189</ele>
        <time>2012-05-27T13:28:13Z</time>
      </trkpt>
      <trkpt lat="46.53709" lon="-1.80449">
        <ele>-3.708</ele>
        <time>2012-05-27T13:28:18Z</time>
      </trkpt>
      <trkpt lat="46.53687" lon="-1.80459">
        <ele>-3.708</ele>
        <time>2012-05-27T13:28:24Z</time>
      </trkpt>
      <trkpt lat="46.53657" lon="-1.80474">
        <ele>-4.189</ele>
        <time>2012-05-27T13:28:32Z</time>
      </trkpt>
      <trkpt lat="46.53645" lon="-1.80481">
        <ele>-4.669</ele>
        <time>2012-05-27T13:28:35Z</time>
      </trkpt>
      <trkpt lat="46.53608" lon="-1.80498">
        <ele>-3.708</ele>
        <time>2012-05-27T13:28:44Z</time>
      </trkpt>
      <trkpt lat="46.53585" lon="-1.80518">
        <ele>-3.708</ele>
        <time>2012-05-27T13:28:51Z</time>
      </trkpt>
      <trkpt lat="46.53562" lon="-1.80538">
        <ele>-3.227</ele>
        <time>2012-05-27T13:28:58Z</time>
      </trkpt>
      <trkpt lat="46.53537" lon="-1.80558">
        <ele>-3.708</ele>
        <time>2012-05-27T13:29:05Z</time>
      </trkpt>
      <trkpt lat="46.535" lon="-1.80588">
        <ele>-3.227</ele>
        <time>2012-05-27T13:29:15Z</time>
      </trkpt>
      <trkpt lat="46.53467" lon="-1.80611">
        <ele>-3.708</ele>
        <time>2012-05-27T13:29:24Z</time>
      </trkpt>
      <trkpt lat="46.53447" lon="-1.80623">
        <ele>-3.708</ele>
        <time>2012-05-27T13:29:30Z</time>
      </trkpt>
      <trkpt lat="46.53435" lon="-1.80631">
        <ele>-2.747</ele>
        <time>2012-05-27T13:29:36Z</time>
      </trkpt>
      <trkpt lat="46.53433" lon="-1.80632">
        <ele>-2.747</ele>
        <time>2012-05-27T13:29:37Z</time>
      </trkpt>
      <trkpt lat="46.53428" lon="-1.80622">
        <ele>-1.785</ele>
        <time>2012-05-27T13:29:42Z</time>
      </trkpt>
      <trkpt lat="46.53424" lon="-1.80615">
        <ele>-1.305</ele>
        <time>2012-05-27T13:29:45Z</time>
      </trkpt>
      <trkpt lat="46.5342" lon="-1.80601">
        <ele>-2.266</ele>
        <time>2012-05-27T13:29:51Z</time>
      </trkpt>
      <trkpt lat="46.53413" lon="-1.80584">
        <ele>-3.227</ele>
        <time>2012-05-27T13:29:55Z</time>
      </trkpt>
      <trkpt lat="46.53404" lon="-1.80543">
        <ele>-3.708</ele>
        <time>2012-05-27T13:30:03Z</time>
      </trkpt>
      <trkpt lat="46.53398" lon="-1.80509">
        <ele>-2.747</ele>
        <time>2012-05-27T13:30:11Z</time>
      </trkpt>
      <trkpt lat="46.53392" lon="-1.80493">
        <ele>-3.227</ele>
        <time>2012-05-27T13:30:17Z</time>
      </trkpt>
      <trkpt lat="46.53382" lon="-1.80467">
        <ele>-3.227</ele>
        <time>2012-05-27T13:30:25Z</time>
      </trkpt>
      <trkpt lat="46.53374" lon="-1.80444">
        <ele>-2.747</ele>
        <time>2012-05-27T13:30:33Z</time>
      </trkpt>
      <trkpt lat="46.5336" lon="-1.80421">
        <ele>-3.708</ele>
        <time>2012-05-27T13:30:42Z</time>
      </trkpt>
      <trkpt lat="46.53344" lon="-1.80405">
        <ele>-3.708</ele>
        <time>2012-05-27T13:30:51Z</time>
      </trkpt>
      <trkpt lat="46.53329" lon="-1.80391">
        <ele>-3.708</ele>
        <time>2012-05-27T13:30:59Z</time>
      </trkpt>
      <trkpt lat="46.53312" lon="-1.80374">
        <ele>-3.708</ele>
        <time>2012-05-27T13:31:06Z</time>
      </trkpt>
      <trkpt lat="46.53292" lon="-1.8035">
        <ele>-4.189</ele>
        <time>2012-05-27T13:31:14Z</time>
      </trkpt>
      <trkpt lat="46.53269" lon="-1.80323">
        <ele>-4.669</ele>
        <time>2012-05-27T13:31:21Z</time>
      </trkpt>
      <trkpt lat="46.53267" lon="-1.80318">
        <ele>-4.669</ele>
        <time>2012-05-27T13:31:22Z</time>
      </trkpt>
      <trkpt lat="46.5326" lon="-1.80302">
        <ele>-5.15</ele>
        <time>2012-05-27T13:31:25Z</time>
      </trkpt>
      <trkpt lat="46.5325" lon="-1.80254">
        <ele>-5.15</ele>
        <time>2012-05-27T13:31:33Z</time>
      </trkpt>
      <trkpt lat="46.53248" lon="-1.80198">
        <ele>-4.189</ele>
        <time>2012-05-27T13:31:42Z</time>
      </trkpt>
      <trkpt lat="46.53247" lon="-1.80147">
        <ele>-3.708</ele>
        <time>2012-05-27T13:31:50Z</time>
      </trkpt>
      <trkpt lat="46.53254" lon="-1.80096">
        <ele>-3.227</ele>
        <time>2012-05-27T13:31:58Z</time>
      </trkpt>
      <trkpt lat="46.5326" lon="-1.80025">
        <ele>-2.266</ele>
        <time>2012-05-27T13:32:09Z</time>
      </trkpt>
      <trkpt lat="46.53273" lon="-1.79961">
        <ele>-2.266</ele>
        <time>2012-05-27T13:32:19Z</time>
      </trkpt>
      <trkpt lat="46.53285" lon="-1.79943">
        <ele>-1.785</ele>
        <time>2012-05-27T13:32:23Z</time>
      </trkpt>
      <trkpt lat="46.53294" lon="-1.79943">
        <ele>-1.785</ele>
        <time>2012-05-27T13:32:25Z</time>
      </trkpt>
      <trkpt lat="46.53318" lon="-1.79935">
        <ele>-2.266</ele>
        <time>2012-05-27T13:32:31Z</time>
      </trkpt>
      <trkpt lat="46.53321" lon="-1.7993">
        <ele>-2.266</ele>
        <time>2012-05-27T13:32:32Z</time>
      </trkpt>
      <trkpt lat="46.53332" lon="-1.79904">
        <ele>-3.227</ele>
        <time>2012-05-27T13:32:37Z</time>
      </trkpt>
      <trkpt lat="46.53334" lon="-1.79887">
        <ele>-3.708</ele>
        <time>2012-05-27T13:32:40Z</time>
      </trkpt>
      <trkpt lat="46.53329" lon="-1.79864">
        <ele>-4.189</ele>
        <time>2012-05-27T13:32:44Z</time>
      </trkpt>
      <trkpt lat="46.5333" lon="-1.79837">
        <ele>-4.189</ele>
        <time>2012-05-27T13:32:49Z</time>
      </trkpt>
      <trkpt lat="46.53338" lon="-1.79801">
        <ele>-4.669</ele>
        <time>2012-05-27T13:32:56Z</time>
      </trkpt>
      <trkpt lat="46.53347" lon="-1.79769">
        <ele>-4.189</ele>
        <time>2012-05-27T13:33:03Z</time>
      </trkpt>
      <trkpt lat="46.53353" lon="-1.79731">
        <ele>-3.708</ele>
        <time>2012-05-27T13:33:11Z</time>
      </trkpt>
      <trkpt lat="46.53356" lon="-1.79709">
        <ele>-3.708</ele>
        <time>2012-05-27T13:33:15Z</time>
      </trkpt>
      <trkpt lat="46.53357" lon="-1.79691">
        <ele>-3.227</ele>
        <time>2012-05-27T13:33:18Z</time>
      </trkpt>
      <trkpt lat="46.53358" lon="-1.79665">
        <ele>-3.227</ele>
        <time>2012-05-27T13:33:22Z</time>
      </trkpt>
      <trkpt lat="46.53354" lon="-1.79592">
        <ele>-2.266</ele>
        <time>2012-05-27T13:33:34Z</time>
      </trkpt>
      <trkpt lat="46.53354" lon="-1.79586">
        <ele>-2.266</ele>
        <time>2012-05-27T13:33:35Z</time>
      </trkpt>
      <trkpt lat="46.53347" lon="-1.79545">
        <ele>-2.266</ele>
        <time>2012-05-27T13:33:43Z</time>
      </trkpt>
      <trkpt lat="46.53338" lon="-1.79523">
        <ele>-2.266</ele>
        <time>2012-05-27T13:33:49Z</time>
      </trkpt>
      <trkpt lat="46.53331" lon="-1.79493">
        <ele>-2.747</ele>
        <time>2012-05-27T13:33:55Z</time>
      </trkpt>
      <trkpt lat="46.53327" lon="-1.79459">
        <ele>-2.266</ele>
        <time>2012-05-27T13:34:01Z</time>
      </trkpt>
      <trkpt lat="46.53326" lon="-1.79421">
        <ele>-2.747</ele>
        <time>2012-05-27T13:34:06Z</time>
      </trkpt>
      <trkpt lat="46.53324" lon="-1.7937">
        <ele>-2.266</ele>
        <time>2012-05-27T13:34:13Z</time>
      </trkpt>
      <trkpt lat="46.53313" lon="-1.79355">
        <ele>-2.266</ele>
        <time>2012-05-27T13:34:17Z</time>
      </trkpt>
      <trkpt lat="46.53305" lon="-1.79356">
        <ele>-2.747</ele>
        <time>2012-05-27T13:34:19Z</time>
      </trkpt>
      <trkpt lat="46.53267" lon="-1.79355">
        <ele>-3.227</ele>
        <time>2012-05-27T13:34:27Z</time>
      </trkpt>
      <trkpt lat="46.53245" lon="-1.79353">
        <ele>-2.747</ele>
        <time>2012-05-27T13:34:33Z</time>
      </trkpt>
      <trkpt lat="46.5323" lon="-1.7935">
        <ele>-2.747</ele>
        <time>2012-05-27T13:34:39Z</time>
      </trkpt>
      <trkpt lat="46.5322" lon="-1.79346">
        <ele>-2.266</ele>
        <time>2012-05-27T13:34:44Z</time>
      </trkpt>
      <trkpt lat="46.53203" lon="-1.79339">
        <ele>-1.785</ele>
        <time>2012-05-27T13:34:50Z</time>
      </trkpt>
      <trkpt lat="46.53185" lon="-1.7933">
        <ele>-2.266</ele>
        <time>2012-05-27T13:34:56Z</time>
      </trkpt>
      <trkpt lat="46.53158" lon="-1.79316">
        <ele>-2.747</ele>
        <time>2012-05-27T13:35:04Z</time>
      </trkpt>
      <trkpt lat="46.53131" lon="-1.79301">
        <ele>-2.747</ele>
        <time>2012-05-27T13:35:12Z</time>
      </trkpt>
      <trkpt lat="46.531" lon="-1.79287">
        <ele>-2.266</ele>
        <time>2012-05-27T13:35:21Z</time>
      </trkpt>
      <trkpt lat="46.53069" lon="-1.79284">
        <ele>-2.266</ele>
        <time>2012-05-27T13:35:30Z</time>
      </trkpt>
      <trkpt lat="46.53045" lon="-1.7929">
        <ele>-1.785</ele>
        <time>2012-05-27T13:35:37Z</time>
      </trkpt>
      <trkpt lat="46.53018" lon="-1.79302">
        <ele>0.137</ele>
        <time>2012-05-27T13:35:45Z</time>
      </trkpt>
      <trkpt lat="46.53003" lon="-1.79307">
        <ele>1.099</ele>
        <time>2012-05-27T13:35:49Z</time>
      </trkpt>
      <trkpt lat="46.52995" lon="-1.7929">
        <ele>1.579</ele>
        <time>2012-05-27T13:35:53Z</time>
      </trkpt>
      <trkpt lat="46.52995" lon="-1.79285">
        <ele>1.579</ele>
        <time>2012-05-27T13:35:54Z</time>
      </trkpt>
      <trkpt lat="46.52999" lon="-1.79233">
        <ele>3.021</ele>
        <time>2012-05-27T13:36:03Z</time>
      </trkpt>
      <trkpt lat="46.53" lon="-1.79227">
        <ele>3.021</ele>
        <time>2012-05-27T13:36:04Z</time>
      </trkpt>
      <trkpt lat="46.52995" lon="-1.79174">
        <ele>3.021</ele>
        <time>2012-05-27T13:36:13Z</time>
      </trkpt>
      <trkpt lat="46.52984" lon="-1.79113">
        <ele>3.021</ele>
        <time>2012-05-27T13:36:24Z</time>
      </trkpt>
      <trkpt lat="46.52979" lon="-1.79082">
        <ele>3.502</ele>
        <time>2012-05-27T13:36:30Z</time>
      </trkpt>
      <trkpt lat="46.52975" lon="-1.7906">
        <ele>3.983</ele>
        <time>2012-05-27T13:36:36Z</time>
      </trkpt>
      <trkpt lat="46.52969" lon="-1.79019">
        <ele>3.983</ele>
        <time>2012-05-27T13:36:47Z</time>
      </trkpt>
      <trkpt lat="46.52963" lon="-1.78982">
        <ele>3.021</ele>
        <time>2012-05-27T13:36:56Z</time>
      </trkpt>
      <trkpt lat="46.52955" lon="-1.78953">
        <ele>3.021</ele>
        <time>2012-05-27T13:37:04Z</time>
      </trkpt>
      <trkpt lat="46.52947" lon="-1.78927">
        <ele>3.983</ele>
        <time>2012-05-27T13:37:11Z</time>
      </trkpt>
      <trkpt lat="46.52939" lon="-1.78892">
        <ele>5.905</ele>
        <time>2012-05-27T13:37:19Z</time>
      </trkpt>
      <trkpt lat="46.52932" lon="-1.7885">
        <ele>8.789</ele>
        <time>2012-05-27T13:37:28Z</time>
      </trkpt>
      <trkpt lat="46.5293" lon="-1.78829">
        <ele>10.231</ele>
        <time>2012-05-27T13:37:33Z</time>
      </trkpt>
      <trkpt lat="46.52933" lon="-1.7879">
        <ele>10.712</ele>
        <time>2012-05-27T13:37:41Z</time>
      </trkpt>
      <trkpt lat="46.5294" lon="-1.7876">
        <ele>10.231</ele>
        <time>2012-05-27T13:37:47Z</time>
      </trkpt>
      <trkpt lat="46.52935" lon="-1.78727">
        <ele>9.751</ele>
        <time>2012-05-27T13:37:54Z</time>
      </trkpt>
      <trkpt lat="46.52931" lon="-1.78699">
        <ele>9.751</ele>
        <time>2012-05-27T13:37:59Z</time>
      </trkpt>
      <trkpt lat="46.52928" lon="-1.78676">
        <ele>10.231</ele>
        <time>2012-05-27T13:38:03Z</time>
      </trkpt>
      <trkpt lat="46.52928" lon="-1.78652">
        <ele>10.231</ele>
        <time>2012-05-27T13:38:07Z</time>
      </trkpt>
      <trkpt lat="46.52935" lon="-1.78628">
        <ele>10.712</ele>
        <time>2012-05-27T13:38:11Z</time>
      </trkpt>
      <trkpt lat="46.52948" lon="-1.786">
        <ele>11.193</ele>
        <time>2012-05-27T13:38:16Z</time>
      </trkpt>
      <trkpt lat="46.5297" lon="-1.78546">
        <ele>10.712</ele>
        <time>2012-05-27T13:38:25Z</time>
      </trkpt>
      <trkpt lat="46.52985" lon="-1.78513">
        <ele>10.712</ele>
        <time>2012-05-27T13:38:31Z</time>
      </trkpt>
      <trkpt lat="46.52991" lon="-1.78504">
        <ele>10.712</ele>
        <time>2012-05-27T13:38:33Z</time>
      </trkpt>
      <trkpt lat="46.52996" lon="-1.78482">
        <ele>10.712</ele>
        <time>2012-05-27T13:38:37Z</time>
      </trkpt>
      <trkpt lat="46.52984" lon="-1.78428">
        <ele>11.193</ele>
        <time>2012-05-27T13:38:47Z</time>
      </trkpt>
      <trkpt lat="46.52974" lon="-1.78392">
        <ele>12.154</ele>
        <time>2012-05-27T13:38:55Z</time>
      </trkpt>
      <trkpt lat="46.5297" lon="-1.7837">
        <ele>12.154</ele>
        <time>2012-05-27T13:39:01Z</time>
      </trkpt>
      <trkpt lat="46.52963" lon="-1.78348">
        <ele>12.634</ele>
        <time>2012-05-27T13:39:07Z</time>
      </trkpt>
      <trkpt lat="46.52968" lon="-1.7834">
        <ele>13.596</ele>
        <time>2012-05-27T13:39:11Z</time>
      </trkpt>
      <trkpt lat="46.5297" lon="-1.78339">
        <ele>13.596</ele>
        <time>2012-05-27T13:39:12Z</time>
      </trkpt>
      <trkpt lat="46.52986" lon="-1.78341">
        <ele>14.557</ele>
        <time>2012-05-27T13:39:19Z</time>
      </trkpt>
      <trkpt lat="46.53003" lon="-1.78343">
        <ele>15.038</ele>
        <time>2012-05-27T13:39:25Z</time>
      </trkpt>
      <trkpt lat="46.53033" lon="-1.78343">
        <ele>15.038</ele>
        <time>2012-05-27T13:39:32Z</time>
      </trkpt>
      <trkpt lat="46.53051" lon="-1.78343">
        <ele>15.999</ele>
        <time>2012-05-27T13:39:36Z</time>
      </trkpt>
      <trkpt lat="46.53064" lon="-1.78343">
        <ele>16.48</ele>
        <time>2012-05-27T13:39:39Z</time>
      </trkpt>
      <trkpt lat="46.53085" lon="-1.78328">
        <ele>12.634</ele>
        <time>2012-05-27T13:39:44Z</time>
      </trkpt>
      <trkpt lat="46.53094" lon="-1.78324">
        <ele>11.673</ele>
        <time>2012-05-27T13:39:46Z</time>
      </trkpt>
      <trkpt lat="46.53122" lon="-1.78316">
        <ele>9.751</ele>
        <time>2012-05-27T13:39:53Z</time>
      </trkpt>
      <trkpt lat="46.53138" lon="-1.78296">
        <ele>8.309</ele>
        <time>2012-05-27T13:39:59Z</time>
      </trkpt>
      <trkpt lat="46.53154" lon="-1.78259">
        <ele>6.866</ele>
        <time>2012-05-27T13:40:07Z</time>
      </trkpt>
      <trkpt lat="46.53162" lon="-1.78218">
        <ele>6.386</ele>
        <time>2012-05-27T13:40:15Z</time>
      </trkpt>
      <trkpt lat="46.53173" lon="-1.7818">
        <ele>5.905</ele>
        <time>2012-05-27T13:40:23Z</time>
      </trkpt>
      <trkpt lat="46.53184" lon="-1.7815">
        <ele>5.425</ele>
        <time>2012-05-27T13:40:30Z</time>
      </trkpt>
      <trkpt lat="46.53202" lon="-1.781">
        <ele>5.905</ele>
        <time>2012-05-27T13:40:41Z</time>
      </trkpt>
      <trkpt lat="46.5321" lon="-1.78079">
        <ele>5.905</ele>
        <time>2012-05-27T13:40:46Z</time>
      </trkpt>
      <trkpt lat="46.53217" lon="-1.78042">
        <ele>5.425</ele>
        <time>2012-05-27T13:40:53Z</time>
      </trkpt>
      <trkpt lat="46.53219" lon="-1.78016">
        <ele>4.944</ele>
        <time>2012-05-27T13:40:58Z</time>
      </trkpt>
      <trkpt lat="46.53228" lon="-1.77982">
        <ele>4.944</ele>
        <time>2012-05-27T13:41:05Z</time>
      </trkpt>
      <trkpt lat="46.53238" lon="-1.77948">
        <ele>5.905</ele>
        <time>2012-05-27T13:41:12Z</time>
      </trkpt>
      <trkpt lat="46.53249" lon="-1.77935">
        <ele>7.347</ele>
        <time>2012-05-27T13:41:16Z</time>
      </trkpt>
      <trkpt lat="46.53282" lon="-1.77924">
        <ele>6.866</ele>
        <time>2012-05-27T13:41:24Z</time>
      </trkpt>
      <trkpt lat="46.53308" lon="-1.77918">
        <ele>5.905</ele>
        <time>2012-05-27T13:41:30Z</time>
      </trkpt>
      <trkpt lat="46.53341" lon="-1.77905">
        <ele>4.463</ele>
        <time>2012-05-27T13:41:38Z</time>
      </trkpt>
      <trkpt lat="46.53377" lon="-1.77891">
        <ele>4.944</ele>
        <time>2012-05-27T13:41:47Z</time>
      </trkpt>
      <trkpt lat="46.53394" lon="-1.77874">
        <ele>3.983</ele>
        <time>2012-05-27T13:41:53Z</time>
      </trkpt>
      <trkpt lat="46.5341" lon="-1.77864">
        <ele>3.983</ele>
        <time>2012-05-27T13:41:58Z</time>
      </trkpt>
      <trkpt lat="46.53425" lon="-1.77852">
        <ele>4.944</ele>
        <time>2012-05-27T13:42:05Z</time>
      </trkpt>
      <trkpt lat="46.53437" lon="-1.77844">
        <ele>5.905</ele>
        <time>2012-05-27T13:42:10Z</time>
      </trkpt>
      <trkpt lat="46.53447" lon="-1.77834">
        <ele>5.905</ele>
        <time>2012-05-27T13:42:15Z</time>
      </trkpt>
      <trkpt lat="46.53464" lon="-1.77819">
        <ele>6.386</ele>
        <time>2012-05-27T13:42:22Z</time>
      </trkpt>
      <trkpt lat="46.53491" lon="-1.77797">
        <ele>6.866</ele>
        <time>2012-05-27T13:42:32Z</time>
      </trkpt>
      <trkpt lat="46.53507" lon="-1.77781">
        <ele>6.866</ele>
        <time>2012-05-27T13:42:39Z</time>
      </trkpt>
      <trkpt lat="46.53526" lon="-1.77767">
        <ele>7.347</ele>
        <time>2012-05-27T13:42:46Z</time>
      </trkpt>
      <trkpt lat="46.53542" lon="-1.77758">
        <ele>8.309</ele>
        <time>2012-05-27T13:42:52Z</time>
      </trkpt>
      <trkpt lat="46.5356" lon="-1.77744">
        <ele>8.789</ele>
        <time>2012-05-27T13:42:59Z</time>
      </trkpt>
      <trkpt lat="46.53578" lon="-1.77731">
        <ele>9.751</ele>
        <time>2012-05-27T13:43:06Z</time>
      </trkpt>
      <trkpt lat="46.53601" lon="-1.77712">
        <ele>10.712</ele>
        <time>2012-05-27T13:43:15Z</time>
      </trkpt>
      <trkpt lat="46.53614" lon="-1.77695">
        <ele>10.712</ele>
        <time>2012-05-27T13:43:21Z</time>
      </trkpt>
      <trkpt lat="46.53616" lon="-1.77691">
        <ele>10.712</ele>
        <time>2012-05-27T13:43:22Z</time>
      </trkpt>
      <trkpt lat="46.53618" lon="-1.7765">
        <ele>12.154</ele>
        <time>2012-05-27T13:43:28Z</time>
      </trkpt>
      <trkpt lat="46.53623" lon="-1.77618">
        <ele>15.038</ele>
        <time>2012-05-27T13:43:33Z</time>
      </trkpt>
      <trkpt lat="46.53631" lon="-1.77585">
        <ele>16.48</ele>
        <time>2012-05-27T13:43:38Z</time>
      </trkpt>
      <trkpt lat="46.53643" lon="-1.77561">
        <ele>17.441</ele>
        <time>2012-05-27T13:43:43Z</time>
      </trkpt>
      <trkpt lat="46.53654" lon="-1.77548">
        <ele>18.402</ele>
        <time>2012-05-27T13:43:49Z</time>
      </trkpt>
      <trkpt lat="46.53655" lon="-1.77549">
        <ele>18.883</ele>
        <time>2012-05-27T13:43:50Z</time>
      </trkpt>
      <trkpt lat="46.53662" lon="-1.77559">
        <ele>18.883</ele>
        <time>2012-05-27T13:43:56Z</time>
      </trkpt>
      <trkpt lat="46.53671" lon="-1.77573">
        <ele>18.883</ele>
        <time>2012-05-27T13:44:04Z</time>
      </trkpt>
      <trkpt lat="46.53682" lon="-1.77593">
        <ele>19.844</ele>
        <time>2012-05-27T13:44:12Z</time>
      </trkpt>
      <trkpt lat="46.53694" lon="-1.77618">
        <ele>19.844</ele>
        <time>2012-05-27T13:44:22Z</time>
      </trkpt>
      <trkpt lat="46.53708" lon="-1.7764">
        <ele>18.883</ele>
        <time>2012-05-27T13:44:31Z</time>
      </trkpt>
      <trkpt lat="46.53732" lon="-1.77645">
        <ele>18.402</ele>
        <time>2012-05-27T13:44:40Z</time>
      </trkpt>
      <trkpt lat="46.53743" lon="-1.77642">
        <ele>17.922</ele>
        <time>2012-05-27T13:44:45Z</time>
      </trkpt>
      <trkpt lat="46.53745" lon="-1.77641">
        <ele>18.402</ele>
        <time>2012-05-27T13:44:49Z</time>
      </trkpt>
      <trkpt lat="46.53756" lon="-1.77636">
        <ele>18.883</ele>
        <time>2012-05-27T13:44:54Z</time>
      </trkpt>
      <trkpt lat="46.53771" lon="-1.77635">
        <ele>19.844</ele>
        <time>2012-05-27T13:45:00Z</time>
      </trkpt>
      <trkpt lat="46.53783" lon="-1.77638">
        <ele>19.844</ele>
        <time>2012-05-27T13:45:05Z</time>
      </trkpt>
      <trkpt lat="46.53802" lon="-1.77648">
        <ele>19.844</ele>
        <time>2012-05-27T13:45:12Z</time>
      </trkpt>
      <trkpt lat="46.53816" lon="-1.77669">
        <ele>18.402</ele>
        <time>2012-05-27T13:45:19Z</time>
      </trkpt>
      <trkpt lat="46.53825" lon="-1.77688">
        <ele>17.441</ele>
        <time>2012-05-27T13:45:23Z</time>
      </trkpt>
      <trkpt lat="46.53843" lon="-1.77725">
        <ele>16.48</ele>
        <time>2012-05-27T13:45:30Z</time>
      </trkpt>
      <trkpt lat="46.53853" lon="-1.77742">
        <ele>15.038</ele>
        <time>2012-05-27T13:45:33Z</time>
      </trkpt>
      <trkpt lat="46.53876" lon="-1.77768">
        <ele>13.115</ele>
        <time>2012-05-27T13:45:38Z</time>
      </trkpt>
      <trkpt lat="46.5389" lon="-1.77774">
        <ele>12.634</ele>
        <time>2012-05-27T13:45:41Z</time>
      </trkpt>
      <trkpt lat="46.53903" lon="-1.7776">
        <ele>11.193</ele>
        <time>2012-05-27T13:45:44Z</time>
      </trkpt>
      <trkpt lat="46.53912" lon="-1.77732">
        <ele>9.27</ele>
        <time>2012-05-27T13:45:47Z</time>
      </trkpt>
      <trkpt lat="46.53931" lon="-1.77695">
        <ele>6.386</ele>
        <time>2012-05-27T13:45:51Z</time>
      </trkpt>
      <trkpt lat="46.53937" lon="-1.77688">
        <ele>5.425</ele>
        <time>2012-05-27T13:45:52Z</time>
      </trkpt>
      <trkpt lat="46.53989" lon="-1.77651">
        <ele>2.06</ele>
        <time>2012-05-27T13:45:59Z</time>
      </trkpt>
      <trkpt lat="46.54055" lon="-1.77613">
        <ele>-4.189</ele>
        <time>2012-05-27T13:46:07Z</time>
      </trkpt>
      <trkpt lat="46.54092" lon="-1.77587">
        <ele>-5.63</ele>
        <time>2012-05-27T13:46:12Z</time>
      </trkpt>
      <trkpt lat="46.54127" lon="-1.77559">
        <ele>-5.15</ele>
        <time>2012-05-27T13:46:18Z</time>
      </trkpt>
      <trkpt lat="46.54137" lon="-1.77551">
        <ele>-4.189</ele>
        <time>2012-05-27T13:46:22Z</time>
      </trkpt>
      <trkpt lat="46.54146" lon="-1.77541">
        <ele>-3.227</ele>
        <time>2012-05-27T13:46:26Z</time>
      </trkpt>
      <trkpt lat="46.54167" lon="-1.77526">
        <ele>-2.747</ele>
        <time>2012-05-27T13:46:33Z</time>
      </trkpt>
      <trkpt lat="46.54185" lon="-1.77508">
        <ele>-2.266</ele>
        <time>2012-05-27T13:46:39Z</time>
      </trkpt>
      <trkpt lat="46.54213" lon="-1.77479">
        <ele>-1.785</ele>
        <time>2012-05-27T13:46:48Z</time>
      </trkpt>
      <trkpt lat="46.54226" lon="-1.77463">
        <ele>-1.785</ele>
        <time>2012-05-27T13:46:54Z</time>
      </trkpt>
      <trkpt lat="46.54234" lon="-1.77451">
        <ele>-1.785</ele>
        <time>2012-05-27T13:47:00Z</time>
      </trkpt>
      <trkpt lat="46.54232" lon="-1.77439">
        <ele>-1.785</ele>
        <time>2012-05-27T13:47:04Z</time>
      </trkpt>
      <trkpt lat="46.54222" lon="-1.77437">
        <ele>-0.824</ele>
        <time>2012-05-27T13:47:09Z</time>
      </trkpt>
      <trkpt lat="46.54217" lon="-1.77432">
        <ele>-0.824</ele>
        <time>2012-05-27T13:47:13Z</time>
      </trkpt>
      <trkpt lat="46.54212" lon="-1.77427">
        <ele>-0.343</ele>
        <time>2012-05-27T13:47:16Z</time>
      </trkpt>
      <trkpt lat="46.54211" lon="-1.77436">
        <ele>-0.343</ele>
        <time>2012-05-27T13:47:19Z</time>
      </trkpt>
      <trkpt lat="46.54218" lon="-1.77437">
        <ele>-0.824</ele>
        <time>2012-05-27T13:47:22Z</time>
      </trkpt>
      <trkpt lat="46.54222" lon="-1.77432">
        <ele>-0.824</ele>
        <time>2012-05-27T13:47:24Z</time>
      </trkpt>
      <trkpt lat="46.54228" lon="-1.77425">
        <ele>-1.305</ele>
        <time>2012-05-27T13:47:27Z</time>
      </trkpt>
      <trkpt lat="46.54227" lon="-1.77409">
        <ele>-1.305</ele>
        <time>2012-05-27T13:47:32Z</time>
      </trkpt>
      <trkpt lat="46.54222" lon="-1.77381">
        <ele>-2.266</ele>
        <time>2012-05-27T13:47:40Z</time>
      </trkpt>
      <trkpt lat="46.54219" lon="-1.77352">
        <ele>-2.266</ele>
        <time>2012-05-27T13:47:48Z</time>
      </trkpt>
      <trkpt lat="46.54216" lon="-1.77327">
        <ele>-2.266</ele>
        <time>2012-05-27T13:47:56Z</time>
      </trkpt>
      <trkpt lat="46.54214" lon="-1.77317">
        <ele>-1.785</ele>
        <time>2012-05-27T13:48:02Z</time>
      </trkpt>
      <trkpt lat="46.54213" lon="-1.77303">
        <ele>-2.266</ele>
        <time>2012-05-27T13:48:09Z</time>
      </trkpt>
      <trkpt lat="46.5421" lon="-1.77296">
        <ele>-2.266</ele>
        <time>2012-05-27T13:48:12Z</time>
      </trkpt>
      <trkpt lat="46.54205" lon="-1.773">
        <ele>-1.785</ele>
        <time>2012-05-27T13:48:16Z</time>
      </trkpt>
      <trkpt lat="46.54205" lon="-1.77302">
        <ele>-1.305</ele>
        <time>2012-05-27T13:48:19Z</time>
      </trkpt>
      <trkpt lat="46.54196" lon="-1.77295">
        <ele>4.463</ele>
        <time>2012-05-27T13:52:39Z</time>
      </trkpt>
      <trkpt lat="46.54191" lon="-1.77286">
        <ele>3.983</ele>
        <time>2012-05-27T13:52:45Z</time>
      </trkpt>
      <trkpt lat="46.54184" lon="-1.7728">
        <ele>3.021</ele>
        <time>2012-05-27T13:52:52Z</time>
      </trkpt>
      <trkpt lat="46.54177" lon="-1.77264">
        <ele>1.579</ele>
        <time>2012-05-27T13:53:00Z</time>
      </trkpt>
      <trkpt lat="46.54179" lon="-1.77248">
        <ele>1.579</ele>
        <time>2012-05-27T13:53:04Z</time>
      </trkpt>
      <trkpt lat="46.54192" lon="-1.77222">
        <ele>2.541</ele>
        <time>2012-05-27T13:53:11Z</time>
      </trkpt>
      <trkpt lat="46.54206" lon="-1.77198">
        <ele>3.502</ele>
        <time>2012-05-27T13:53:18Z</time>
      </trkpt>
      <trkpt lat="46.54221" lon="-1.7717">
        <ele>3.983</ele>
        <time>2012-05-27T13:53:26Z</time>
      </trkpt>
      <trkpt lat="46.54239" lon="-1.77138">
        <ele>4.463</ele>
        <time>2012-05-27T13:53:35Z</time>
      </trkpt>
      <trkpt lat="46.54244" lon="-1.77117">
        <ele>3.983</ele>
        <time>2012-05-27T13:53:40Z</time>
      </trkpt>
      <trkpt lat="46.5424" lon="-1.77091">
        <ele>3.983</ele>
        <time>2012-05-27T13:53:46Z</time>
      </trkpt>
      <trkpt lat="46.54241" lon="-1.77071">
        <ele>3.983</ele>
        <time>2012-05-27T13:53:52Z</time>
      </trkpt>
      <trkpt lat="46.54238" lon="-1.77046">
        <ele>3.983</ele>
        <time>2012-05-27T13:54:01Z</time>
      </trkpt>
      <trkpt lat="46.54229" lon="-1.77037">
        <ele>4.463</ele>
        <time>2012-05-27T13:54:05Z</time>
      </trkpt>
      <trkpt lat="46.54214" lon="-1.77037">
        <ele>4.944</ele>
        <time>2012-05-27T13:54:10Z</time>
      </trkpt>
      <trkpt lat="46.54177" lon="-1.77049">
        <ele>5.905</ele>
        <time>2012-05-27T13:54:21Z</time>
      </trkpt>
      <trkpt lat="46.54144" lon="-1.77063">
        <ele>6.386</ele>
        <time>2012-05-27T13:54:31Z</time>
      </trkpt>
      <trkpt lat="46.54117" lon="-1.77073">
        <ele>8.309</ele>
        <time>2012-05-27T13:54:39Z</time>
      </trkpt>
      <trkpt lat="46.54091" lon="-1.77084">
        <ele>9.751</ele>
        <time>2012-05-27T13:54:47Z</time>
      </trkpt>
      <trkpt lat="46.54052" lon="-1.771">
        <ele>12.154</ele>
        <time>2012-05-27T13:54:59Z</time>
      </trkpt>
      <trkpt lat="46.54015" lon="-1.77115">
        <ele>14.557</ele>
        <time>2012-05-27T13:55:10Z</time>
      </trkpt>
      <trkpt lat="46.53978" lon="-1.77128">
        <ele>16.48</ele>
        <time>2012-05-27T13:55:21Z</time>
      </trkpt>
      <trkpt lat="46.53949" lon="-1.77139">
        <ele>18.402</ele>
        <time>2012-05-27T13:55:32Z</time>
      </trkpt>
      <trkpt lat="46.53936" lon="-1.77147">
        <ele>19.364</ele>
        <time>2012-05-27T13:55:37Z</time>
      </trkpt>
      <trkpt lat="46.53918" lon="-1.77152">
        <ele>20.806</ele>
        <time>2012-05-27T13:55:44Z</time>
      </trkpt>
      <trkpt lat="46.539" lon="-1.77159">
        <ele>21.286</ele>
        <time>2012-05-27T13:55:51Z</time>
      </trkpt>
      <trkpt lat="46.53879" lon="-1.77168">
        <ele>21.767</ele>
        <time>2012-05-27T13:55:59Z</time>
      </trkpt>
      <trkpt lat="46.53855" lon="-1.77177">
        <ele>22.728</ele>
        <time>2012-05-27T13:56:08Z</time>
      </trkpt>
      <trkpt lat="46.53829" lon="-1.77188">
        <ele>23.69</ele>
        <time>2012-05-27T13:56:18Z</time>
      </trkpt>
      <trkpt lat="46.53803" lon="-1.77201">
        <ele>24.651</ele>
        <time>2012-05-27T13:56:28Z</time>
      </trkpt>
      <trkpt lat="46.53764" lon="-1.77217">
        <ele>25.132</ele>
        <time>2012-05-27T13:56:40Z</time>
      </trkpt>
      <trkpt lat="46.53733" lon="-1.77226">
        <ele>24.651</ele>
        <time>2012-05-27T13:56:49Z</time>
      </trkpt>
      <trkpt lat="46.5371" lon="-1.77233">
        <ele>25.612</ele>
        <time>2012-05-27T13:56:56Z</time>
      </trkpt>
      <trkpt lat="46.53684" lon="-1.77243">
        <ele>25.612</ele>
        <time>2012-05-27T13:57:04Z</time>
      </trkpt>
      <trkpt lat="46.53664" lon="-1.77249">
        <ele>28.496</ele>
        <time>2012-05-27T13:57:10Z</time>
      </trkpt>
      <trkpt lat="46.53653" lon="-1.77253">
        <ele>30.419</ele>
        <time>2012-05-27T13:57:15Z</time>
      </trkpt>
      <trkpt lat="46.53652" lon="-1.77254">
        <ele>31.861</ele>
        <time>2012-05-27T13:57:20Z</time>
      </trkpt>
      <trkpt lat="46.53645" lon="-1.77257">
        <ele>32.342</ele>
        <time>2012-05-27T13:57:58Z</time>
      </trkpt>
      <trkpt lat="46.53618" lon="-1.77269">
        <ele>29.938</ele>
        <time>2012-05-27T13:58:06Z</time>
      </trkpt>
      <trkpt lat="46.53571" lon="-1.77286">
        <ele>28.496</ele>
        <time>2012-05-27T13:58:17Z</time>
      </trkpt>
      <trkpt lat="46.53523" lon="-1.773">
        <ele>28.496</ele>
        <time>2012-05-27T13:58:27Z</time>
      </trkpt>
      <trkpt lat="46.53486" lon="-1.77318">
        <ele>25.612</ele>
        <time>2012-05-27T13:58:34Z</time>
      </trkpt>
      <trkpt lat="46.53434" lon="-1.77337">
        <ele>27.054</ele>
        <time>2012-05-27T13:58:42Z</time>
      </trkpt>
      <trkpt lat="46.53383" lon="-1.77361">
        <ele>22.728</ele>
        <time>2012-05-27T13:58:50Z</time>
      </trkpt>
      <trkpt lat="46.53344" lon="-1.77377">
        <ele>19.364</ele>
        <time>2012-05-27T13:58:56Z</time>
      </trkpt>
      <trkpt lat="46.53295" lon="-1.77388">
        <ele>15.999</ele>
        <time>2012-05-27T13:59:03Z</time>
      </trkpt>
      <trkpt lat="46.53228" lon="-1.77401">
        <ele>14.076</ele>
        <time>2012-05-27T13:59:12Z</time>
      </trkpt>
      <trkpt lat="46.5317" lon="-1.77404">
        <ele>9.27</ele>
        <time>2012-05-27T13:59:20Z</time>
      </trkpt>
      <trkpt lat="46.53122" lon="-1.77411">
        <ele>9.27</ele>
        <time>2012-05-27T13:59:27Z</time>
      </trkpt>
      <trkpt lat="46.53089" lon="-1.77415">
        <ele>8.309</ele>
        <time>2012-05-27T13:59:33Z</time>
      </trkpt>
      <trkpt lat="46.53064" lon="-1.77416">
        <ele>8.789</ele>
        <time>2012-05-27T13:59:39Z</time>
      </trkpt>
      <trkpt lat="46.53047" lon="-1.7742">
        <ele>8.789</ele>
        <time>2012-05-27T13:59:45Z</time>
      </trkpt>
      <trkpt lat="46.53026" lon="-1.77424">
        <ele>9.751</ele>
        <time>2012-05-27T13:59:51Z</time>
      </trkpt>
      <trkpt lat="46.52994" lon="-1.77428">
        <ele>10.712</ele>
        <time>2012-05-27T14:00:00Z</time>
      </trkpt>
      <trkpt lat="46.5297" lon="-1.77431">
        <ele>12.154</ele>
        <time>2012-05-27T14:00:07Z</time>
      </trkpt>
      <trkpt lat="46.52937" lon="-1.77434">
        <ele>12.154</ele>
        <time>2012-05-27T14:00:15Z</time>
      </trkpt>
      <trkpt lat="46.52913" lon="-1.77437">
        <ele>11.673</ele>
        <time>2012-05-27T14:00:22Z</time>
      </trkpt>
      <trkpt lat="46.52886" lon="-1.77441">
        <ele>12.154</ele>
        <time>2012-05-27T14:00:31Z</time>
      </trkpt>
      <trkpt lat="46.52856" lon="-1.77447">
        <ele>14.076</ele>
        <time>2012-05-27T14:00:41Z</time>
      </trkpt>
      <trkpt lat="46.52835" lon="-1.77451">
        <ele>14.557</ele>
        <time>2012-05-27T14:00:49Z</time>
      </trkpt>
      <trkpt lat="46.52806" lon="-1.77456">
        <ele>15.038</ele>
        <time>2012-05-27T14:00:59Z</time>
      </trkpt>
      <trkpt lat="46.52772" lon="-1.77461">
        <ele>16.48</ele>
        <time>2012-05-27T14:01:10Z</time>
      </trkpt>
      <trkpt lat="46.52747" lon="-1.77465">
        <ele>17.922</ele>
        <time>2012-05-27T14:01:18Z</time>
      </trkpt>
      <trkpt lat="46.52718" lon="-1.77469">
        <ele>19.364</ele>
        <time>2012-05-27T14:01:27Z</time>
      </trkpt>
      <trkpt lat="46.52684" lon="-1.77473">
        <ele>19.364</ele>
        <time>2012-05-27T14:01:38Z</time>
      </trkpt>
      <trkpt lat="46.52653" lon="-1.77476">
        <ele>18.883</ele>
        <time>2012-05-27T14:01:47Z</time>
      </trkpt>
      <trkpt lat="46.52624" lon="-1.7748">
        <ele>19.364</ele>
        <time>2012-05-27T14:01:56Z</time>
      </trkpt>
      <trkpt lat="46.52593" lon="-1.77484">
        <ele>18.402</ele>
        <time>2012-05-27T14:02:05Z</time>
      </trkpt>
      <trkpt lat="46.5256" lon="-1.77488">
        <ele>18.883</ele>
        <time>2012-05-27T14:02:14Z</time>
      </trkpt>
      <trkpt lat="46.52533" lon="-1.77491">
        <ele>18.883</ele>
        <time>2012-05-27T14:02:20Z</time>
      </trkpt>
      <trkpt lat="46.52493" lon="-1.77497">
        <ele>17.441</ele>
        <time>2012-05-27T14:02:29Z</time>
      </trkpt>
      <trkpt lat="46.52466" lon="-1.775">
        <ele>15.999</ele>
        <time>2012-05-27T14:02:36Z</time>
      </trkpt>
      <trkpt lat="46.52446" lon="-1.77503">
        <ele>15.518</ele>
        <time>2012-05-27T14:02:42Z</time>
      </trkpt>
      <trkpt lat="46.52409" lon="-1.77508">
        <ele>14.557</ele>
        <time>2012-05-27T14:02:50Z</time>
      </trkpt>
      <trkpt lat="46.52368" lon="-1.77514">
        <ele>14.076</ele>
        <time>2012-05-27T14:02:58Z</time>
      </trkpt>
      <trkpt lat="46.5232" lon="-1.7752">
        <ele>13.596</ele>
        <time>2012-05-27T14:03:06Z</time>
      </trkpt>
      <trkpt lat="46.52264" lon="-1.77528">
        <ele>13.596</ele>
        <time>2012-05-27T14:03:16Z</time>
      </trkpt>
      <trkpt lat="46.52211" lon="-1.77535">
        <ele>14.076</ele>
        <time>2012-05-27T14:03:26Z</time>
      </trkpt>
      <trkpt lat="46.52155" lon="-1.77542">
        <ele>14.076</ele>
        <time>2012-05-27T14:03:37Z</time>
      </trkpt>
      <trkpt lat="46.52102" lon="-1.77549">
        <ele>15.038</ele>
        <time>2012-05-27T14:03:48Z</time>
      </trkpt>
      <trkpt lat="46.52072" lon="-1.77553">
        <ele>14.557</ele>
        <time>2012-05-27T14:03:55Z</time>
      </trkpt>
      <trkpt lat="46.52021" lon="-1.7756">
        <ele>13.596</ele>
        <time>2012-05-27T14:04:07Z</time>
      </trkpt>
      <trkpt lat="46.5198" lon="-1.77566">
        <ele>12.154</ele>
        <time>2012-05-27T14:04:17Z</time>
      </trkpt>
      <trkpt lat="46.51946" lon="-1.77571">
        <ele>11.673</ele>
        <time>2012-05-27T14:04:26Z</time>
      </trkpt>
      <trkpt lat="46.51935" lon="-1.77572">
        <ele>11.193</ele>
        <time>2012-05-27T14:04:31Z</time>
      </trkpt>
      <trkpt lat="46.51922" lon="-1.77574">
        <ele>11.673</ele>
        <time>2012-05-27T14:04:37Z</time>
      </trkpt>
      <trkpt lat="46.51897" lon="-1.77577">
        <ele>11.193</ele>
        <time>2012-05-27T14:04:43Z</time>
      </trkpt>
      <trkpt lat="46.51849" lon="-1.77583">
        <ele>9.751</ele>
        <time>2012-05-27T14:04:53Z</time>
      </trkpt>
      <trkpt lat="46.51797" lon="-1.77589">
        <ele>9.27</ele>
        <time>2012-05-27T14:05:03Z</time>
      </trkpt>
      <trkpt lat="46.51733" lon="-1.77599">
        <ele>8.309</ele>
        <time>2012-05-27T14:05:15Z</time>
      </trkpt>
      <trkpt lat="46.51692" lon="-1.77605">
        <ele>7.347</ele>
        <time>2012-05-27T14:05:22Z</time>
      </trkpt>
      <trkpt lat="46.51649" lon="-1.77612">
        <ele>7.347</ele>
        <time>2012-05-27T14:05:30Z</time>
      </trkpt>
      <trkpt lat="46.51623" lon="-1.77615">
        <ele>8.309</ele>
        <time>2012-05-27T14:05:36Z</time>
      </trkpt>
      <trkpt lat="46.51599" lon="-1.77618">
        <ele>10.231</ele>
        <time>2012-05-27T14:05:42Z</time>
      </trkpt>
      <trkpt lat="46.51565" lon="-1.77625">
        <ele>12.154</ele>
        <time>2012-05-27T14:05:50Z</time>
      </trkpt>
      <trkpt lat="46.51532" lon="-1.77629">
        <ele>12.154</ele>
        <time>2012-05-27T14:05:58Z</time>
      </trkpt>
      <trkpt lat="46.51494" lon="-1.77635">
        <ele>12.634</ele>
        <time>2012-05-27T14:06:08Z</time>
      </trkpt>
      <trkpt lat="46.51461" lon="-1.77639">
        <ele>13.115</ele>
        <time>2012-05-27T14:06:17Z</time>
      </trkpt>
      <trkpt lat="46.5143" lon="-1.77643">
        <ele>12.634</ele>
        <time>2012-05-27T14:06:25Z</time>
      </trkpt>
      <trkpt lat="46.51403" lon="-1.77647">
        <ele>12.154</ele>
        <time>2012-05-27T14:06:33Z</time>
      </trkpt>
      <trkpt lat="46.51376" lon="-1.7765">
        <ele>12.154</ele>
        <time>2012-05-27T14:06:41Z</time>
      </trkpt>
      <trkpt lat="46.51362" lon="-1.77665">
        <ele>12.154</ele>
        <time>2012-05-27T14:06:46Z</time>
      </trkpt>
      <trkpt lat="46.51356" lon="-1.77686">
        <ele>12.154</ele>
        <time>2012-05-27T14:06:51Z</time>
      </trkpt>
      <trkpt lat="46.51345" lon="-1.77697">
        <ele>13.115</ele>
        <time>2012-05-27T14:06:55Z</time>
      </trkpt>
      <trkpt lat="46.51328" lon="-1.77697">
        <ele>13.115</ele>
        <time>2012-05-27T14:07:00Z</time>
      </trkpt>
      <trkpt lat="46.51317" lon="-1.77683">
        <ele>13.115</ele>
        <time>2012-05-27T14:07:04Z</time>
      </trkpt>
      <trkpt lat="46.51315" lon="-1.77678">
        <ele>13.115</ele>
        <time>2012-05-27T14:07:05Z</time>
      </trkpt>
      <trkpt lat="46.51298" lon="-1.77662">
        <ele>12.154</ele>
        <time>2012-05-27T14:07:10Z</time>
      </trkpt>
      <trkpt lat="46.51293" lon="-1.77662">
        <ele>12.154</ele>
        <time>2012-05-27T14:07:11Z</time>
      </trkpt>
      <trkpt lat="46.51251" lon="-1.77668">
        <ele>11.193</ele>
        <time>2012-05-27T14:07:21Z</time>
      </trkpt>
      <trkpt lat="46.51228" lon="-1.77669">
        <ele>10.712</ele>
        <time>2012-05-27T14:07:26Z</time>
      </trkpt>
      <trkpt lat="46.51202" lon="-1.77675">
        <ele>10.231</ele>
        <time>2012-05-27T14:07:32Z</time>
      </trkpt>
      <trkpt lat="46.51166" lon="-1.77678">
        <ele>11.193</ele>
        <time>2012-05-27T14:07:40Z</time>
      </trkpt>
      <trkpt lat="46.51137" lon="-1.77682">
        <ele>10.712</ele>
        <time>2012-05-27T14:07:47Z</time>
      </trkpt>
      <trkpt lat="46.51113" lon="-1.77684">
        <ele>10.712</ele>
        <time>2012-05-27T14:07:54Z</time>
      </trkpt>
      <trkpt lat="46.51081" lon="-1.77687">
        <ele>10.712</ele>
        <time>2012-05-27T14:08:02Z</time>
      </trkpt>
      <trkpt lat="46.51038" lon="-1.77693">
        <ele>10.231</ele>
        <time>2012-05-27T14:08:12Z</time>
      </trkpt>
      <trkpt lat="46.51009" lon="-1.77695">
        <ele>10.231</ele>
        <time>2012-05-27T14:08:19Z</time>
      </trkpt>
      <trkpt lat="46.50975" lon="-1.77701">
        <ele>9.27</ele>
        <time>2012-05-27T14:08:28Z</time>
      </trkpt>
      <trkpt lat="46.50962" lon="-1.77702">
        <ele>8.789</ele>
        <time>2012-05-27T14:08:31Z</time>
      </trkpt>
      <trkpt lat="46.50931" lon="-1.77708">
        <ele>8.789</ele>
        <time>2012-05-27T14:08:39Z</time>
      </trkpt>
      <trkpt lat="46.509" lon="-1.77711">
        <ele>8.789</ele>
        <time>2012-05-27T14:08:46Z</time>
      </trkpt>
      <trkpt lat="46.50861" lon="-1.77716">
        <ele>9.751</ele>
        <time>2012-05-27T14:08:55Z</time>
      </trkpt>
      <trkpt lat="46.50807" lon="-1.77724">
        <ele>8.789</ele>
        <time>2012-05-27T14:09:07Z</time>
      </trkpt>
      <trkpt lat="46.50774" lon="-1.77728">
        <ele>8.309</ele>
        <time>2012-05-27T14:09:15Z</time>
      </trkpt>
      <trkpt lat="46.50737" lon="-1.77733">
        <ele>7.828</ele>
        <time>2012-05-27T14:09:24Z</time>
      </trkpt>
      <trkpt lat="46.50718" lon="-1.77735">
        <ele>7.828</ele>
        <time>2012-05-27T14:09:30Z</time>
      </trkpt>
      <trkpt lat="46.50711" lon="-1.77736">
        <ele>7.828</ele>
        <time>2012-05-27T14:09:35Z</time>
      </trkpt>
      <trkpt lat="46.50712" lon="-1.77736">
        <ele>7.828</ele>
        <time>2012-05-27T14:09:36Z</time>
      </trkpt>
      <trkpt lat="46.50702" lon="-1.7774">
        <ele>10.712</ele>
        <time>2012-05-27T14:10:05Z</time>
      </trkpt>
      <trkpt lat="46.50679" lon="-1.77744">
        <ele>11.673</ele>
        <time>2012-05-27T14:10:11Z</time>
      </trkpt>
      <trkpt lat="46.50652" lon="-1.77747">
        <ele>10.712</ele>
        <time>2012-05-27T14:10:18Z</time>
      </trkpt>
      <trkpt lat="46.50614" lon="-1.77751">
        <ele>11.193</ele>
        <time>2012-05-27T14:10:27Z</time>
      </trkpt>
      <trkpt lat="46.50577" lon="-1.77756">
        <ele>8.309</ele>
        <time>2012-05-27T14:10:36Z</time>
      </trkpt>
      <trkpt lat="46.50539" lon="-1.77757">
        <ele>9.751</ele>
        <time>2012-05-27T14:10:45Z</time>
      </trkpt>
      <trkpt lat="46.50501" lon="-1.77764">
        <ele>9.751</ele>
        <time>2012-05-27T14:10:54Z</time>
      </trkpt>
      <trkpt lat="46.50484" lon="-1.77767">
        <ele>10.231</ele>
        <time>2012-05-27T14:11:00Z</time>
      </trkpt>
      <trkpt lat="46.50482" lon="-1.77782">
        <ele>9.751</ele>
        <time>2012-05-27T14:11:04Z</time>
      </trkpt>
      <trkpt lat="46.50486" lon="-1.77796">
        <ele>9.27</ele>
        <time>2012-05-27T14:11:07Z</time>
      </trkpt>
      <trkpt lat="46.50498" lon="-1.77837">
        <ele>9.751</ele>
        <time>2012-05-27T14:11:14Z</time>
      </trkpt>
      <trkpt lat="46.50514" lon="-1.77875">
        <ele>11.193</ele>
        <time>2012-05-27T14:11:20Z</time>
      </trkpt>
      <trkpt lat="46.50539" lon="-1.77922">
        <ele>9.751</ele>
        <time>2012-05-27T14:11:27Z</time>
      </trkpt>
      <trkpt lat="46.50555" lon="-1.7796">
        <ele>9.27</ele>
        <time>2012-05-27T14:11:32Z</time>
      </trkpt>
      <trkpt lat="46.50564" lon="-1.77995">
        <ele>9.27</ele>
        <time>2012-05-27T14:11:36Z</time>
      </trkpt>
      <trkpt lat="46.50575" lon="-1.78014">
        <ele>8.789</ele>
        <time>2012-05-27T14:11:40Z</time>
      </trkpt>
      <trkpt lat="46.50587" lon="-1.7801">
        <ele>8.789</ele>
        <time>2012-05-27T14:11:43Z</time>
      </trkpt>
      <trkpt lat="46.50592" lon="-1.78008">
        <ele>8.309</ele>
        <time>2012-05-27T14:11:44Z</time>
      </trkpt>
      <trkpt lat="46.50607" lon="-1.78004">
        <ele>6.866</ele>
        <time>2012-05-27T14:11:49Z</time>
      </trkpt>
      <trkpt lat="46.50607" lon="-1.78004">
        <ele>6.866</ele>
        <time>2012-05-27T14:11:50Z</time>
      </trkpt>
    </trkseg>
  </trk>
</gpx>